<?xml version="1.0" encoding="UTF-8"?>
<gpx xmlns="http://www.topografix.com/GPX/1/1" xmlns:xsi="http://www.w3.org/2001/XMLSchema-instance" version="1.1" xsi:schemaLocation="http://www.topografix.com/GPX/1/1 http://www.topografix.com/GPX/1/1/gpx.xsd">
  <metadata>
    <name>The One on the River - Henley - Middle Distance Aquabike</name>
  </metadata>
  <trk>
    <name>The One on the River - Henley - Middle Distance Aquabike</name>
    <trkseg>
      <trkpt lat="51.562478" lon="-0.89031">
        <ele>37.376006</ele>
        <time>2023-09-30T07:08:00.000Z</time>
      </trkpt>
      <trkpt lat="51.562335" lon="-0.89097">
        <ele>37.376017</ele>
        <time>2023-09-30T07:08:05.000Z</time>
      </trkpt>
      <trkpt lat="51.562316" lon="-0.891255">
        <ele>37.376016</ele>
        <time>2023-09-30T07:08:07.000Z</time>
      </trkpt>
      <trkpt lat="51.56233" lon="-0.891489">
        <ele>37.376004</ele>
        <time>2023-09-30T07:08:09.000Z</time>
      </trkpt>
      <trkpt lat="51.56238" lon="-0.892105">
        <ele>37.257179</ele>
        <time>2023-09-30T07:08:13.000Z</time>
      </trkpt>
      <trkpt lat="51.56237" lon="-0.892414">
        <ele>37.160068</ele>
        <time>2023-09-30T07:08:15.000Z</time>
      </trkpt>
      <trkpt lat="51.562345" lon="-0.892615">
        <ele>37.100255</ele>
        <time>2023-09-30T07:08:16.000Z</time>
      </trkpt>
      <trkpt lat="51.561991" lon="-0.894197">
        <ele>36.590323</ele>
        <time>2023-09-30T07:08:28.000Z</time>
      </trkpt>
      <trkpt lat="51.561573" lon="-0.896221">
        <ele>35.284838</ele>
        <time>2023-09-30T07:08:43.000Z</time>
      </trkpt>
      <trkpt lat="51.561513" lon="-0.896471">
        <ele>35.114282</ele>
        <time>2023-09-30T07:08:45.000Z</time>
      </trkpt>
      <trkpt lat="51.561054" lon="-0.897617">
        <ele>34.557406</ele>
        <time>2023-09-30T07:08:54.000Z</time>
      </trkpt>
      <trkpt lat="51.560954" lon="-0.897784">
        <ele>34.546588</ele>
        <time>2023-09-30T07:08:56.000Z</time>
      </trkpt>
      <trkpt lat="51.560708" lon="-0.898098">
        <ele>34.522463</ele>
        <time>2023-09-30T07:08:59.000Z</time>
      </trkpt>
      <trkpt lat="51.560456" lon="-0.898341">
        <ele>34.500579</ele>
        <time>2023-09-30T07:09:02.000Z</time>
      </trkpt>
      <trkpt lat="51.560123" lon="-0.898605">
        <ele>34.473448</ele>
        <time>2023-09-30T07:09:06.000Z</time>
      </trkpt>
      <trkpt lat="51.559632" lon="-0.898845">
        <ele>34.621515</ele>
        <time>2023-09-30T07:09:12.000Z</time>
      </trkpt>
      <trkpt lat="51.559534" lon="-0.898911">
        <ele>34.72636</ele>
        <time>2023-09-30T07:09:13.000Z</time>
      </trkpt>
      <trkpt lat="51.55937" lon="-0.899095">
        <ele>34.904025</ele>
        <time>2023-09-30T07:09:15.000Z</time>
      </trkpt>
      <trkpt lat="51.559237" lon="-0.89936">
        <ele>35.102486</ele>
        <time>2023-09-30T07:09:17.000Z</time>
      </trkpt>
      <trkpt lat="51.559125" lon="-0.899674">
        <ele>35.30785</ele>
        <time>2023-09-30T07:09:20.000Z</time>
      </trkpt>
      <trkpt lat="51.558863" lon="-0.90013">
        <ele>35.667026</ele>
        <time>2023-09-30T07:09:24.000Z</time>
      </trkpt>
      <trkpt lat="51.558682" lon="-0.900318">
        <ele>35.860145</ele>
        <time>2023-09-30T07:09:26.000Z</time>
      </trkpt>
      <trkpt lat="51.558283" lon="-0.900644">
        <ele>36.257766</ele>
        <time>2023-09-30T07:09:31.000Z</time>
      </trkpt>
      <trkpt lat="51.557594" lon="-0.901068">
        <ele>36.849626</ele>
        <time>2023-09-30T07:09:39.000Z</time>
      </trkpt>
      <trkpt lat="51.557199" lon="-0.901295">
        <ele>37.20317</ele>
        <time>2023-09-30T07:09:44.000Z</time>
      </trkpt>
      <trkpt lat="51.556266" lon="-0.901745">
        <ele>37.364581</ele>
        <time>2023-09-30T07:09:55.000Z</time>
      </trkpt>
      <trkpt lat="51.556217" lon="-0.901776">
        <ele>37.34424</ele>
        <time>2023-09-30T07:09:56.000Z</time>
      </trkpt>
      <trkpt lat="51.554082" lon="-0.902567">
        <ele>36.377428</ele>
        <time>2023-09-30T07:10:20.000Z</time>
      </trkpt>
      <trkpt lat="51.553323" lon="-0.90279">
        <ele>36.010073</ele>
        <time>2023-09-30T07:10:29.000Z</time>
      </trkpt>
      <trkpt lat="51.552962" lon="-0.902883">
        <ele>36.165971</ele>
        <time>2023-09-30T07:10:33.000Z</time>
      </trkpt>
      <trkpt lat="51.552547" lon="-0.90287">
        <ele>36.453441</ele>
        <time>2023-09-30T07:10:38.000Z</time>
      </trkpt>
      <trkpt lat="51.551179" lon="-0.90264">
        <ele>37.297979</ele>
        <time>2023-09-30T07:10:53.000Z</time>
      </trkpt>
      <trkpt lat="51.550697" lon="-0.902573">
        <ele>37.486965</ele>
        <time>2023-09-30T07:10:58.000Z</time>
      </trkpt>
      <trkpt lat="51.550059" lon="-0.9024">
        <ele>37.745088</ele>
        <time>2023-09-30T07:11:05.000Z</time>
      </trkpt>
      <trkpt lat="51.54881" lon="-0.90221">
        <ele>37.463229</ele>
        <time>2023-09-30T07:11:19.000Z</time>
      </trkpt>
      <trkpt lat="51.548709" lon="-0.902202">
        <ele>37.405117</ele>
        <time>2023-09-30T07:11:20.000Z</time>
      </trkpt>
      <trkpt lat="51.547535" lon="-0.902672">
        <ele>36.905392</ele>
        <time>2023-09-30T07:11:33.000Z</time>
      </trkpt>
      <trkpt lat="51.54587" lon="-0.90343">
        <ele>36.632023</ele>
        <time>2023-09-30T07:11:52.000Z</time>
      </trkpt>
      <trkpt lat="51.545479" lon="-0.90363">
        <ele>36.713515</ele>
        <time>2023-09-30T07:11:57.000Z</time>
      </trkpt>
      <trkpt lat="51.545454" lon="-0.903636">
        <ele>36.720391</ele>
        <time>2023-09-30T07:11:57.000Z</time>
      </trkpt>
      <trkpt lat="51.543969" lon="-0.90415">
        <ele>36.926327</ele>
        <time>2023-09-30T07:12:14.000Z</time>
      </trkpt>
      <trkpt lat="51.543279" lon="-0.904514">
        <ele>36.92507</ele>
        <time>2023-09-30T07:12:22.000Z</time>
      </trkpt>
      <trkpt lat="51.543128" lon="-0.90458">
        <ele>36.924773</ele>
        <time>2023-09-30T07:12:24.000Z</time>
      </trkpt>
      <trkpt lat="51.54254" lon="-0.904691">
        <ele>36.91964</ele>
        <time>2023-09-30T07:12:31.000Z</time>
      </trkpt>
      <trkpt lat="51.542356" lon="-0.904723">
        <ele>36.914082</ele>
        <time>2023-09-30T07:12:33.000Z</time>
      </trkpt>
      <trkpt lat="51.54204" lon="-0.904829">
        <ele>36.903929</ele>
        <time>2023-09-30T07:12:37.000Z</time>
      </trkpt>
      <trkpt lat="51.541875" lon="-0.904876">
        <ele>36.899052</ele>
        <time>2023-09-30T07:12:39.000Z</time>
      </trkpt>
      <trkpt lat="51.541684" lon="-0.90493">
        <ele>36.89306</ele>
        <time>2023-09-30T07:12:41.000Z</time>
      </trkpt>
      <trkpt lat="51.541867" lon="-0.904875">
        <ele>36.887069</ele>
        <time>2023-09-30T07:12:43.000Z</time>
      </trkpt>
      <trkpt lat="51.542035" lon="-0.904821">
        <ele>36.882185</ele>
        <time>2023-09-30T07:12:45.000Z</time>
      </trkpt>
      <trkpt lat="51.542368" lon="-0.904729">
        <ele>36.872035</ele>
        <time>2023-09-30T07:12:49.000Z</time>
      </trkpt>
      <trkpt lat="51.542537" lon="-0.904699">
        <ele>36.875908</ele>
        <time>2023-09-30T07:12:51.000Z</time>
      </trkpt>
      <trkpt lat="51.543124" lon="-0.904572">
        <ele>36.913078</ele>
        <time>2023-09-30T07:12:58.000Z</time>
      </trkpt>
      <trkpt lat="51.543281" lon="-0.90451">
        <ele>36.923243</ele>
        <time>2023-09-30T07:13:00.000Z</time>
      </trkpt>
      <trkpt lat="51.54397" lon="-0.904154">
        <ele>36.968838</ele>
        <time>2023-09-30T07:13:08.000Z</time>
      </trkpt>
      <trkpt lat="51.545454" lon="-0.903647">
        <ele>36.693765</ele>
        <time>2023-09-30T07:13:25.000Z</time>
      </trkpt>
      <trkpt lat="51.545483" lon="-0.903633">
        <ele>36.685971</ele>
        <time>2023-09-30T07:13:25.000Z</time>
      </trkpt>
      <trkpt lat="51.545888" lon="-0.903426">
        <ele>36.593541</ele>
        <time>2023-09-30T07:13:30.000Z</time>
      </trkpt>
      <trkpt lat="51.547532" lon="-0.902668">
        <ele>36.857601</ele>
        <time>2023-09-30T07:13:49.000Z</time>
      </trkpt>
      <trkpt lat="51.548711" lon="-0.902186">
        <ele>37.439561</ele>
        <time>2023-09-30T07:14:03.000Z</time>
      </trkpt>
      <trkpt lat="51.548825" lon="-0.902211">
        <ele>37.500718</ele>
        <time>2023-09-30T07:14:04.000Z</time>
      </trkpt>
      <trkpt lat="51.550058" lon="-0.902391">
        <ele>37.677257</ele>
        <time>2023-09-30T07:14:18.000Z</time>
      </trkpt>
      <trkpt lat="51.550699" lon="-0.902566">
        <ele>37.52137</ele>
        <time>2023-09-30T07:14:25.000Z</time>
      </trkpt>
      <trkpt lat="51.551176" lon="-0.902644">
        <ele>37.407241</ele>
        <time>2023-09-30T07:14:30.000Z</time>
      </trkpt>
      <trkpt lat="51.552542" lon="-0.90288">
        <ele>36.377792</ele>
        <time>2023-09-30T07:14:45.000Z</time>
      </trkpt>
      <trkpt lat="51.552971" lon="-0.90288">
        <ele>36.050575</ele>
        <time>2023-09-30T07:14:50.000Z</time>
      </trkpt>
      <trkpt lat="51.553334" lon="-0.90279">
        <ele>36.132537</ele>
        <time>2023-09-30T07:14:54.000Z</time>
      </trkpt>
      <trkpt lat="51.554078" lon="-0.902565">
        <ele>36.402204</ele>
        <time>2023-09-30T07:15:02.000Z</time>
      </trkpt>
      <trkpt lat="51.556228" lon="-0.901761">
        <ele>37.437982</ele>
        <time>2023-09-30T07:15:27.000Z</time>
      </trkpt>
      <trkpt lat="51.556262" lon="-0.90174">
        <ele>37.464429</ele>
        <time>2023-09-30T07:15:27.000Z</time>
      </trkpt>
      <trkpt lat="51.557198" lon="-0.901301">
        <ele>37.125528</ele>
        <time>2023-09-30T07:15:38.000Z</time>
      </trkpt>
      <trkpt lat="51.557595" lon="-0.901068">
        <ele>36.827196</ele>
        <time>2023-09-30T07:15:43.000Z</time>
      </trkpt>
      <trkpt lat="51.558285" lon="-0.900645">
        <ele>36.30794</ele>
        <time>2023-09-30T07:15:51.000Z</time>
      </trkpt>
      <trkpt lat="51.558692" lon="-0.900307">
        <ele>35.866249</ele>
        <time>2023-09-30T07:15:56.000Z</time>
      </trkpt>
      <trkpt lat="51.558865" lon="-0.900124">
        <ele>35.662366</ele>
        <time>2023-09-30T07:15:58.000Z</time>
      </trkpt>
      <trkpt lat="51.559128" lon="-0.899674">
        <ele>35.283175</ele>
        <time>2023-09-30T07:16:02.000Z</time>
      </trkpt>
      <trkpt lat="51.559236" lon="-0.899355">
        <ele>35.066359</ele>
        <time>2023-09-30T07:16:05.000Z</time>
      </trkpt>
      <trkpt lat="51.559385" lon="-0.899097">
        <ele>34.856831</ele>
        <time>2023-09-30T07:16:07.000Z</time>
      </trkpt>
      <trkpt lat="51.559532" lon="-0.898914">
        <ele>34.669284</ele>
        <time>2023-09-30T07:16:09.000Z</time>
      </trkpt>
      <trkpt lat="51.559636" lon="-0.898834">
        <ele>34.608587</ele>
        <time>2023-09-30T07:16:10.000Z</time>
      </trkpt>
      <trkpt lat="51.560131" lon="-0.898597">
        <ele>34.549544</ele>
        <time>2023-09-30T07:16:16.000Z</time>
      </trkpt>
      <trkpt lat="51.560449" lon="-0.89834">
        <ele>34.508723</ele>
        <time>2023-09-30T07:16:20.000Z</time>
      </trkpt>
      <trkpt lat="51.5607" lon="-0.898102">
        <ele>34.475794</ele>
        <time>2023-09-30T07:16:23.000Z</time>
      </trkpt>
      <trkpt lat="51.560955" lon="-0.897794">
        <ele>34.439485</ele>
        <time>2023-09-30T07:16:27.000Z</time>
      </trkpt>
      <trkpt lat="51.561043" lon="-0.897615">
        <ele>34.423208</ele>
        <time>2023-09-30T07:16:29.000Z</time>
      </trkpt>
      <trkpt lat="51.561499" lon="-0.896454">
        <ele>35.169239</ele>
        <time>2023-09-30T07:16:38.000Z</time>
      </trkpt>
      <trkpt lat="51.561567" lon="-0.896227">
        <ele>35.332795</ele>
        <time>2023-09-30T07:16:40.000Z</time>
      </trkpt>
      <trkpt lat="51.561997" lon="-0.894203">
        <ele>36.479307</ele>
        <time>2023-09-30T07:16:55.000Z</time>
      </trkpt>
      <trkpt lat="51.56234" lon="-0.892617">
        <ele>37.042192</ele>
        <time>2023-09-30T07:17:07.000Z</time>
      </trkpt>
      <trkpt lat="51.562359" lon="-0.892418">
        <ele>37.108201</ele>
        <time>2023-09-30T07:17:08.000Z</time>
      </trkpt>
      <trkpt lat="51.562381" lon="-0.892109">
        <ele>37.214291</ele>
        <time>2023-09-30T07:17:10.000Z</time>
      </trkpt>
      <trkpt lat="51.562321" lon="-0.891499">
        <ele>37.000243</ele>
        <time>2023-09-30T07:17:14.000Z</time>
      </trkpt>
      <trkpt lat="51.562322" lon="-0.891255">
        <ele>36.917463</ele>
        <time>2023-09-30T07:17:16.000Z</time>
      </trkpt>
      <trkpt lat="51.562344" lon="-0.890962">
        <ele>36.816257</ele>
        <time>2023-09-30T07:17:18.000Z</time>
      </trkpt>
      <trkpt lat="51.562481" lon="-0.890311">
        <ele>36.572061</ele>
        <time>2023-09-30T07:17:23.000Z</time>
      </trkpt>
      <trkpt lat="51.562721" lon="-0.889485">
        <ele>36.253156</ele>
        <time>2023-09-30T07:17:29.000Z</time>
      </trkpt>
      <trkpt lat="51.56294" lon="-0.888872">
        <ele>36.287818</ele>
        <time>2023-09-30T07:17:34.000Z</time>
      </trkpt>
      <trkpt lat="51.563152" lon="-0.887906">
        <ele>36.442076</ele>
        <time>2023-09-30T07:17:41.000Z</time>
      </trkpt>
      <trkpt lat="51.563256" lon="-0.887272">
        <ele>36.541218</ele>
        <time>2023-09-30T07:17:46.000Z</time>
      </trkpt>
      <trkpt lat="51.563698" lon="-0.884285">
        <ele>38.03864</ele>
        <time>2023-09-30T07:18:07.000Z</time>
      </trkpt>
      <trkpt lat="51.563795" lon="-0.883587">
        <ele>38.188633</ele>
        <time>2023-09-30T07:18:12.000Z</time>
      </trkpt>
      <trkpt lat="51.563871" lon="-0.88286">
        <ele>37.822777</ele>
        <time>2023-09-30T07:18:17.000Z</time>
      </trkpt>
      <trkpt lat="51.563895" lon="-0.882338">
        <ele>37.560248</ele>
        <time>2023-09-30T07:18:21.000Z</time>
      </trkpt>
      <trkpt lat="51.563896" lon="-0.882027">
        <ele>37.40386</ele>
        <time>2023-09-30T07:18:23.000Z</time>
      </trkpt>
      <trkpt lat="51.563879" lon="-0.881769">
        <ele>37.272449</ele>
        <time>2023-09-30T07:18:25.000Z</time>
      </trkpt>
      <trkpt lat="51.563716" lon="-0.881125">
        <ele>36.927277</ele>
        <time>2023-09-30T07:18:30.000Z</time>
      </trkpt>
      <trkpt lat="51.563695" lon="-0.88105">
        <ele>36.890716</ele>
        <time>2023-09-30T07:18:31.000Z</time>
      </trkpt>
      <trkpt lat="51.563153" lon="-0.8792">
        <ele>34.873703</ele>
        <time>2023-09-30T07:18:45.000Z</time>
      </trkpt>
      <trkpt lat="51.562924" lon="-0.878353">
        <ele>33.963223</ele>
        <time>2023-09-30T07:18:51.000Z</time>
      </trkpt>
      <trkpt lat="51.562882" lon="-0.878012">
        <ele>33.826357</ele>
        <time>2023-09-30T07:18:53.000Z</time>
      </trkpt>
      <trkpt lat="51.562835" lon="-0.877286">
        <ele>33.540802</ele>
        <time>2023-09-30T07:18:58.000Z</time>
      </trkpt>
      <trkpt lat="51.5628" lon="-0.877112">
        <ele>33.467454</ele>
        <time>2023-09-30T07:18:59.000Z</time>
      </trkpt>
      <trkpt lat="51.562745" lon="-0.876914">
        <ele>33.377179</ele>
        <time>2023-09-30T07:19:00.000Z</time>
      </trkpt>
      <trkpt lat="51.5625" lon="-0.876351">
        <ele>33.111071</ele>
        <time>2023-09-30T07:19:05.000Z</time>
      </trkpt>
      <trkpt lat="51.561703" lon="-0.874292">
        <ele>32.864788</ele>
        <time>2023-09-30T07:19:22.000Z</time>
      </trkpt>
      <trkpt lat="51.560917" lon="-0.872628">
        <ele>33.120513</ele>
        <time>2023-09-30T07:19:36.000Z</time>
      </trkpt>
      <trkpt lat="51.56033" lon="-0.871556">
        <ele>33.474352</ele>
        <time>2023-09-30T07:19:46.000Z</time>
      </trkpt>
      <trkpt lat="51.560176" lon="-0.871249">
        <ele>33.576288</ele>
        <time>2023-09-30T07:19:49.000Z</time>
      </trkpt>
      <trkpt lat="51.559239" lon="-0.86959">
        <ele>33.581404</ele>
        <time>2023-09-30T07:20:04.000Z</time>
      </trkpt>
      <trkpt lat="51.558968" lon="-0.868931">
        <ele>33.569356</ele>
        <time>2023-09-30T07:20:09.000Z</time>
      </trkpt>
      <trkpt lat="51.558914" lon="-0.868728">
        <ele>33.526118</ele>
        <time>2023-09-30T07:20:11.000Z</time>
      </trkpt>
      <trkpt lat="51.558724" lon="-0.868032">
        <ele>33.370658</ele>
        <time>2023-09-30T07:20:16.000Z</time>
      </trkpt>
      <trkpt lat="51.558374" lon="-0.866978">
        <ele>33.120606</ele>
        <time>2023-09-30T07:20:24.000Z</time>
      </trkpt>
      <trkpt lat="51.558304" lon="-0.866817">
        <ele>33.081572</ele>
        <time>2023-09-30T07:20:25.000Z</time>
      </trkpt>
      <trkpt lat="51.557925" lon="-0.865764">
        <ele>32.756936</ele>
        <time>2023-09-30T07:20:33.000Z</time>
      </trkpt>
      <trkpt lat="51.557596" lon="-0.864936">
        <ele>32.454442</ele>
        <time>2023-09-30T07:20:40.000Z</time>
      </trkpt>
      <trkpt lat="51.557349" lon="-0.864379">
        <ele>32.243059</ele>
        <time>2023-09-30T07:20:45.000Z</time>
      </trkpt>
      <trkpt lat="51.557015" lon="-0.863873">
        <ele>32.012623</ele>
        <time>2023-09-30T07:20:50.000Z</time>
      </trkpt>
      <trkpt lat="51.556916" lon="-0.863674">
        <ele>31.92489</ele>
        <time>2023-09-30T07:20:52.000Z</time>
      </trkpt>
      <trkpt lat="51.556778" lon="-0.86314">
        <ele>31.74299</ele>
        <time>2023-09-30T07:20:56.000Z</time>
      </trkpt>
      <trkpt lat="51.556686" lon="-0.862305">
        <ele>31.467557</ele>
        <time>2023-09-30T07:21:02.000Z</time>
      </trkpt>
      <trkpt lat="51.556561" lon="-0.86179">
        <ele>31.288269</ele>
        <time>2023-09-30T07:21:06.000Z</time>
      </trkpt>
      <trkpt lat="51.555922" lon="-0.860014">
        <ele>31.000248</ele>
        <time>2023-09-30T07:21:20.000Z</time>
      </trkpt>
      <trkpt lat="51.555769" lon="-0.859301">
        <ele>30.935611</ele>
        <time>2023-09-30T07:21:25.000Z</time>
      </trkpt>
      <trkpt lat="51.555643" lon="-0.85849">
        <ele>31.013766</ele>
        <time>2023-09-30T07:21:31.000Z</time>
      </trkpt>
      <trkpt lat="51.55549" lon="-0.857167">
        <ele>31.626022</ele>
        <time>2023-09-30T07:21:40.000Z</time>
      </trkpt>
      <trkpt lat="51.555432" lon="-0.856289">
        <ele>32.026456</ele>
        <time>2023-09-30T07:21:46.000Z</time>
      </trkpt>
      <trkpt lat="51.555408" lon="-0.855197">
        <ele>32.657101</ele>
        <time>2023-09-30T07:21:54.000Z</time>
      </trkpt>
      <trkpt lat="51.555498" lon="-0.853674">
        <ele>33.656279</ele>
        <time>2023-09-30T07:22:05.000Z</time>
      </trkpt>
      <trkpt lat="51.555515" lon="-0.852537">
        <ele>34.152683</ele>
        <time>2023-09-30T07:22:13.000Z</time>
      </trkpt>
      <trkpt lat="51.555453" lon="-0.849629">
        <ele>34.604407</ele>
        <time>2023-09-30T07:22:33.000Z</time>
      </trkpt>
      <trkpt lat="51.555436" lon="-0.84882">
        <ele>34.807086</ele>
        <time>2023-09-30T07:22:39.000Z</time>
      </trkpt>
      <trkpt lat="51.555439" lon="-0.847922">
        <ele>35.032479</ele>
        <time>2023-09-30T07:22:45.000Z</time>
      </trkpt>
      <trkpt lat="51.555453" lon="-0.847498">
        <ele>35.140483</ele>
        <time>2023-09-30T07:22:48.000Z</time>
      </trkpt>
      <trkpt lat="51.555371" lon="-0.846793">
        <ele>35.498839</ele>
        <time>2023-09-30T07:22:53.000Z</time>
      </trkpt>
      <trkpt lat="51.554963" lon="-0.845214">
        <ele>36.61251</ele>
        <time>2023-09-30T07:23:05.000Z</time>
      </trkpt>
      <trkpt lat="51.554568" lon="-0.843987">
        <ele>37.351377</ele>
        <time>2023-09-30T07:23:15.000Z</time>
      </trkpt>
      <trkpt lat="51.553919" lon="-0.841726">
        <ele>38.292684</ele>
        <time>2023-09-30T07:23:32.000Z</time>
      </trkpt>
      <trkpt lat="51.553853" lon="-0.8415">
        <ele>38.323197</ele>
        <time>2023-09-30T07:23:34.000Z</time>
      </trkpt>
      <trkpt lat="51.5537" lon="-0.840947">
        <ele>38.397314</ele>
        <time>2023-09-30T07:23:38.000Z</time>
      </trkpt>
      <trkpt lat="51.553594" lon="-0.840261">
        <ele>38.485677</ele>
        <time>2023-09-30T07:23:43.000Z</time>
      </trkpt>
      <trkpt lat="51.55352" lon="-0.839953">
        <ele>38.526271</ele>
        <time>2023-09-30T07:23:45.000Z</time>
      </trkpt>
      <trkpt lat="51.553161" lon="-0.838435">
        <ele>38.518334</ele>
        <time>2023-09-30T07:23:56.000Z</time>
      </trkpt>
      <trkpt lat="51.552455" lon="-0.834149">
        <ele>37.775612</ele>
        <time>2023-09-30T07:24:27.000Z</time>
      </trkpt>
      <trkpt lat="51.552374" lon="-0.833626">
        <ele>37.721266</ele>
        <time>2023-09-30T07:24:31.000Z</time>
      </trkpt>
      <trkpt lat="51.55219" lon="-0.832948">
        <ele>38.310364</ele>
        <time>2023-09-30T07:24:36.000Z</time>
      </trkpt>
      <trkpt lat="51.552088" lon="-0.832375">
        <ele>38.773339</ele>
        <time>2023-09-30T07:24:40.000Z</time>
      </trkpt>
      <trkpt lat="51.552065" lon="-0.83198">
        <ele>39.095759</ele>
        <time>2023-09-30T07:24:43.000Z</time>
      </trkpt>
      <trkpt lat="51.552076" lon="-0.831658">
        <ele>39.343181</ele>
        <time>2023-09-30T07:24:45.000Z</time>
      </trkpt>
      <trkpt lat="51.552148" lon="-0.830975">
        <ele>39.893863</ele>
        <time>2023-09-30T07:24:50.000Z</time>
      </trkpt>
      <trkpt lat="51.55225" lon="-0.83065">
        <ele>40.895856</ele>
        <time>2023-09-30T07:24:53.000Z</time>
      </trkpt>
      <trkpt lat="51.55295" lon="-0.828604">
        <ele>48.841409</ele>
        <time>2023-09-30T07:25:09.000Z</time>
      </trkpt>
      <trkpt lat="51.553635" lon="-0.827617">
        <ele>54.316936</ele>
        <time>2023-09-30T07:25:19.000Z</time>
      </trkpt>
      <trkpt lat="51.554676" lon="-0.826513">
        <ele>61.57374</ele>
        <time>2023-09-30T07:25:33.000Z</time>
      </trkpt>
      <trkpt lat="51.555924" lon="-0.825163">
        <ele>68.517046</ele>
        <time>2023-09-30T07:25:50.000Z</time>
      </trkpt>
      <trkpt lat="51.556388" lon="-0.824575">
        <ele>70.14277</ele>
        <time>2023-09-30T07:25:57.000Z</time>
      </trkpt>
      <trkpt lat="51.55671" lon="-0.824217">
        <ele>71.038485</ele>
        <time>2023-09-30T07:26:01.000Z</time>
      </trkpt>
      <trkpt lat="51.556784" lon="-0.824108">
        <ele>71.279704</ele>
        <time>2023-09-30T07:26:02.000Z</time>
      </trkpt>
      <trkpt lat="51.557021" lon="-0.823714">
        <ele>72.070531</ele>
        <time>2023-09-30T07:26:06.000Z</time>
      </trkpt>
      <trkpt lat="51.557154" lon="-0.823289">
        <ele>72.754451</ele>
        <time>2023-09-30T07:26:09.000Z</time>
      </trkpt>
      <trkpt lat="51.557183" lon="-0.823115">
        <ele>73.018774</ele>
        <time>2023-09-30T07:26:10.000Z</time>
      </trkpt>
      <trkpt lat="51.557201" lon="-0.822768">
        <ele>73.167612</ele>
        <time>2023-09-30T07:26:12.000Z</time>
      </trkpt>
      <trkpt lat="51.557184" lon="-0.822146">
        <ele>73.166319</ele>
        <time>2023-09-30T07:26:16.000Z</time>
      </trkpt>
      <trkpt lat="51.557187" lon="-0.821741">
        <ele>73.16545</ele>
        <time>2023-09-30T07:26:19.000Z</time>
      </trkpt>
      <trkpt lat="51.55719" lon="-0.82156">
        <ele>73.165094</ele>
        <time>2023-09-30T07:26:20.000Z</time>
      </trkpt>
      <trkpt lat="51.557181" lon="-0.821724">
        <ele>73.164738</ele>
        <time>2023-09-30T07:26:21.000Z</time>
      </trkpt>
      <trkpt lat="51.557214" lon="-0.822765">
        <ele>73.162582</ele>
        <time>2023-09-30T07:26:28.000Z</time>
      </trkpt>
      <trkpt lat="51.557193" lon="-0.823123">
        <ele>72.995004</ele>
        <time>2023-09-30T07:26:30.000Z</time>
      </trkpt>
      <trkpt lat="51.557154" lon="-0.823293">
        <ele>72.733012</ele>
        <time>2023-09-30T07:26:31.000Z</time>
      </trkpt>
      <trkpt lat="51.557036" lon="-0.823722">
        <ele>72.055119</ele>
        <time>2023-09-30T07:26:34.000Z</time>
      </trkpt>
      <trkpt lat="51.556794" lon="-0.824108">
        <ele>71.271274</ele>
        <time>2023-09-30T07:26:38.000Z</time>
      </trkpt>
      <trkpt lat="51.55671" lon="-0.82423">
        <ele>71.032166</ele>
        <time>2023-09-30T07:26:39.000Z</time>
      </trkpt>
      <trkpt lat="51.556401" lon="-0.824587">
        <ele>70.144352</ele>
        <time>2023-09-30T07:26:43.000Z</time>
      </trkpt>
      <trkpt lat="51.555916" lon="-0.825155">
        <ele>68.510439</ele>
        <time>2023-09-30T07:26:50.000Z</time>
      </trkpt>
      <trkpt lat="51.554662" lon="-0.826528">
        <ele>61.578704</ele>
        <time>2023-09-30T07:27:07.000Z</time>
      </trkpt>
      <trkpt lat="51.553639" lon="-0.827604">
        <ele>54.315774</ele>
        <time>2023-09-30T07:27:21.000Z</time>
      </trkpt>
      <trkpt lat="51.55295" lon="-0.828605">
        <ele>48.846495</ele>
        <time>2023-09-30T07:27:31.000Z</time>
      </trkpt>
      <trkpt lat="51.552251" lon="-0.830642">
        <ele>40.882955</ele>
        <time>2023-09-30T07:27:47.000Z</time>
      </trkpt>
      <trkpt lat="51.552149" lon="-0.830975">
        <ele>39.912547</ele>
        <time>2023-09-30T07:27:50.000Z</time>
      </trkpt>
      <trkpt lat="51.552088" lon="-0.831657">
        <ele>39.354189</ele>
        <time>2023-09-30T07:27:55.000Z</time>
      </trkpt>
      <trkpt lat="51.552069" lon="-0.831978">
        <ele>39.103305</ele>
        <time>2023-09-30T07:27:57.000Z</time>
      </trkpt>
      <trkpt lat="51.552099" lon="-0.832372">
        <ele>38.776389</ele>
        <time>2023-09-30T07:28:00.000Z</time>
      </trkpt>
      <trkpt lat="51.552199" lon="-0.832944">
        <ele>38.30695</ele>
        <time>2023-09-30T07:28:04.000Z</time>
      </trkpt>
      <trkpt lat="51.55237" lon="-0.833622">
        <ele>37.709619</ele>
        <time>2023-09-30T07:28:09.000Z</time>
      </trkpt>
      <trkpt lat="51.55246" lon="-0.834155">
        <ele>37.776649</ele>
        <time>2023-09-30T07:28:13.000Z</time>
      </trkpt>
      <trkpt lat="51.553163" lon="-0.838442">
        <ele>38.519291</ele>
        <time>2023-09-30T07:28:44.000Z</time>
      </trkpt>
      <trkpt lat="51.553531" lon="-0.839949">
        <ele>38.525677</ele>
        <time>2023-09-30T07:28:55.000Z</time>
      </trkpt>
      <trkpt lat="51.553589" lon="-0.840249">
        <ele>38.48539</ele>
        <time>2023-09-30T07:28:57.000Z</time>
      </trkpt>
      <trkpt lat="51.553697" lon="-0.840954">
        <ele>38.397655</ele>
        <time>2023-09-30T07:29:02.000Z</time>
      </trkpt>
      <trkpt lat="51.553857" lon="-0.841504">
        <ele>38.324089</ele>
        <time>2023-09-30T07:29:06.000Z</time>
      </trkpt>
      <trkpt lat="51.553924" lon="-0.841721">
        <ele>38.293794</ele>
        <time>2023-09-30T07:29:08.000Z</time>
      </trkpt>
      <trkpt lat="51.554556" lon="-0.843991">
        <ele>37.35289</ele>
        <time>2023-09-30T07:29:25.000Z</time>
      </trkpt>
      <trkpt lat="51.554949" lon="-0.845224">
        <ele>36.611712</ele>
        <time>2023-09-30T07:29:35.000Z</time>
      </trkpt>
      <trkpt lat="51.55537" lon="-0.846802">
        <ele>35.497473</ele>
        <time>2023-09-30T07:29:47.000Z</time>
      </trkpt>
      <trkpt lat="51.555455" lon="-0.847487">
        <ele>35.143673</ele>
        <time>2023-09-30T07:29:52.000Z</time>
      </trkpt>
      <trkpt lat="51.555444" lon="-0.847928">
        <ele>35.034691</ele>
        <time>2023-09-30T07:29:55.000Z</time>
      </trkpt>
      <trkpt lat="51.555427" lon="-0.848813">
        <ele>34.807237</ele>
        <time>2023-09-30T07:30:01.000Z</time>
      </trkpt>
      <trkpt lat="51.555448" lon="-0.849629">
        <ele>34.602708</ele>
        <time>2023-09-30T07:30:07.000Z</time>
      </trkpt>
      <trkpt lat="51.555505" lon="-0.852537">
        <ele>34.155367</ele>
        <time>2023-09-30T07:30:27.000Z</time>
      </trkpt>
      <trkpt lat="51.555504" lon="-0.853689">
        <ele>33.653827</ele>
        <time>2023-09-30T07:30:35.000Z</time>
      </trkpt>
      <trkpt lat="51.5554" lon="-0.855215">
        <ele>32.656877</ele>
        <time>2023-09-30T07:30:46.000Z</time>
      </trkpt>
      <trkpt lat="51.55543" lon="-0.856282">
        <ele>32.028829</ele>
        <time>2023-09-30T07:30:53.000Z</time>
      </trkpt>
      <trkpt lat="51.555484" lon="-0.857162">
        <ele>31.626094</ele>
        <time>2023-09-30T07:30:59.000Z</time>
      </trkpt>
      <trkpt lat="51.555629" lon="-0.858496">
        <ele>31.010311</ele>
        <time>2023-09-30T07:31:08.000Z</time>
      </trkpt>
      <trkpt lat="51.555776" lon="-0.859306">
        <ele>30.937613</ele>
        <time>2023-09-30T07:31:14.000Z</time>
      </trkpt>
      <trkpt lat="51.55593" lon="-0.860025">
        <ele>31.000873</ele>
        <time>2023-09-30T07:31:19.000Z</time>
      </trkpt>
      <trkpt lat="51.55656" lon="-0.861787">
        <ele>31.289023</ele>
        <time>2023-09-30T07:31:33.000Z</time>
      </trkpt>
      <trkpt lat="51.556673" lon="-0.862304">
        <ele>31.46808</ele>
        <time>2023-09-30T07:31:37.000Z</time>
      </trkpt>
      <trkpt lat="51.556777" lon="-0.863154">
        <ele>31.743102</ele>
        <time>2023-09-30T07:31:43.000Z</time>
      </trkpt>
      <trkpt lat="51.556907" lon="-0.863674">
        <ele>31.924729</ele>
        <time>2023-09-30T07:31:47.000Z</time>
      </trkpt>
      <trkpt lat="51.557023" lon="-0.863874">
        <ele>32.012339</ele>
        <time>2023-09-30T07:31:49.000Z</time>
      </trkpt>
      <trkpt lat="51.557359" lon="-0.864382">
        <ele>32.242737</ele>
        <time>2023-09-30T07:31:54.000Z</time>
      </trkpt>
      <trkpt lat="51.557608" lon="-0.864936">
        <ele>32.454397</ele>
        <time>2023-09-30T07:31:59.000Z</time>
      </trkpt>
      <trkpt lat="51.557921" lon="-0.865754">
        <ele>32.7573</ele>
        <time>2023-09-30T07:32:06.000Z</time>
      </trkpt>
      <trkpt lat="51.558311" lon="-0.866801">
        <ele>33.081175</ele>
        <time>2023-09-30T07:32:14.000Z</time>
      </trkpt>
      <trkpt lat="51.558375" lon="-0.866974">
        <ele>33.120336</ele>
        <time>2023-09-30T07:32:15.000Z</time>
      </trkpt>
      <trkpt lat="51.558738" lon="-0.868038">
        <ele>33.371099</ele>
        <time>2023-09-30T07:32:23.000Z</time>
      </trkpt>
      <trkpt lat="51.558904" lon="-0.868717">
        <ele>33.527014</ele>
        <time>2023-09-30T07:32:28.000Z</time>
      </trkpt>
      <trkpt lat="51.558982" lon="-0.868932">
        <ele>33.567853</ele>
        <time>2023-09-30T07:32:30.000Z</time>
      </trkpt>
      <trkpt lat="51.55923" lon="-0.869595">
        <ele>33.58089</ele>
        <time>2023-09-30T07:32:35.000Z</time>
      </trkpt>
      <trkpt lat="51.560182" lon="-0.871252">
        <ele>33.574902</ele>
        <time>2023-09-30T07:32:51.000Z</time>
      </trkpt>
      <trkpt lat="51.560342" lon="-0.871544">
        <ele>33.473148</ele>
        <time>2023-09-30T07:32:54.000Z</time>
      </trkpt>
      <trkpt lat="51.560903" lon="-0.872629">
        <ele>33.119832</ele>
        <time>2023-09-30T07:33:04.000Z</time>
      </trkpt>
      <trkpt lat="51.561696" lon="-0.874282">
        <ele>32.865363</ele>
        <time>2023-09-30T07:33:18.000Z</time>
      </trkpt>
      <trkpt lat="51.562494" lon="-0.876361">
        <ele>33.112236</ele>
        <time>2023-09-30T07:33:35.000Z</time>
      </trkpt>
      <trkpt lat="51.562747" lon="-0.876917">
        <ele>33.376592</ele>
        <time>2023-09-30T07:33:40.000Z</time>
      </trkpt>
      <trkpt lat="51.562796" lon="-0.877127">
        <ele>33.466296</ele>
        <time>2023-09-30T07:33:42.000Z</time>
      </trkpt>
      <trkpt lat="51.562839" lon="-0.877286">
        <ele>33.539166</ele>
        <time>2023-09-30T07:33:43.000Z</time>
      </trkpt>
      <trkpt lat="51.562869" lon="-0.878011">
        <ele>33.822853</ele>
        <time>2023-09-30T07:33:48.000Z</time>
      </trkpt>
      <trkpt lat="51.562934" lon="-0.878346">
        <ele>33.958828</ele>
        <time>2023-09-30T07:33:50.000Z</time>
      </trkpt>
      <trkpt lat="51.563166" lon="-0.879203">
        <ele>34.876025</ele>
        <time>2023-09-30T07:33:56.000Z</time>
      </trkpt>
      <trkpt lat="51.563695" lon="-0.88105">
        <ele>36.884073</ele>
        <time>2023-09-30T07:34:10.000Z</time>
      </trkpt>
      <trkpt lat="51.56372" lon="-0.88112">
        <ele>36.921047</ele>
        <time>2023-09-30T07:34:11.000Z</time>
      </trkpt>
      <trkpt lat="51.563869" lon="-0.881778">
        <ele>37.270085</ele>
        <time>2023-09-30T07:34:16.000Z</time>
      </trkpt>
      <trkpt lat="51.563894" lon="-0.882019">
        <ele>37.402957</ele>
        <time>2023-09-30T07:34:18.000Z</time>
      </trkpt>
      <trkpt lat="51.563885" lon="-0.882332">
        <ele>37.561088</ele>
        <time>2023-09-30T07:34:20.000Z</time>
      </trkpt>
      <trkpt lat="51.563875" lon="-0.882864">
        <ele>37.826557</ele>
        <time>2023-09-30T07:34:24.000Z</time>
      </trkpt>
      <trkpt lat="51.563791" lon="-0.883572">
        <ele>38.196497</ele>
        <time>2023-09-30T07:34:29.000Z</time>
      </trkpt>
      <trkpt lat="51.563697" lon="-0.88429">
        <ele>38.034364</ele>
        <time>2023-09-30T07:34:34.000Z</time>
      </trkpt>
      <trkpt lat="51.563252" lon="-0.887268">
        <ele>36.544607</ele>
        <time>2023-09-30T07:34:55.000Z</time>
      </trkpt>
      <trkpt lat="51.563137" lon="-0.887906">
        <ele>36.442773</ele>
        <time>2023-09-30T07:35:00.000Z</time>
      </trkpt>
      <trkpt lat="51.562936" lon="-0.88888">
        <ele>36.284305</ele>
        <time>2023-09-30T07:35:07.000Z</time>
      </trkpt>
      <trkpt lat="51.56272" lon="-0.889476">
        <ele>36.25418</ele>
        <time>2023-09-30T07:35:12.000Z</time>
      </trkpt>
      <trkpt lat="51.562483" lon="-0.890311">
        <ele>36.573688</ele>
        <time>2023-09-30T07:35:18.000Z</time>
      </trkpt>
      <trkpt lat="51.562347" lon="-0.890978">
        <ele>36.818363</ele>
        <time>2023-09-30T07:35:23.000Z</time>
      </trkpt>
      <trkpt lat="51.56232" lon="-0.891254">
        <ele>36.919757</ele>
        <time>2023-09-30T07:35:25.000Z</time>
      </trkpt>
      <trkpt lat="51.562334" lon="-0.8915">
        <ele>37.002681</ele>
        <time>2023-09-30T07:35:27.000Z</time>
      </trkpt>
      <trkpt lat="51.56238" lon="-0.892091">
        <ele>37.209155</ele>
        <time>2023-09-30T07:35:31.000Z</time>
      </trkpt>
      <trkpt lat="51.562362" lon="-0.892413">
        <ele>37.103159</ele>
        <time>2023-09-30T07:35:33.000Z</time>
      </trkpt>
      <trkpt lat="51.56233" lon="-0.89262">
        <ele>37.037862</ele>
        <time>2023-09-30T07:35:34.000Z</time>
      </trkpt>
      <trkpt lat="51.561994" lon="-0.894209">
        <ele>36.481164</ele>
        <time>2023-09-30T07:35:46.000Z</time>
      </trkpt>
      <trkpt lat="51.561567" lon="-0.896223">
        <ele>35.331236</ele>
        <time>2023-09-30T07:36:01.000Z</time>
      </trkpt>
      <trkpt lat="51.561505" lon="-0.896469">
        <ele>35.167354</ele>
        <time>2023-09-30T07:36:03.000Z</time>
      </trkpt>
      <trkpt lat="51.561046" lon="-0.897615">
        <ele>34.428462</ele>
        <time>2023-09-30T07:36:12.000Z</time>
      </trkpt>
      <trkpt lat="51.56096" lon="-0.897786">
        <ele>34.44387</ele>
        <time>2023-09-30T07:36:14.000Z</time>
      </trkpt>
      <trkpt lat="51.560697" lon="-0.898101">
        <ele>34.478206</ele>
        <time>2023-09-30T07:36:18.000Z</time>
      </trkpt>
      <trkpt lat="51.560445" lon="-0.898339">
        <ele>34.509341</ele>
        <time>2023-09-30T07:36:21.000Z</time>
      </trkpt>
      <trkpt lat="51.560134" lon="-0.898604">
        <ele>34.547961</ele>
        <time>2023-09-30T07:36:25.000Z</time>
      </trkpt>
      <trkpt lat="51.55963" lon="-0.898837">
        <ele>34.603811</ele>
        <time>2023-09-30T07:36:31.000Z</time>
      </trkpt>
      <trkpt lat="51.559524" lon="-0.89891">
        <ele>34.671261</ele>
        <time>2023-09-30T07:36:32.000Z</time>
      </trkpt>
      <trkpt lat="51.559369" lon="-0.899094">
        <ele>34.858517</ele>
        <time>2023-09-30T07:36:34.000Z</time>
      </trkpt>
      <trkpt lat="51.559239" lon="-0.899358">
        <ele>35.067729</ele>
        <time>2023-09-30T07:36:36.000Z</time>
      </trkpt>
      <trkpt lat="51.559121" lon="-0.899673">
        <ele>35.284207</ele>
        <time>2023-09-30T07:36:39.000Z</time>
      </trkpt>
      <trkpt lat="51.558852" lon="-0.900119">
        <ele>35.662826</ele>
        <time>2023-09-30T07:36:43.000Z</time>
      </trkpt>
      <trkpt lat="51.558684" lon="-0.900311">
        <ele>35.866385</ele>
        <time>2023-09-30T07:36:45.000Z</time>
      </trkpt>
      <trkpt lat="51.558284" lon="-0.900628">
        <ele>36.307415</ele>
        <time>2023-09-30T07:36:50.000Z</time>
      </trkpt>
      <trkpt lat="51.557601" lon="-0.901067">
        <ele>36.82733</ele>
        <time>2023-09-30T07:36:58.000Z</time>
      </trkpt>
      <trkpt lat="51.557192" lon="-0.901296">
        <ele>37.127733</ele>
        <time>2023-09-30T07:37:03.000Z</time>
      </trkpt>
      <trkpt lat="51.556277" lon="-0.901752">
        <ele>37.460815</ele>
        <time>2023-09-30T07:37:14.000Z</time>
      </trkpt>
      <trkpt lat="51.556224" lon="-0.90177">
        <ele>37.43456</ele>
        <time>2023-09-30T07:37:15.000Z</time>
      </trkpt>
      <trkpt lat="51.554078" lon="-0.902555">
        <ele>36.401953</ele>
        <time>2023-09-30T07:37:39.000Z</time>
      </trkpt>
      <trkpt lat="51.553331" lon="-0.902807">
        <ele>36.128747</ele>
        <time>2023-09-30T07:37:47.000Z</time>
      </trkpt>
      <trkpt lat="51.552968" lon="-0.902883">
        <ele>36.054481</ele>
        <time>2023-09-30T07:37:51.000Z</time>
      </trkpt>
      <trkpt lat="51.552539" lon="-0.902881">
        <ele>36.380634</ele>
        <time>2023-09-30T07:37:56.000Z</time>
      </trkpt>
      <trkpt lat="51.551182" lon="-0.902649">
        <ele>37.40268</ele>
        <time>2023-09-30T07:38:11.000Z</time>
      </trkpt>
      <trkpt lat="51.550693" lon="-0.902568">
        <ele>37.519378</ele>
        <time>2023-09-30T07:38:16.000Z</time>
      </trkpt>
      <trkpt lat="51.550051" lon="-0.902396">
        <ele>37.678797</ele>
        <time>2023-09-30T07:38:23.000Z</time>
      </trkpt>
      <trkpt lat="51.548819" lon="-0.902205">
        <ele>37.499488</ele>
        <time>2023-09-30T07:38:37.000Z</time>
      </trkpt>
      <trkpt lat="51.548698" lon="-0.902193">
        <ele>37.438378</ele>
        <time>2023-09-30T07:38:38.000Z</time>
      </trkpt>
      <trkpt lat="51.547536" lon="-0.902681">
        <ele>36.859469</ele>
        <time>2023-09-30T07:38:51.000Z</time>
      </trkpt>
      <trkpt lat="51.54587" lon="-0.903433">
        <ele>36.594827</ele>
        <time>2023-09-30T07:39:10.000Z</time>
      </trkpt>
      <trkpt lat="51.545491" lon="-0.903623">
        <ele>36.686988</ele>
        <time>2023-09-30T07:39:14.000Z</time>
      </trkpt>
      <trkpt lat="51.545458" lon="-0.903648">
        <ele>36.694761</ele>
        <time>2023-09-30T07:39:14.000Z</time>
      </trkpt>
      <trkpt lat="51.543974" lon="-0.904152">
        <ele>36.967048</ele>
        <time>2023-09-30T07:39:31.000Z</time>
      </trkpt>
      <trkpt lat="51.543282" lon="-0.904506">
        <ele>36.922908</ele>
        <time>2023-09-30T07:39:39.000Z</time>
      </trkpt>
      <trkpt lat="51.543135" lon="-0.904581">
        <ele>36.913051</ele>
        <time>2023-09-30T07:39:41.000Z</time>
      </trkpt>
      <trkpt lat="51.54254" lon="-0.904685">
        <ele>36.877036</ele>
        <time>2023-09-30T07:39:48.000Z</time>
      </trkpt>
      <trkpt lat="51.54237" lon="-0.904725">
        <ele>36.873946</ele>
        <time>2023-09-30T07:39:50.000Z</time>
      </trkpt>
      <trkpt lat="51.542036" lon="-0.904828">
        <ele>36.883413</ele>
        <time>2023-09-30T07:39:54.000Z</time>
      </trkpt>
      <trkpt lat="51.54188" lon="-0.904869">
        <ele>36.887957</ele>
        <time>2023-09-30T07:39:56.000Z</time>
      </trkpt>
      <trkpt lat="51.541689" lon="-0.904929">
        <ele>36.893545</ele>
        <time>2023-09-30T07:39:58.000Z</time>
      </trkpt>
      <trkpt lat="51.541885" lon="-0.904871">
        <ele>36.899133</ele>
        <time>2023-09-30T07:40:00.000Z</time>
      </trkpt>
      <trkpt lat="51.542039" lon="-0.904819">
        <ele>36.903677</ele>
        <time>2023-09-30T07:40:02.000Z</time>
      </trkpt>
      <trkpt lat="51.54237" lon="-0.904728">
        <ele>36.913152</ele>
        <time>2023-09-30T07:40:06.000Z</time>
      </trkpt>
      <trkpt lat="51.542543" lon="-0.904693">
        <ele>36.918324</ele>
        <time>2023-09-30T07:40:08.000Z</time>
      </trkpt>
      <trkpt lat="51.543124" lon="-0.90457">
        <ele>36.923942</ele>
        <time>2023-09-30T07:40:15.000Z</time>
      </trkpt>
      <trkpt lat="51.543286" lon="-0.904514">
        <ele>36.92457</ele>
        <time>2023-09-30T07:40:17.000Z</time>
      </trkpt>
      <trkpt lat="51.543966" lon="-0.904145">
        <ele>36.927418</ele>
        <time>2023-09-30T07:40:25.000Z</time>
      </trkpt>
      <trkpt lat="51.54546" lon="-0.903646">
        <ele>36.719641</ele>
        <time>2023-09-30T07:40:42.000Z</time>
      </trkpt>
      <trkpt lat="51.54549" lon="-0.903632">
        <ele>36.712726</ele>
        <time>2023-09-30T07:40:42.000Z</time>
      </trkpt>
      <trkpt lat="51.545872" lon="-0.90343">
        <ele>36.630747</ele>
        <time>2023-09-30T07:40:46.000Z</time>
      </trkpt>
      <trkpt lat="51.547545" lon="-0.902681">
        <ele>36.903995</ele>
        <time>2023-09-30T07:41:05.000Z</time>
      </trkpt>
      <trkpt lat="51.548698" lon="-0.902189">
        <ele>37.406158</ele>
        <time>2023-09-30T07:41:18.000Z</time>
      </trkpt>
      <trkpt lat="51.548822" lon="-0.902219">
        <ele>37.464421</ele>
        <time>2023-09-30T07:41:19.000Z</time>
      </trkpt>
      <trkpt lat="51.550048" lon="-0.902396">
        <ele>37.742078</ele>
        <time>2023-09-30T07:41:33.000Z</time>
      </trkpt>
      <trkpt lat="51.550699" lon="-0.902578">
        <ele>37.487345</ele>
        <time>2023-09-30T07:41:40.000Z</time>
      </trkpt>
      <trkpt lat="51.55118" lon="-0.902641">
        <ele>37.30085</ele>
        <time>2023-09-30T07:41:45.000Z</time>
      </trkpt>
      <trkpt lat="51.552536" lon="-0.902877">
        <ele>36.451257</ele>
        <time>2023-09-30T07:42:00.000Z</time>
      </trkpt>
      <trkpt lat="51.552969" lon="-0.902873">
        <ele>36.162139</ele>
        <time>2023-09-30T07:42:05.000Z</time>
      </trkpt>
      <trkpt lat="51.553336" lon="-0.902796">
        <ele>36.014428</ele>
        <time>2023-09-30T07:42:09.000Z</time>
      </trkpt>
      <trkpt lat="51.55408" lon="-0.902563">
        <ele>36.378774</ele>
        <time>2023-09-30T07:42:17.000Z</time>
      </trkpt>
      <trkpt lat="51.556228" lon="-0.901765">
        <ele>37.347037</ele>
        <time>2023-09-30T07:42:42.000Z</time>
      </trkpt>
      <trkpt lat="51.556278" lon="-0.901753">
        <ele>37.367631</ele>
        <time>2023-09-30T07:42:43.000Z</time>
      </trkpt>
      <trkpt lat="51.557193" lon="-0.901294">
        <ele>37.200225</ele>
        <time>2023-09-30T07:42:54.000Z</time>
      </trkpt>
      <trkpt lat="51.557597" lon="-0.901073">
        <ele>36.84836</ele>
        <time>2023-09-30T07:42:59.000Z</time>
      </trkpt>
      <trkpt lat="51.558275" lon="-0.900642">
        <ele>36.259306</ele>
        <time>2023-09-30T07:43:07.000Z</time>
      </trkpt>
      <trkpt lat="51.55868" lon="-0.900322">
        <ele>35.860775</ele>
        <time>2023-09-30T07:43:12.000Z</time>
      </trkpt>
      <trkpt lat="51.558859" lon="-0.900123">
        <ele>35.667227</ele>
        <time>2023-09-30T07:43:14.000Z</time>
      </trkpt>
      <trkpt lat="51.559118" lon="-0.899661">
        <ele>35.307291</ele>
        <time>2023-09-30T07:43:18.000Z</time>
      </trkpt>
      <trkpt lat="51.559246" lon="-0.899363">
        <ele>35.101464</ele>
        <time>2023-09-30T07:43:21.000Z</time>
      </trkpt>
      <trkpt lat="51.559385" lon="-0.899097">
        <ele>34.902554</ele>
        <time>2023-09-30T07:43:23.000Z</time>
      </trkpt>
      <trkpt lat="51.559524" lon="-0.898922">
        <ele>34.724522</ele>
        <time>2023-09-30T07:43:25.000Z</time>
      </trkpt>
      <trkpt lat="51.559634" lon="-0.898828">
        <ele>34.619443</ele>
        <time>2023-09-30T07:43:26.000Z</time>
      </trkpt>
      <trkpt lat="51.560127" lon="-0.898604">
        <ele>34.477036</ele>
        <time>2023-09-30T07:43:32.000Z</time>
      </trkpt>
      <trkpt lat="51.56046" lon="-0.898349">
        <ele>34.501793</ele>
        <time>2023-09-30T07:43:36.000Z</time>
      </trkpt>
      <trkpt lat="51.560709" lon="-0.898115">
        <ele>34.521747</ele>
        <time>2023-09-30T07:43:39.000Z</time>
      </trkpt>
      <trkpt lat="51.56095" lon="-0.897799">
        <ele>34.543755</ele>
        <time>2023-09-30T07:43:42.000Z</time>
      </trkpt>
      <trkpt lat="51.561045" lon="-0.897619">
        <ele>34.553618</ele>
        <time>2023-09-30T07:43:44.000Z</time>
      </trkpt>
      <trkpt lat="51.561512" lon="-0.896466">
        <ele>35.115959</ele>
        <time>2023-09-30T07:43:54.000Z</time>
      </trkpt>
      <trkpt lat="51.561569" lon="-0.896222">
        <ele>35.286399</ele>
        <time>2023-09-30T07:43:56.000Z</time>
      </trkpt>
      <trkpt lat="51.561994" lon="-0.894208">
        <ele>36.561416</ele>
        <time>2023-09-30T07:44:11.000Z</time>
      </trkpt>
      <trkpt lat="51.562342" lon="-0.892605">
        <ele>36.938285</ele>
        <time>2023-09-30T07:44:23.000Z</time>
      </trkpt>
      <trkpt lat="51.562369" lon="-0.892421">
        <ele>36.98249</ele>
        <time>2023-09-30T07:44:24.000Z</time>
      </trkpt>
      <trkpt lat="51.562379" lon="-0.892105">
        <ele>37.054267</ele>
        <time>2023-09-30T07:44:26.000Z</time>
      </trkpt>
      <trkpt lat="51.562326" lon="-0.891497">
        <ele>37.0562</ele>
        <time>2023-09-30T07:44:30.000Z</time>
      </trkpt>
      <trkpt lat="51.562323" lon="-0.891257">
        <ele>36.972206</ele>
        <time>2023-09-30T07:44:32.000Z</time>
      </trkpt>
      <trkpt lat="51.56234" lon="-0.890966">
        <ele>36.869522</ele>
        <time>2023-09-30T07:44:34.000Z</time>
      </trkpt>
      <trkpt lat="51.562492" lon="-0.890301">
        <ele>36.621714</ele>
        <time>2023-09-30T07:44:39.000Z</time>
      </trkpt>
      <trkpt lat="51.562725" lon="-0.889479">
        <ele>36.298117</ele>
        <time>2023-09-30T07:44:45.000Z</time>
      </trkpt>
      <trkpt lat="51.56294" lon="-0.888888">
        <ele>36.160256</ele>
        <time>2023-09-30T07:44:50.000Z</time>
      </trkpt>
      <trkpt lat="51.563148" lon="-0.887909">
        <ele>36.434845</ele>
        <time>2023-09-30T07:44:57.000Z</time>
      </trkpt>
      <trkpt lat="51.56324" lon="-0.887295">
        <ele>36.606031</ele>
        <time>2023-09-30T07:45:01.000Z</time>
      </trkpt>
      <trkpt lat="51.563242" lon="-0.887265">
        <ele>36.611288</ele>
        <time>2023-09-30T07:45:01.000Z</time>
      </trkpt>
      <trkpt lat="51.56369" lon="-0.884273">
        <ele>37.915191</ele>
        <time>2023-09-30T07:45:22.000Z</time>
      </trkpt>
      <trkpt lat="51.563797" lon="-0.883576">
        <ele>38.279535</ele>
        <time>2023-09-30T07:45:27.000Z</time>
      </trkpt>
      <trkpt lat="51.563864" lon="-0.882854">
        <ele>37.957529</ele>
        <time>2023-09-30T07:45:32.000Z</time>
      </trkpt>
      <trkpt lat="51.563885" lon="-0.882337">
        <ele>37.616647</ele>
        <time>2023-09-30T07:45:36.000Z</time>
      </trkpt>
      <trkpt lat="51.563889" lon="-0.882035">
        <ele>37.413596</ele>
        <time>2023-09-30T07:45:38.000Z</time>
      </trkpt>
      <trkpt lat="51.563864" lon="-0.881763">
        <ele>37.242962</ele>
        <time>2023-09-30T07:45:40.000Z</time>
      </trkpt>
      <trkpt lat="51.563724" lon="-0.88113">
        <ele>36.794779</ele>
        <time>2023-09-30T07:45:45.000Z</time>
      </trkpt>
      <trkpt lat="51.563701" lon="-0.881057">
        <ele>36.747314</ele>
        <time>2023-09-30T07:45:46.000Z</time>
      </trkpt>
      <trkpt lat="51.563152" lon="-0.879202">
        <ele>34.932425</ele>
        <time>2023-09-30T07:46:00.000Z</time>
      </trkpt>
      <trkpt lat="51.562924" lon="-0.878347">
        <ele>34.052689</ele>
        <time>2023-09-30T07:46:06.000Z</time>
      </trkpt>
      <trkpt lat="51.562884" lon="-0.878011">
        <ele>33.725007</ele>
        <time>2023-09-30T07:46:08.000Z</time>
      </trkpt>
      <trkpt lat="51.562831" lon="-0.877299">
        <ele>33.483535</ele>
        <time>2023-09-30T07:46:13.000Z</time>
      </trkpt>
      <trkpt lat="51.56279" lon="-0.877127">
        <ele>33.422863</ele>
        <time>2023-09-30T07:46:14.000Z</time>
      </trkpt>
      <trkpt lat="51.56274" lon="-0.876909">
        <ele>33.348199</ele>
        <time>2023-09-30T07:46:16.000Z</time>
      </trkpt>
      <trkpt lat="51.562497" lon="-0.876355">
        <ele>33.128112</ele>
        <time>2023-09-30T07:46:21.000Z</time>
      </trkpt>
      <trkpt lat="51.5617" lon="-0.874285">
        <ele>32.870745</ele>
        <time>2023-09-30T07:46:38.000Z</time>
      </trkpt>
      <trkpt lat="51.560912" lon="-0.872628">
        <ele>33.112439</ele>
        <time>2023-09-30T07:46:52.000Z</time>
      </trkpt>
      <trkpt lat="51.560336" lon="-0.871547">
        <ele>33.441332</ele>
        <time>2023-09-30T07:47:02.000Z</time>
      </trkpt>
      <trkpt lat="51.560178" lon="-0.87125">
        <ele>33.536062</ele>
        <time>2023-09-30T07:47:05.000Z</time>
      </trkpt>
      <trkpt lat="51.559245" lon="-0.86959">
        <ele>33.574129</ele>
        <time>2023-09-30T07:47:20.000Z</time>
      </trkpt>
      <trkpt lat="51.558976" lon="-0.86893">
        <ele>33.53518</ele>
        <time>2023-09-30T07:47:25.000Z</time>
      </trkpt>
      <trkpt lat="51.558914" lon="-0.86872">
        <ele>33.523317</ele>
        <time>2023-09-30T07:47:27.000Z</time>
      </trkpt>
      <trkpt lat="51.558721" lon="-0.868038">
        <ele>33.385581</ele>
        <time>2023-09-30T07:47:32.000Z</time>
      </trkpt>
      <trkpt lat="51.558382" lon="-0.86697">
        <ele>33.115425</ele>
        <time>2023-09-30T07:47:40.000Z</time>
      </trkpt>
      <trkpt lat="51.558309" lon="-0.866803">
        <ele>33.073225</ele>
        <time>2023-09-30T07:47:41.000Z</time>
      </trkpt>
      <trkpt lat="51.557925" lon="-0.865761">
        <ele>32.768974</ele>
        <time>2023-09-30T07:47:49.000Z</time>
      </trkpt>
      <trkpt lat="51.557604" lon="-0.864931">
        <ele>32.455454</ele>
        <time>2023-09-30T07:47:56.000Z</time>
      </trkpt>
      <trkpt lat="51.557343" lon="-0.864367">
        <ele>32.236395</ele>
        <time>2023-09-30T07:48:01.000Z</time>
      </trkpt>
      <trkpt lat="51.557023" lon="-0.863882">
        <ele>32.000334</ele>
        <time>2023-09-30T07:48:06.000Z</time>
      </trkpt>
      <trkpt lat="51.556907" lon="-0.863662">
        <ele>31.914405</ele>
        <time>2023-09-30T07:48:08.000Z</time>
      </trkpt>
      <trkpt lat="51.556777" lon="-0.863145">
        <ele>31.741452</ele>
        <time>2023-09-30T07:48:12.000Z</time>
      </trkpt>
      <trkpt lat="51.556685" lon="-0.862314">
        <ele>31.479556</ele>
        <time>2023-09-30T07:48:18.000Z</time>
      </trkpt>
      <trkpt lat="51.556573" lon="-0.861788">
        <ele>31.309058</ele>
        <time>2023-09-30T07:48:22.000Z</time>
      </trkpt>
      <trkpt lat="51.555917" lon="-0.860016">
        <ele>31.008426</ele>
        <time>2023-09-30T07:48:36.000Z</time>
      </trkpt>
      <trkpt lat="51.555771" lon="-0.859304">
        <ele>30.984933</ele>
        <time>2023-09-30T07:48:41.000Z</time>
      </trkpt>
      <trkpt lat="51.555633" lon="-0.858491">
        <ele>30.959042</ele>
        <time>2023-09-30T07:48:47.000Z</time>
      </trkpt>
      <trkpt lat="51.555495" lon="-0.857165">
        <ele>31.611845</ele>
        <time>2023-09-30T07:48:56.000Z</time>
      </trkpt>
      <trkpt lat="51.555427" lon="-0.856289">
        <ele>32.07643</ele>
        <time>2023-09-30T07:49:02.000Z</time>
      </trkpt>
      <trkpt lat="51.555412" lon="-0.855209">
        <ele>32.67078</ele>
        <time>2023-09-30T07:49:09.000Z</time>
      </trkpt>
      <trkpt lat="51.555507" lon="-0.853685">
        <ele>33.592889</ele>
        <time>2023-09-30T07:49:20.000Z</time>
      </trkpt>
      <trkpt lat="51.555516" lon="-0.852524">
        <ele>34.229313</ele>
        <time>2023-09-30T07:49:28.000Z</time>
      </trkpt>
      <trkpt lat="51.555454" lon="-0.849631">
        <ele>34.539228</ele>
        <time>2023-09-30T07:49:48.000Z</time>
      </trkpt>
      <trkpt lat="51.555435" lon="-0.848827">
        <ele>34.795076</ele>
        <time>2023-09-30T07:49:54.000Z</time>
      </trkpt>
      <trkpt lat="51.555452" lon="-0.847921">
        <ele>35.079599</ele>
        <time>2023-09-30T07:50:00.000Z</time>
      </trkpt>
      <trkpt lat="51.555451" lon="-0.847492">
        <ele>35.215949</ele>
        <time>2023-09-30T07:50:03.000Z</time>
      </trkpt>
      <trkpt lat="51.555365" lon="-0.846796">
        <ele>35.464941</ele>
        <time>2023-09-30T07:50:08.000Z</time>
      </trkpt>
      <trkpt lat="51.554951" lon="-0.845219">
        <ele>36.583982</ele>
        <time>2023-09-30T07:50:20.000Z</time>
      </trkpt>
      <trkpt lat="51.554574" lon="-0.843985">
        <ele>37.404051</ele>
        <time>2023-09-30T07:50:30.000Z</time>
      </trkpt>
      <trkpt lat="51.553916" lon="-0.841735">
        <ele>38.293298</ele>
        <time>2023-09-30T07:50:47.000Z</time>
      </trkpt>
      <trkpt lat="51.553842" lon="-0.84151">
        <ele>38.350453</ele>
        <time>2023-09-30T07:50:49.000Z</time>
      </trkpt>
      <trkpt lat="51.553696" lon="-0.840956">
        <ele>38.409765</ele>
        <time>2023-09-30T07:50:53.000Z</time>
      </trkpt>
      <trkpt lat="51.553587" lon="-0.840265">
        <ele>38.480474</ele>
        <time>2023-09-30T07:50:58.000Z</time>
      </trkpt>
      <trkpt lat="51.553526" lon="-0.839942">
        <ele>38.512967</ele>
        <time>2023-09-30T07:51:00.000Z</time>
      </trkpt>
      <trkpt lat="51.553156" lon="-0.838432">
        <ele>38.553097</ele>
        <time>2023-09-30T07:51:11.000Z</time>
      </trkpt>
      <trkpt lat="51.552464" lon="-0.834164">
        <ele>37.817479</ele>
        <time>2023-09-30T07:51:41.000Z</time>
      </trkpt>
      <trkpt lat="51.552371" lon="-0.833626">
        <ele>37.711423</ele>
        <time>2023-09-30T07:51:45.000Z</time>
      </trkpt>
      <trkpt lat="51.552203" lon="-0.832941">
        <ele>38.127116</ele>
        <time>2023-09-30T07:51:50.000Z</time>
      </trkpt>
      <trkpt lat="51.552093" lon="-0.83239">
        <ele>38.784138</ele>
        <time>2023-09-30T07:51:54.000Z</time>
      </trkpt>
      <trkpt lat="51.552061" lon="-0.831973">
        <ele>39.241691</ele>
        <time>2023-09-30T07:51:57.000Z</time>
      </trkpt>
      <trkpt lat="51.552074" lon="-0.831665">
        <ele>39.592841</ele>
        <time>2023-09-30T07:51:59.000Z</time>
      </trkpt>
      <trkpt lat="51.552146" lon="-0.830985">
        <ele>40.374337</ele>
        <time>2023-09-30T07:52:04.000Z</time>
      </trkpt>
      <trkpt lat="51.552243" lon="-0.830642">
        <ele>40.780308</ele>
        <time>2023-09-30T07:52:07.000Z</time>
      </trkpt>
      <trkpt lat="51.552952" lon="-0.828598">
        <ele>48.921768</ele>
        <time>2023-09-30T07:52:23.000Z</time>
      </trkpt>
      <trkpt lat="51.553623" lon="-0.827605">
        <ele>54.306998</ele>
        <time>2023-09-30T07:52:33.000Z</time>
      </trkpt>
      <trkpt lat="51.554664" lon="-0.82651">
        <ele>61.667536</ele>
        <time>2023-09-30T07:52:47.000Z</time>
      </trkpt>
      <trkpt lat="51.555922" lon="-0.82516">
        <ele>68.341758</ele>
        <time>2023-09-30T07:53:04.000Z</time>
      </trkpt>
      <trkpt lat="51.556401" lon="-0.824586">
        <ele>70.337628</ele>
        <time>2023-09-30T07:53:11.000Z</time>
      </trkpt>
      <trkpt lat="51.556709" lon="-0.824225">
        <ele>71.094692</ele>
        <time>2023-09-30T07:53:15.000Z</time>
      </trkpt>
      <trkpt lat="51.55679" lon="-0.824107">
        <ele>71.298585</ele>
        <time>2023-09-30T07:53:16.000Z</time>
      </trkpt>
      <trkpt lat="51.557027" lon="-0.823716">
        <ele>71.967027</ele>
        <time>2023-09-30T07:53:20.000Z</time>
      </trkpt>
      <trkpt lat="51.557155" lon="-0.823289">
        <ele>72.545085</ele>
        <time>2023-09-30T07:53:23.000Z</time>
      </trkpt>
      <trkpt lat="51.557195" lon="-0.823126">
        <ele>72.768507</ele>
        <time>2023-09-30T07:53:24.000Z</time>
      </trkpt>
      <trkpt lat="51.557199" lon="-0.82278">
        <ele>73.189447</ele>
        <time>2023-09-30T07:53:26.000Z</time>
      </trkpt>
      <trkpt lat="51.557182" lon="-0.821735">
        <ele>73.213073</ele>
        <time>2023-09-30T07:53:33.000Z</time>
      </trkpt>
      <trkpt lat="51.557177" lon="-0.821556">
        <ele>73.185648</ele>
        <time>2023-09-30T07:53:34.000Z</time>
      </trkpt>
      <trkpt lat="51.557181" lon="-0.821729">
        <ele>73.158231</ele>
        <time>2023-09-30T07:53:35.000Z</time>
      </trkpt>
      <trkpt lat="51.55721" lon="-0.822767">
        <ele>72.990567</ele>
        <time>2023-09-30T07:53:42.000Z</time>
      </trkpt>
      <trkpt lat="51.557178" lon="-0.823108">
        <ele>72.934918</ele>
        <time>2023-09-30T07:53:44.000Z</time>
      </trkpt>
      <trkpt lat="51.557151" lon="-0.823295">
        <ele>72.905401</ele>
        <time>2023-09-30T07:53:45.000Z</time>
      </trkpt>
      <trkpt lat="51.557032" lon="-0.823728">
        <ele>72.242199</ele>
        <time>2023-09-30T07:53:48.000Z</time>
      </trkpt>
      <trkpt lat="51.556794" lon="-0.824106">
        <ele>71.337213</ele>
        <time>2023-09-30T07:53:52.000Z</time>
      </trkpt>
      <trkpt lat="51.556703" lon="-0.82423">
        <ele>71.061149</ele>
        <time>2023-09-30T07:53:53.000Z</time>
      </trkpt>
      <trkpt lat="51.556398" lon="-0.82459">
        <ele>70.036151</ele>
        <time>2023-09-30T07:53:57.000Z</time>
      </trkpt>
      <trkpt lat="51.555923" lon="-0.825148">
        <ele>68.449036</ele>
        <time>2023-09-30T07:54:04.000Z</time>
      </trkpt>
      <trkpt lat="51.554668" lon="-0.826519">
        <ele>61.463479</ele>
        <time>2023-09-30T07:54:21.000Z</time>
      </trkpt>
      <trkpt lat="51.55363" lon="-0.827606">
        <ele>54.36727</ele>
        <time>2023-09-30T07:54:35.000Z</time>
      </trkpt>
      <trkpt lat="51.552951" lon="-0.828607">
        <ele>48.683183</ele>
        <time>2023-09-30T07:54:45.000Z</time>
      </trkpt>
      <trkpt lat="51.552245" lon="-0.830644">
        <ele>41.231326</ele>
        <time>2023-09-30T07:55:01.000Z</time>
      </trkpt>
      <trkpt lat="51.55215" lon="-0.830981">
        <ele>40.090929</ele>
        <time>2023-09-30T07:55:04.000Z</time>
      </trkpt>
      <trkpt lat="51.552072" lon="-0.831673">
        <ele>38.993382</ele>
        <time>2023-09-30T07:55:09.000Z</time>
      </trkpt>
      <trkpt lat="51.552063" lon="-0.831967">
        <ele>38.834369</ele>
        <time>2023-09-30T07:55:11.000Z</time>
      </trkpt>
      <trkpt lat="51.552094" lon="-0.832379">
        <ele>38.627144</ele>
        <time>2023-09-30T07:55:14.000Z</time>
      </trkpt>
      <trkpt lat="51.552197" lon="-0.832949">
        <ele>38.329601</ele>
        <time>2023-09-30T07:55:18.000Z</time>
      </trkpt>
      <trkpt lat="51.552381" lon="-0.833637">
        <ele>37.950973</ele>
        <time>2023-09-30T07:55:23.000Z</time>
      </trkpt>
      <trkpt lat="51.552457" lon="-0.834161">
        <ele>37.758131</ele>
        <time>2023-09-30T07:55:27.000Z</time>
      </trkpt>
      <trkpt lat="51.553152" lon="-0.83844">
        <ele>38.500045</ele>
        <time>2023-09-30T07:55:58.000Z</time>
      </trkpt>
      <trkpt lat="51.553531" lon="-0.839941">
        <ele>38.546455</ele>
        <time>2023-09-30T07:56:09.000Z</time>
      </trkpt>
      <trkpt lat="51.553585" lon="-0.840262">
        <ele>38.497398</ele>
        <time>2023-09-30T07:56:11.000Z</time>
      </trkpt>
      <trkpt lat="51.553711" lon="-0.840951">
        <ele>38.39062</ele>
        <time>2023-09-30T07:56:16.000Z</time>
      </trkpt>
      <trkpt lat="51.553847" lon="-0.841501">
        <ele>38.301072</ele>
        <time>2023-09-30T07:56:20.000Z</time>
      </trkpt>
      <trkpt lat="51.553909" lon="-0.841736">
        <ele>38.264202</ele>
        <time>2023-09-30T07:56:22.000Z</time>
      </trkpt>
      <trkpt lat="51.55456" lon="-0.843989">
        <ele>37.319711</ele>
        <time>2023-09-30T07:56:39.000Z</time>
      </trkpt>
      <trkpt lat="51.554964" lon="-0.845211">
        <ele>36.624587</ele>
        <time>2023-09-30T07:56:49.000Z</time>
      </trkpt>
      <trkpt lat="51.55538" lon="-0.846789">
        <ele>35.538799</ele>
        <time>2023-09-30T07:57:01.000Z</time>
      </trkpt>
      <trkpt lat="51.555461" lon="-0.847496">
        <ele>35.090371</ele>
        <time>2023-09-30T07:57:06.000Z</time>
      </trkpt>
      <trkpt lat="51.555445" lon="-0.84792">
        <ele>34.958867</ele>
        <time>2023-09-30T07:57:09.000Z</time>
      </trkpt>
      <trkpt lat="51.555436" lon="-0.84882">
        <ele>34.787676</ele>
        <time>2023-09-30T07:57:15.000Z</time>
      </trkpt>
      <trkpt lat="51.555461" lon="-0.849629">
        <ele>34.63373</ele>
        <time>2023-09-30T07:57:21.000Z</time>
      </trkpt>
      <trkpt lat="51.555508" lon="-0.852522">
        <ele>34.084508</ele>
        <time>2023-09-30T07:57:41.000Z</time>
      </trkpt>
      <trkpt lat="51.555498" lon="-0.853687">
        <ele>33.723556</ele>
        <time>2023-09-30T07:57:49.000Z</time>
      </trkpt>
      <trkpt lat="51.555407" lon="-0.855197">
        <ele>32.678123</ele>
        <time>2023-09-30T07:57:59.000Z</time>
      </trkpt>
      <trkpt lat="51.555433" lon="-0.856284">
        <ele>31.94338</ele>
        <time>2023-09-30T07:58:07.000Z</time>
      </trkpt>
      <trkpt lat="51.555485" lon="-0.857173">
        <ele>31.607707</ele>
        <time>2023-09-30T07:58:13.000Z</time>
      </trkpt>
      <trkpt lat="51.555639" lon="-0.8585">
        <ele>31.094443</ele>
        <time>2023-09-30T07:58:22.000Z</time>
      </trkpt>
      <trkpt lat="51.555773" lon="-0.859304">
        <ele>30.874612</ele>
        <time>2023-09-30T07:58:28.000Z</time>
      </trkpt>
      <trkpt lat="51.55592" lon="-0.860011">
        <ele>30.974383</ele>
        <time>2023-09-30T07:58:33.000Z</time>
      </trkpt>
      <trkpt lat="51.556571" lon="-0.861799">
        <ele>31.265822</ele>
        <time>2023-09-30T07:58:47.000Z</time>
      </trkpt>
      <trkpt lat="51.556684" lon="-0.862317">
        <ele>31.451369</ele>
        <time>2023-09-30T07:58:51.000Z</time>
      </trkpt>
      <trkpt lat="51.556785" lon="-0.863153">
        <ele>31.736381</ele>
        <time>2023-09-30T07:58:57.000Z</time>
      </trkpt>
      <trkpt lat="51.556918" lon="-0.863663">
        <ele>31.924621</ele>
        <time>2023-09-30T07:59:01.000Z</time>
      </trkpt>
      <trkpt lat="51.557007" lon="-0.863876">
        <ele>32.0154</ele>
        <time>2023-09-30T07:59:03.000Z</time>
      </trkpt>
      <trkpt lat="51.557358" lon="-0.864368">
        <ele>32.255123</ele>
        <time>2023-09-30T07:59:08.000Z</time>
      </trkpt>
      <trkpt lat="51.557606" lon="-0.864938">
        <ele>32.458031</ele>
        <time>2023-09-30T07:59:13.000Z</time>
      </trkpt>
      <trkpt lat="51.557924" lon="-0.865763">
        <ele>32.748403</ele>
        <time>2023-09-30T07:59:20.000Z</time>
      </trkpt>
      <trkpt lat="51.558315" lon="-0.866809">
        <ele>33.094886</ele>
        <time>2023-09-30T07:59:28.000Z</time>
      </trkpt>
      <trkpt lat="51.558369" lon="-0.86698">
        <ele>33.130837</ele>
        <time>2023-09-30T07:59:29.000Z</time>
      </trkpt>
      <trkpt lat="51.55872" lon="-0.868043">
        <ele>33.360965</ele>
        <time>2023-09-30T07:59:37.000Z</time>
      </trkpt>
      <trkpt lat="51.558911" lon="-0.868728">
        <ele>33.504038</ele>
        <time>2023-09-30T07:59:42.000Z</time>
      </trkpt>
      <trkpt lat="51.558983" lon="-0.868936">
        <ele>33.549141</ele>
        <time>2023-09-30T07:59:44.000Z</time>
      </trkpt>
      <trkpt lat="51.559239" lon="-0.8696">
        <ele>33.60416</ele>
        <time>2023-09-30T07:59:49.000Z</time>
      </trkpt>
      <trkpt lat="51.560168" lon="-0.871249">
        <ele>33.557347</ele>
        <time>2023-09-30T08:00:04.000Z</time>
      </trkpt>
      <trkpt lat="51.560335" lon="-0.871547">
        <ele>33.504732</ele>
        <time>2023-09-30T08:00:07.000Z</time>
      </trkpt>
      <trkpt lat="51.5609" lon="-0.87263">
        <ele>33.145768</ele>
        <time>2023-09-30T08:00:17.000Z</time>
      </trkpt>
      <trkpt lat="51.5617" lon="-0.874286">
        <ele>32.839008</ele>
        <time>2023-09-30T08:00:31.000Z</time>
      </trkpt>
      <trkpt lat="51.562503" lon="-0.876347">
        <ele>33.058967</ele>
        <time>2023-09-30T08:00:48.000Z</time>
      </trkpt>
      <trkpt lat="51.562744" lon="-0.876912">
        <ele>33.376432</ele>
        <time>2023-09-30T08:00:53.000Z</time>
      </trkpt>
      <trkpt lat="51.562788" lon="-0.877118">
        <ele>33.484157</ele>
        <time>2023-09-30T08:00:55.000Z</time>
      </trkpt>
      <trkpt lat="51.562833" lon="-0.877294">
        <ele>33.571654</ele>
        <time>2023-09-30T08:00:56.000Z</time>
      </trkpt>
      <trkpt lat="51.562883" lon="-0.878019">
        <ele>33.912302</ele>
        <time>2023-09-30T08:01:01.000Z</time>
      </trkpt>
      <trkpt lat="51.562934" lon="-0.878354">
        <ele>34.075609</ele>
        <time>2023-09-30T08:01:03.000Z</time>
      </trkpt>
      <trkpt lat="51.563166" lon="-0.87921">
        <ele>34.808666</ele>
        <time>2023-09-30T08:01:09.000Z</time>
      </trkpt>
      <trkpt lat="51.563713" lon="-0.881058">
        <ele>36.908616</ele>
        <time>2023-09-30T08:01:23.000Z</time>
      </trkpt>
      <trkpt lat="51.563727" lon="-0.881123">
        <ele>36.982976</ele>
        <time>2023-09-30T08:01:23.000Z</time>
      </trkpt>
      <trkpt lat="51.563871" lon="-0.881771">
        <ele>37.376494</ele>
        <time>2023-09-30T08:01:28.000Z</time>
      </trkpt>
      <trkpt lat="51.563892" lon="-0.882032">
        <ele>37.466688</ele>
        <time>2023-09-30T08:01:30.000Z</time>
      </trkpt>
      <trkpt lat="51.563896" lon="-0.882348">
        <ele>37.574012</ele>
        <time>2023-09-30T08:01:32.000Z</time>
      </trkpt>
      <trkpt lat="51.563861" lon="-0.882854">
        <ele>37.754185</ele>
        <time>2023-09-30T08:01:36.000Z</time>
      </trkpt>
      <trkpt lat="51.563798" lon="-0.883586">
        <ele>38.005293</ele>
        <time>2023-09-30T08:01:41.000Z</time>
      </trkpt>
      <trkpt lat="51.563685" lon="-0.884278">
        <ele>38.151286</ele>
        <time>2023-09-30T08:01:46.000Z</time>
      </trkpt>
      <trkpt lat="51.563251" lon="-0.887266">
        <ele>36.424454</ele>
        <time>2023-09-30T08:02:07.000Z</time>
      </trkpt>
      <trkpt lat="51.563139" lon="-0.887902">
        <ele>36.397649</ele>
        <time>2023-09-30T08:02:12.000Z</time>
      </trkpt>
      <trkpt lat="51.562938" lon="-0.888882">
        <ele>36.355954</ele>
        <time>2023-09-30T08:02:19.000Z</time>
      </trkpt>
      <trkpt lat="51.562736" lon="-0.889488">
        <ele>36.327735</ele>
        <time>2023-09-30T08:02:24.000Z</time>
      </trkpt>
      <trkpt lat="51.562475" lon="-0.890303">
        <ele>36.537073</ele>
        <time>2023-09-30T08:02:30.000Z</time>
      </trkpt>
      <trkpt lat="51.56235" lon="-0.890976">
        <ele>36.760085</ele>
        <time>2023-09-30T08:02:35.000Z</time>
      </trkpt>
      <trkpt lat="51.562325" lon="-0.891264">
        <ele>36.852503</ele>
        <time>2023-09-30T08:02:37.000Z</time>
      </trkpt>
      <trkpt lat="51.562319" lon="-0.891496">
        <ele>36.928095</ele>
        <time>2023-09-30T08:02:39.000Z</time>
      </trkpt>
      <trkpt lat="51.562376" lon="-0.892096">
        <ele>37.123568</ele>
        <time>2023-09-30T08:02:43.000Z</time>
      </trkpt>
      <trkpt lat="51.562362" lon="-0.892415">
        <ele>37.225833</ele>
        <time>2023-09-30T08:02:45.000Z</time>
      </trkpt>
      <trkpt lat="51.562344" lon="-0.892606">
        <ele>37.177018</ele>
        <time>2023-09-30T08:02:46.000Z</time>
      </trkpt>
      <trkpt lat="51.561989" lon="-0.894207">
        <ele>36.452499</ele>
        <time>2023-09-30T08:02:58.000Z</time>
      </trkpt>
      <trkpt lat="51.561569" lon="-0.896231">
        <ele>35.364771</ele>
        <time>2023-09-30T08:03:13.000Z</time>
      </trkpt>
      <trkpt lat="51.561504" lon="-0.896455">
        <ele>35.213269</ele>
        <time>2023-09-30T08:03:15.000Z</time>
      </trkpt>
      <trkpt lat="51.561038" lon="-0.897613">
        <ele>34.407578</ele>
        <time>2023-09-30T08:03:25.000Z</time>
      </trkpt>
      <trkpt lat="51.560959" lon="-0.897796">
        <ele>34.301408</ele>
        <time>2023-09-30T08:03:27.000Z</time>
      </trkpt>
      <trkpt lat="51.560708" lon="-0.898115">
        <ele>34.389851</ele>
        <time>2023-09-30T08:03:31.000Z</time>
      </trkpt>
      <trkpt lat="51.560452" lon="-0.898336">
        <ele>34.470069</ele>
        <time>2023-09-30T08:03:34.000Z</time>
      </trkpt>
      <trkpt lat="51.560129" lon="-0.898611">
        <ele>34.569533</ele>
        <time>2023-09-30T08:03:38.000Z</time>
      </trkpt>
      <trkpt lat="51.559641" lon="-0.898845">
        <ele>34.713384</ele>
        <time>2023-09-30T08:03:44.000Z</time>
      </trkpt>
      <trkpt lat="51.559533" lon="-0.898922">
        <ele>34.74473</ele>
        <time>2023-09-30T08:03:45.000Z</time>
      </trkpt>
      <trkpt lat="51.559374" lon="-0.899095">
        <ele>34.811685</ele>
        <time>2023-09-30T08:03:47.000Z</time>
      </trkpt>
      <trkpt lat="51.559239" lon="-0.899365">
        <ele>35.028494</ele>
        <time>2023-09-30T08:03:49.000Z</time>
      </trkpt>
      <trkpt lat="51.55912" lon="-0.899658">
        <ele>35.252845</ele>
        <time>2023-09-30T08:03:51.000Z</time>
      </trkpt>
      <trkpt lat="51.558866" lon="-0.900124">
        <ele>35.645199</ele>
        <time>2023-09-30T08:03:55.000Z</time>
      </trkpt>
      <trkpt lat="51.558694" lon="-0.900306">
        <ele>35.856161</ele>
        <time>2023-09-30T08:03:57.000Z</time>
      </trkpt>
      <trkpt lat="51.55828" lon="-0.900643">
        <ele>36.313182</ele>
        <time>2023-09-30T08:04:02.000Z</time>
      </trkpt>
      <trkpt lat="51.557612" lon="-0.901079">
        <ele>36.847062</ele>
        <time>2023-09-30T08:04:10.000Z</time>
      </trkpt>
      <trkpt lat="51.557185" lon="-0.90131">
        <ele>37.082504</ele>
        <time>2023-09-30T08:04:15.000Z</time>
      </trkpt>
      <trkpt lat="51.556276" lon="-0.901737">
        <ele>37.561518</ele>
        <time>2023-09-30T08:04:26.000Z</time>
      </trkpt>
      <trkpt lat="51.556231" lon="-0.901766">
        <ele>37.531112</ele>
        <time>2023-09-30T08:04:27.000Z</time>
      </trkpt>
      <trkpt lat="51.554084" lon="-0.902554">
        <ele>36.388227</ele>
        <time>2023-09-30T08:04:51.000Z</time>
      </trkpt>
      <trkpt lat="51.553333" lon="-0.902803">
        <ele>36.223111</ele>
        <time>2023-09-30T08:05:00.000Z</time>
      </trkpt>
      <trkpt lat="51.552974" lon="-0.902875">
        <ele>36.144025</ele>
        <time>2023-09-30T08:05:04.000Z</time>
      </trkpt>
      <trkpt lat="51.552544" lon="-0.902871">
        <ele>36.300432</ele>
        <time>2023-09-30T08:05:09.000Z</time>
      </trkpt>
      <trkpt lat="51.551175" lon="-0.90264">
        <ele>37.423554</ele>
        <time>2023-09-30T08:05:24.000Z</time>
      </trkpt>
      <trkpt lat="51.550693" lon="-0.90257">
        <ele>37.599732</ele>
        <time>2023-09-30T08:05:29.000Z</time>
      </trkpt>
      <trkpt lat="51.550057" lon="-0.902399">
        <ele>37.657389</ele>
        <time>2023-09-30T08:05:36.000Z</time>
      </trkpt>
      <trkpt lat="51.548814" lon="-0.902217">
        <ele>37.527822</ele>
        <time>2023-09-30T08:05:50.000Z</time>
      </trkpt>
      <trkpt lat="51.548707" lon="-0.902202">
        <ele>37.466813</ele>
        <time>2023-09-30T08:05:51.000Z</time>
      </trkpt>
      <trkpt lat="51.547534" lon="-0.902676">
        <ele>36.836078</ele>
        <time>2023-09-30T08:06:04.000Z</time>
      </trkpt>
      <trkpt lat="51.54587" lon="-0.903433">
        <ele>36.617169</ele>
        <time>2023-09-30T08:06:23.000Z</time>
      </trkpt>
      <trkpt lat="51.545489" lon="-0.903619">
        <ele>36.658732</ele>
        <time>2023-09-30T08:06:27.000Z</time>
      </trkpt>
      <trkpt lat="51.545459" lon="-0.903648">
        <ele>36.666935</ele>
        <time>2023-09-30T08:06:27.000Z</time>
      </trkpt>
      <trkpt lat="51.54396" lon="-0.904153">
        <ele>37.025668</ele>
        <time>2023-09-30T08:06:44.000Z</time>
      </trkpt>
      <trkpt lat="51.543284" lon="-0.904507">
        <ele>36.942756</ele>
        <time>2023-09-30T08:06:52.000Z</time>
      </trkpt>
      <trkpt lat="51.543124" lon="-0.904571">
        <ele>36.924244</ele>
        <time>2023-09-30T08:06:54.000Z</time>
      </trkpt>
      <trkpt lat="51.542552" lon="-0.904692">
        <ele>36.856646</ele>
        <time>2023-09-30T08:07:00.000Z</time>
      </trkpt>
      <trkpt lat="51.542372" lon="-0.904728">
        <ele>36.835568</ele>
        <time>2023-09-30T08:07:02.000Z</time>
      </trkpt>
      <trkpt lat="51.542034" lon="-0.904824">
        <ele>36.835217</ele>
        <time>2023-09-30T08:07:06.000Z</time>
      </trkpt>
      <trkpt lat="51.541882" lon="-0.904873">
        <ele>36.849215</ele>
        <time>2023-09-30T08:07:08.000Z</time>
      </trkpt>
      <trkpt lat="51.541677" lon="-0.904928">
        <ele>36.866364</ele>
        <time>2023-09-30T08:07:10.000Z</time>
      </trkpt>
      <trkpt lat="51.541881" lon="-0.904862">
        <ele>36.883526</ele>
        <time>2023-09-30T08:07:12.000Z</time>
      </trkpt>
      <trkpt lat="51.542032" lon="-0.904828">
        <ele>36.897507</ele>
        <time>2023-09-30T08:07:14.000Z</time>
      </trkpt>
      <trkpt lat="51.542357" lon="-0.904722">
        <ele>36.926592</ele>
        <time>2023-09-30T08:07:18.000Z</time>
      </trkpt>
      <trkpt lat="51.542537" lon="-0.904682">
        <ele>36.942474</ele>
        <time>2023-09-30T08:07:20.000Z</time>
      </trkpt>
      <trkpt lat="51.543134" lon="-0.904575">
        <ele>36.961701</ele>
        <time>2023-09-30T08:07:27.000Z</time>
      </trkpt>
      <trkpt lat="51.543289" lon="-0.904511">
        <ele>36.951929</ele>
        <time>2023-09-30T08:07:29.000Z</time>
      </trkpt>
      <trkpt lat="51.543976" lon="-0.904144">
        <ele>36.908102</ele>
        <time>2023-09-30T08:07:37.000Z</time>
      </trkpt>
      <trkpt lat="51.545454" lon="-0.903638">
        <ele>36.73418</ele>
        <time>2023-09-30T08:07:54.000Z</time>
      </trkpt>
      <trkpt lat="51.545489" lon="-0.903622">
        <ele>36.728594</ele>
        <time>2023-09-30T08:07:54.000Z</time>
      </trkpt>
      <trkpt lat="51.545885" lon="-0.903441">
        <ele>36.662374</ele>
        <time>2023-09-30T08:07:59.000Z</time>
      </trkpt>
      <trkpt lat="51.547532" lon="-0.902671">
        <ele>36.934639</ele>
        <time>2023-09-30T08:08:18.000Z</time>
      </trkpt>
      <trkpt lat="51.548698" lon="-0.902192">
        <ele>37.385535</ele>
        <time>2023-09-30T08:08:31.000Z</time>
      </trkpt>
      <trkpt lat="51.548826" lon="-0.902207">
        <ele>37.437775</ele>
        <time>2023-09-30T08:08:32.000Z</time>
      </trkpt>
      <trkpt lat="51.550064" lon="-0.902402">
        <ele>37.847933</ele>
        <time>2023-09-30T08:08:46.000Z</time>
      </trkpt>
      <trkpt lat="51.550701" lon="-0.902568">
        <ele>37.498323</ele>
        <time>2023-09-30T08:08:53.000Z</time>
      </trkpt>
      <trkpt lat="51.551167" lon="-0.902643">
        <ele>37.242364</ele>
        <time>2023-09-30T08:08:58.000Z</time>
      </trkpt>
      <trkpt lat="51.552539" lon="-0.902874">
        <ele>36.496457</ele>
        <time>2023-09-30T08:09:13.000Z</time>
      </trkpt>
      <trkpt lat="51.552976" lon="-0.902873">
        <ele>36.26264</ele>
        <time>2023-09-30T08:09:18.000Z</time>
      </trkpt>
      <trkpt lat="51.553331" lon="-0.902798">
        <ele>36.063147</ele>
        <time>2023-09-30T08:09:22.000Z</time>
      </trkpt>
      <trkpt lat="51.55407" lon="-0.902555">
        <ele>36.331956</ele>
        <time>2023-09-30T08:09:30.000Z</time>
      </trkpt>
      <trkpt lat="51.556216" lon="-0.901772">
        <ele>37.281563</ele>
        <time>2023-09-30T08:09:54.000Z</time>
      </trkpt>
      <trkpt lat="51.556262" lon="-0.901747">
        <ele>37.294655</ele>
        <time>2023-09-30T08:09:55.000Z</time>
      </trkpt>
      <trkpt lat="51.557196" lon="-0.901306">
        <ele>37.283698</ele>
        <time>2023-09-30T08:10:06.000Z</time>
      </trkpt>
      <trkpt lat="51.55761" lon="-0.901077">
        <ele>36.890157</ele>
        <time>2023-09-30T08:10:11.000Z</time>
      </trkpt>
      <trkpt lat="51.558283" lon="-0.900642">
        <ele>36.231334</ele>
        <time>2023-09-30T08:10:19.000Z</time>
      </trkpt>
      <trkpt lat="51.558683" lon="-0.90032">
        <ele>35.826322</ele>
        <time>2023-09-30T08:10:24.000Z</time>
      </trkpt>
      <trkpt lat="51.558863" lon="-0.900118">
        <ele>35.647454</ele>
        <time>2023-09-30T08:10:26.000Z</time>
      </trkpt>
      <trkpt lat="51.559123" lon="-0.899675">
        <ele>35.314815</ele>
        <time>2023-09-30T08:10:30.000Z</time>
      </trkpt>
      <trkpt lat="51.559238" lon="-0.89937">
        <ele>35.12459</ele>
        <time>2023-09-30T08:10:32.000Z</time>
      </trkpt>
      <trkpt lat="51.559368" lon="-0.899109">
        <ele>34.940789</ele>
        <time>2023-09-30T08:10:34.000Z</time>
      </trkpt>
      <trkpt lat="51.559537" lon="-0.898915">
        <ele>34.77625</ele>
        <time>2023-09-30T08:10:36.000Z</time>
      </trkpt>
      <trkpt lat="51.559642" lon="-0.898828">
        <ele>34.679154</ele>
        <time>2023-09-30T08:10:37.000Z</time>
      </trkpt>
      <trkpt lat="51.560133" lon="-0.898602">
        <ele>34.349914</ele>
        <time>2023-09-30T08:10:43.000Z</time>
      </trkpt>
      <trkpt lat="51.560453" lon="-0.898345">
        <ele>34.442924</ele>
        <time>2023-09-30T08:10:47.000Z</time>
      </trkpt>
      <trkpt lat="51.560699" lon="-0.898104">
        <ele>34.517933</ele>
        <time>2023-09-30T08:10:50.000Z</time>
      </trkpt>
      <trkpt lat="51.560948" lon="-0.897794">
        <ele>34.600611</ele>
        <time>2023-09-30T08:10:54.000Z</time>
      </trkpt>
      <trkpt lat="51.56104" lon="-0.897614">
        <ele>34.637695</ele>
        <time>2023-09-30T08:10:56.000Z</time>
      </trkpt>
      <trkpt lat="51.561514" lon="-0.896458">
        <ele>35.077561</ele>
        <time>2023-09-30T08:11:06.000Z</time>
      </trkpt>
      <trkpt lat="51.561584" lon="-0.896219">
        <ele>35.249434</ele>
        <time>2023-09-30T08:11:08.000Z</time>
      </trkpt>
      <trkpt lat="51.561995" lon="-0.894198">
        <ele>36.673211</ele>
        <time>2023-09-30T08:11:23.000Z</time>
      </trkpt>
      <trkpt lat="51.56234" lon="-0.89262">
        <ele>36.886668</ele>
        <time>2023-09-30T08:11:35.000Z</time>
      </trkpt>
      <trkpt lat="51.562357" lon="-0.892425">
        <ele>36.907204</ele>
        <time>2023-09-30T08:11:36.000Z</time>
      </trkpt>
      <trkpt lat="51.562375" lon="-0.892107">
        <ele>36.940541</ele>
        <time>2023-09-30T08:11:38.000Z</time>
      </trkpt>
      <trkpt lat="51.562317" lon="-0.891499">
        <ele>37.004305</ele>
        <time>2023-09-30T08:11:42.000Z</time>
      </trkpt>
      <trkpt lat="51.562314" lon="-0.891259">
        <ele>36.989602</ele>
        <time>2023-09-30T08:11:44.000Z</time>
      </trkpt>
      <trkpt lat="51.562346" lon="-0.890973">
        <ele>36.893476</ele>
        <time>2023-09-30T08:11:46.000Z</time>
      </trkpt>
      <trkpt lat="51.562475" lon="-0.890314">
        <ele>36.66155</ele>
        <time>2023-09-30T08:11:51.000Z</time>
      </trkpt>
      <trkpt lat="51.562728" lon="-0.889489">
        <ele>36.358675</ele>
        <time>2023-09-30T08:11:57.000Z</time>
      </trkpt>
      <trkpt lat="51.562938" lon="-0.888875">
        <ele>36.128658</ele>
        <time>2023-09-30T08:12:02.000Z</time>
      </trkpt>
      <trkpt lat="51.56315" lon="-0.887909">
        <ele>36.370941</ele>
        <time>2023-09-30T08:12:09.000Z</time>
      </trkpt>
      <trkpt lat="51.563249" lon="-0.887267">
        <ele>36.621398</ele>
        <time>2023-09-30T08:12:14.000Z</time>
      </trkpt>
      <trkpt lat="51.563693" lon="-0.884283">
        <ele>37.817168</ele>
        <time>2023-09-30T08:12:35.000Z</time>
      </trkpt>
      <trkpt lat="51.563799" lon="-0.88357">
        <ele>38.103937</ele>
        <time>2023-09-30T08:12:40.000Z</time>
      </trkpt>
      <trkpt lat="51.563862" lon="-0.88286">
        <ele>38.138622</ele>
        <time>2023-09-30T08:12:45.000Z</time>
      </trkpt>
      <trkpt lat="51.563897" lon="-0.882334">
        <ele>37.728541</ele>
        <time>2023-09-30T08:12:49.000Z</time>
      </trkpt>
      <trkpt lat="51.563896" lon="-0.882036">
        <ele>37.48428</ele>
        <time>2023-09-30T08:12:51.000Z</time>
      </trkpt>
      <trkpt lat="51.563872" lon="-0.881768">
        <ele>37.279007</ele>
        <time>2023-09-30T08:12:53.000Z</time>
      </trkpt>
      <trkpt lat="51.563731" lon="-0.881118">
        <ele>36.739834</ele>
        <time>2023-09-30T08:12:58.000Z</time>
      </trkpt>
      <trkpt lat="51.563701" lon="-0.881058">
        <ele>36.68271</ele>
        <time>2023-09-30T08:12:59.000Z</time>
      </trkpt>
      <trkpt lat="51.563166" lon="-0.879194">
        <ele>34.958087</ele>
        <time>2023-09-30T08:13:13.000Z</time>
      </trkpt>
      <trkpt lat="51.562925" lon="-0.878346">
        <ele>34.144418</ele>
        <time>2023-09-30T08:13:19.000Z</time>
      </trkpt>
      <trkpt lat="51.562878" lon="-0.878005">
        <ele>33.841344</ele>
        <time>2023-09-30T08:13:21.000Z</time>
      </trkpt>
      <trkpt lat="51.562838" lon="-0.877286">
        <ele>33.412223</ele>
        <time>2023-09-30T08:13:26.000Z</time>
      </trkpt>
      <trkpt lat="51.562803" lon="-0.877121">
        <ele>33.36307</ele>
        <time>2023-09-30T08:13:27.000Z</time>
      </trkpt>
      <trkpt lat="51.562745" lon="-0.876918">
        <ele>33.302568</ele>
        <time>2023-09-30T08:13:29.000Z</time>
      </trkpt>
      <trkpt lat="51.562494" lon="-0.876356">
        <ele>33.124263</ele>
        <time>2023-09-30T08:13:34.000Z</time>
      </trkpt>
      <trkpt lat="51.5617" lon="-0.87428">
        <ele>32.85395</ele>
        <time>2023-09-30T08:13:51.000Z</time>
      </trkpt>
      <trkpt lat="51.560904" lon="-0.872623">
        <ele>33.126949</ele>
        <time>2023-09-30T08:14:05.000Z</time>
      </trkpt>
      <trkpt lat="51.560339" lon="-0.871542">
        <ele>33.416803</ele>
        <time>2023-09-30T08:14:15.000Z</time>
      </trkpt>
      <trkpt lat="51.56017" lon="-0.87124">
        <ele>33.50029</ele>
        <time>2023-09-30T08:14:18.000Z</time>
      </trkpt>
      <trkpt lat="51.559238" lon="-0.869597">
        <ele>33.579667</ele>
        <time>2023-09-30T08:14:33.000Z</time>
      </trkpt>
      <trkpt lat="51.55898" lon="-0.868939">
        <ele>33.516501</ele>
        <time>2023-09-30T08:14:38.000Z</time>
      </trkpt>
      <trkpt lat="51.558907" lon="-0.868726">
        <ele>33.49729</ele>
        <time>2023-09-30T08:14:40.000Z</time>
      </trkpt>
      <trkpt lat="51.55872" lon="-0.868037">
        <ele>33.405242</ele>
        <time>2023-09-30T08:14:45.000Z</time>
      </trkpt>
      <trkpt lat="51.558373" lon="-0.86697">
        <ele>33.115649</ele>
        <time>2023-09-30T08:14:53.000Z</time>
      </trkpt>
      <trkpt lat="51.558305" lon="-0.866806">
        <ele>33.070446</ele>
        <time>2023-09-30T08:14:54.000Z</time>
      </trkpt>
      <trkpt lat="51.557919" lon="-0.865762">
        <ele>32.776294</ele>
        <time>2023-09-30T08:15:02.000Z</time>
      </trkpt>
      <trkpt lat="51.557608" lon="-0.864932">
        <ele>32.459731</ele>
        <time>2023-09-30T08:15:09.000Z</time>
      </trkpt>
      <trkpt lat="51.557357" lon="-0.864385">
        <ele>32.233741</ele>
        <time>2023-09-30T08:15:14.000Z</time>
      </trkpt>
      <trkpt lat="51.557018" lon="-0.863874">
        <ele>31.99023</ele>
        <time>2023-09-30T08:15:19.000Z</time>
      </trkpt>
      <trkpt lat="51.556908" lon="-0.863671">
        <ele>31.900595</ele>
        <time>2023-09-30T08:15:21.000Z</time>
      </trkpt>
      <trkpt lat="51.556779" lon="-0.863138">
        <ele>31.726516</ele>
        <time>2023-09-30T08:15:25.000Z</time>
      </trkpt>
      <trkpt lat="51.556688" lon="-0.86232">
        <ele>31.484134</ele>
        <time>2023-09-30T08:15:31.000Z</time>
      </trkpt>
      <trkpt lat="51.55657" lon="-0.861787">
        <ele>31.326335</ele>
        <time>2023-09-30T08:15:35.000Z</time>
      </trkpt>
      <trkpt lat="51.555927" lon="-0.86002">
        <ele>30.997028</ele>
        <time>2023-09-30T08:15:49.000Z</time>
      </trkpt>
      <trkpt lat="51.555764" lon="-0.859309">
        <ele>31.018721</ele>
        <time>2023-09-30T08:15:54.000Z</time>
      </trkpt>
      <trkpt lat="51.55564" lon="-0.858496">
        <ele>31.042615</ele>
        <time>2023-09-30T08:16:00.000Z</time>
      </trkpt>
      <trkpt lat="51.555497" lon="-0.857172">
        <ele>31.56746</ele>
        <time>2023-09-30T08:16:09.000Z</time>
      </trkpt>
      <trkpt lat="51.555436" lon="-0.856293">
        <ele>32.088309</ele>
        <time>2023-09-30T08:16:15.000Z</time>
      </trkpt>
      <trkpt lat="51.555401" lon="-0.855202">
        <ele>32.727373</ele>
        <time>2023-09-30T08:16:23.000Z</time>
      </trkpt>
      <trkpt lat="51.555493" lon="-0.853687">
        <ele>33.552097</ele>
        <time>2023-09-30T08:16:34.000Z</time>
      </trkpt>
      <trkpt lat="51.555504" lon="-0.852526">
        <ele>34.168701</ele>
        <time>2023-09-30T08:16:42.000Z</time>
      </trkpt>
      <trkpt lat="51.555448" lon="-0.849624">
        <ele>34.518068</ele>
        <time>2023-09-30T08:17:02.000Z</time>
      </trkpt>
      <trkpt lat="51.555427" lon="-0.848819">
        <ele>34.748563</ele>
        <time>2023-09-30T08:17:08.000Z</time>
      </trkpt>
      <trkpt lat="51.555439" lon="-0.847926">
        <ele>35.093251</ele>
        <time>2023-09-30T08:17:14.000Z</time>
      </trkpt>
      <trkpt lat="51.555459" lon="-0.847491">
        <ele>35.25841</ele>
        <time>2023-09-30T08:17:17.000Z</time>
      </trkpt>
      <trkpt lat="51.555382" lon="-0.846798">
        <ele>35.530458</ele>
        <time>2023-09-30T08:17:22.000Z</time>
      </trkpt>
      <trkpt lat="51.55496" lon="-0.845219">
        <ele>36.553257</ele>
        <time>2023-09-30T08:17:34.000Z</time>
      </trkpt>
      <trkpt lat="51.554573" lon="-0.843978">
        <ele>37.442423</ele>
        <time>2023-09-30T08:17:44.000Z</time>
      </trkpt>
      <trkpt lat="51.553922" lon="-0.841728">
        <ele>38.249366</ele>
        <time>2023-09-30T08:18:01.000Z</time>
      </trkpt>
      <trkpt lat="51.553855" lon="-0.841509">
        <ele>38.326532</ele>
        <time>2023-09-30T08:18:03.000Z</time>
      </trkpt>
      <trkpt lat="51.553704" lon="-0.840955">
        <ele>38.431361</ele>
        <time>2023-09-30T08:18:07.000Z</time>
      </trkpt>
      <trkpt lat="51.553598" lon="-0.840253">
        <ele>38.482105</ele>
        <time>2023-09-30T08:18:12.000Z</time>
      </trkpt>
      <trkpt lat="51.553525" lon="-0.839946">
        <ele>38.505435</ele>
        <time>2023-09-30T08:18:14.000Z</time>
      </trkpt>
      <trkpt lat="51.55315" lon="-0.838435">
        <ele>38.592662</ele>
        <time>2023-09-30T08:18:25.000Z</time>
      </trkpt>
      <trkpt lat="51.552467" lon="-0.834159">
        <ele>37.871186</ele>
        <time>2023-09-30T08:18:56.000Z</time>
      </trkpt>
      <trkpt lat="51.552378" lon="-0.833622">
        <ele>37.783956</ele>
        <time>2023-09-30T08:19:00.000Z</time>
      </trkpt>
      <trkpt lat="51.552199" lon="-0.832934">
        <ele>37.738729</ele>
        <time>2023-09-30T08:19:05.000Z</time>
      </trkpt>
      <trkpt lat="51.552091" lon="-0.832379">
        <ele>38.610542</ele>
        <time>2023-09-30T08:19:09.000Z</time>
      </trkpt>
      <trkpt lat="51.552065" lon="-0.831967">
        <ele>39.21766</ele>
        <time>2023-09-30T08:19:12.000Z</time>
      </trkpt>
      <trkpt lat="51.552073" lon="-0.831671">
        <ele>39.683602</ele>
        <time>2023-09-30T08:19:14.000Z</time>
      </trkpt>
      <trkpt lat="51.552155" lon="-0.830987">
        <ele>40.720557</ele>
        <time>2023-09-30T08:19:19.000Z</time>
      </trkpt>
      <trkpt lat="51.552244" lon="-0.83065">
        <ele>41.259235</ele>
        <time>2023-09-30T08:19:22.000Z</time>
      </trkpt>
      <trkpt lat="51.552949" lon="-0.828607">
        <ele>48.906947</ele>
        <time>2023-09-30T08:19:38.000Z</time>
      </trkpt>
      <trkpt lat="51.553627" lon="-0.827619">
        <ele>54.355963</ele>
        <time>2023-09-30T08:19:48.000Z</time>
      </trkpt>
      <trkpt lat="51.554673" lon="-0.826519">
        <ele>61.517149</ele>
        <time>2023-09-30T08:20:02.000Z</time>
      </trkpt>
      <trkpt lat="51.555915" lon="-0.82515">
        <ele>68.203077</ele>
        <time>2023-09-30T08:20:19.000Z</time>
      </trkpt>
      <trkpt lat="51.556388" lon="-0.824592">
        <ele>70.615278</ele>
        <time>2023-09-30T08:20:26.000Z</time>
      </trkpt>
      <trkpt lat="51.556707" lon="-0.824227">
        <ele>71.241274</ele>
        <time>2023-09-30T08:20:30.000Z</time>
      </trkpt>
      <trkpt lat="51.556793" lon="-0.824124">
        <ele>71.409867</ele>
        <time>2023-09-30T08:20:31.000Z</time>
      </trkpt>
      <trkpt lat="51.557035" lon="-0.823716">
        <ele>71.962577</ele>
        <time>2023-09-30T08:20:35.000Z</time>
      </trkpt>
      <trkpt lat="51.557147" lon="-0.823289">
        <ele>72.440562</ele>
        <time>2023-09-30T08:20:38.000Z</time>
      </trkpt>
      <trkpt lat="51.557183" lon="-0.82312">
        <ele>72.62531</ele>
        <time>2023-09-30T08:20:39.000Z</time>
      </trkpt>
      <trkpt lat="51.557212" lon="-0.822765">
        <ele>72.973363</ele>
        <time>2023-09-30T08:20:41.000Z</time>
      </trkpt>
      <trkpt lat="51.557178" lon="-0.821731">
        <ele>73.326376</ele>
        <time>2023-09-30T08:20:48.000Z</time>
      </trkpt>
      <trkpt lat="51.55719" lon="-0.821556">
        <ele>73.270882</ele>
        <time>2023-09-30T08:20:49.000Z</time>
      </trkpt>
      <trkpt lat="51.557184" lon="-0.821733">
        <ele>73.215376</ele>
        <time>2023-09-30T08:20:50.000Z</time>
      </trkpt>
      <trkpt lat="51.557203" lon="-0.822766">
        <ele>72.876039</ele>
        <time>2023-09-30T08:20:57.000Z</time>
      </trkpt>
      <trkpt lat="51.55719" lon="-0.823123">
        <ele>72.763414</ele>
        <time>2023-09-30T08:20:59.000Z</time>
      </trkpt>
      <trkpt lat="51.557153" lon="-0.823285">
        <ele>72.703634</ele>
        <time>2023-09-30T08:21:00.000Z</time>
      </trkpt>
      <trkpt lat="51.557036" lon="-0.823718">
        <ele>72.527922</ele>
        <time>2023-09-30T08:21:03.000Z</time>
      </trkpt>
      <trkpt lat="51.556797" lon="-0.82412">
        <ele>71.503357</ele>
        <time>2023-09-30T08:21:07.000Z</time>
      </trkpt>
      <trkpt lat="51.556717" lon="-0.824218">
        <ele>71.190822</ele>
        <time>2023-09-30T08:21:08.000Z</time>
      </trkpt>
      <trkpt lat="51.556388" lon="-0.824582">
        <ele>70.030384</ele>
        <time>2023-09-30T08:21:12.000Z</time>
      </trkpt>
      <trkpt lat="51.555917" lon="-0.825159">
        <ele>68.233541</ele>
        <time>2023-09-30T08:21:19.000Z</time>
      </trkpt>
      <trkpt lat="51.554661" lon="-0.826514">
        <ele>61.387588</ele>
        <time>2023-09-30T08:21:36.000Z</time>
      </trkpt>
      <trkpt lat="51.553623" lon="-0.827604">
        <ele>54.43834</ele>
        <time>2023-09-30T08:21:50.000Z</time>
      </trkpt>
      <trkpt lat="51.552951" lon="-0.828601">
        <ele>48.690293</ele>
        <time>2023-09-30T08:22:00.000Z</time>
      </trkpt>
      <trkpt lat="51.552243" lon="-0.830641">
        <ele>41.508291</ele>
        <time>2023-09-30T08:22:16.000Z</time>
      </trkpt>
      <trkpt lat="51.552156" lon="-0.830972">
        <ele>40.475059</ele>
        <time>2023-09-30T08:22:18.000Z</time>
      </trkpt>
      <trkpt lat="51.552086" lon="-0.831668">
        <ele>38.574916</ele>
        <time>2023-09-30T08:22:23.000Z</time>
      </trkpt>
      <trkpt lat="51.552062" lon="-0.831977">
        <ele>38.492489</ele>
        <time>2023-09-30T08:22:25.000Z</time>
      </trkpt>
      <trkpt lat="51.552092" lon="-0.832388">
        <ele>38.385085</ele>
        <time>2023-09-30T08:22:28.000Z</time>
      </trkpt>
      <trkpt lat="51.552196" lon="-0.83295">
        <ele>38.230852</ele>
        <time>2023-09-30T08:22:32.000Z</time>
      </trkpt>
      <trkpt lat="51.552379" lon="-0.833631">
        <ele>38.034603</ele>
        <time>2023-09-30T08:22:37.000Z</time>
      </trkpt>
      <trkpt lat="51.55246" lon="-0.834154">
        <ele>37.891002</ele>
        <time>2023-09-30T08:22:41.000Z</time>
      </trkpt>
      <trkpt lat="51.553155" lon="-0.838435">
        <ele>38.498638</ele>
        <time>2023-09-30T08:23:12.000Z</time>
      </trkpt>
      <trkpt lat="51.553522" lon="-0.839949">
        <ele>38.572632</ele>
        <time>2023-09-30T08:23:23.000Z</time>
      </trkpt>
      <trkpt lat="51.553595" lon="-0.840264">
        <ele>38.516417</ele>
        <time>2023-09-30T08:23:25.000Z</time>
      </trkpt>
      <trkpt lat="51.553706" lon="-0.840946">
        <ele>38.391094</ele>
        <time>2023-09-30T08:23:30.000Z</time>
      </trkpt>
      <trkpt lat="51.553858" lon="-0.841503">
        <ele>38.285978</ele>
        <time>2023-09-30T08:23:34.000Z</time>
      </trkpt>
      <trkpt lat="51.55392" lon="-0.841733">
        <ele>38.242694</ele>
        <time>2023-09-30T08:23:36.000Z</time>
      </trkpt>
      <trkpt lat="51.554571" lon="-0.843992">
        <ele>37.310065</ele>
        <time>2023-09-30T08:23:53.000Z</time>
      </trkpt>
      <trkpt lat="51.554955" lon="-0.845216">
        <ele>36.603365</ele>
        <time>2023-09-30T08:24:02.000Z</time>
      </trkpt>
      <trkpt lat="51.555364" lon="-0.846793">
        <ele>35.579362</ele>
        <time>2023-09-30T08:24:14.000Z</time>
      </trkpt>
      <trkpt lat="51.555455" lon="-0.847488">
        <ele>35.155567</ele>
        <time>2023-09-30T08:24:19.000Z</time>
      </trkpt>
      <trkpt lat="51.555438" lon="-0.847923">
        <ele>34.898287</ele>
        <time>2023-09-30T08:24:22.000Z</time>
      </trkpt>
      <trkpt lat="51.555434" lon="-0.848818">
        <ele>34.744279</ele>
        <time>2023-09-30T08:24:28.000Z</time>
      </trkpt>
      <trkpt lat="51.555448" lon="-0.849622">
        <ele>34.631381</ele>
        <time>2023-09-30T08:24:34.000Z</time>
      </trkpt>
      <trkpt lat="51.555508" lon="-0.852527">
        <ele>34.033539</ele>
        <time>2023-09-30T08:24:54.000Z</time>
      </trkpt>
      <trkpt lat="51.55551" lon="-0.853676">
        <ele>33.739273</ele>
        <time>2023-09-30T08:25:02.000Z</time>
      </trkpt>
      <trkpt lat="51.555406" lon="-0.855198">
        <ele>32.714998</ele>
        <time>2023-09-30T08:25:13.000Z</time>
      </trkpt>
      <trkpt lat="51.555435" lon="-0.856286">
        <ele>31.963231</ele>
        <time>2023-09-30T08:25:21.000Z</time>
      </trkpt>
      <trkpt lat="51.555495" lon="-0.857159">
        <ele>31.553549</ele>
        <time>2023-09-30T08:25:27.000Z</time>
      </trkpt>
      <trkpt lat="51.555638" lon="-0.858499">
        <ele>31.146397</ele>
        <time>2023-09-30T08:25:36.000Z</time>
      </trkpt>
      <trkpt lat="51.555779" lon="-0.85931">
        <ele>30.894453</ele>
        <time>2023-09-30T08:25:42.000Z</time>
      </trkpt>
      <trkpt lat="51.555934" lon="-0.860011">
        <ele>30.935587</ele>
        <time>2023-09-30T08:25:47.000Z</time>
      </trkpt>
      <trkpt lat="51.556566" lon="-0.861795">
        <ele>31.289485</ele>
        <time>2023-09-30T08:26:01.000Z</time>
      </trkpt>
      <trkpt lat="51.55669" lon="-0.862306">
        <ele>31.432676</ele>
        <time>2023-09-30T08:26:05.000Z</time>
      </trkpt>
      <trkpt lat="51.55678" lon="-0.863141">
        <ele>31.724658</ele>
        <time>2023-09-30T08:26:11.000Z</time>
      </trkpt>
      <trkpt lat="51.556915" lon="-0.863656">
        <ele>31.917501</ele>
        <time>2023-09-30T08:26:15.000Z</time>
      </trkpt>
      <trkpt lat="51.557018" lon="-0.863876">
        <ele>32.0105</ele>
        <time>2023-09-30T08:26:17.000Z</time>
      </trkpt>
      <trkpt lat="51.557359" lon="-0.864379">
        <ele>32.263168</ele>
        <time>2023-09-30T08:26:22.000Z</time>
      </trkpt>
      <trkpt lat="51.557599" lon="-0.864923">
        <ele>32.468483</ele>
        <time>2023-09-30T08:26:27.000Z</time>
      </trkpt>
      <trkpt lat="51.557927" lon="-0.865756">
        <ele>32.745127</ele>
        <time>2023-09-30T08:26:34.000Z</time>
      </trkpt>
      <trkpt lat="51.55832" lon="-0.866807">
        <ele>33.092801</ele>
        <time>2023-09-30T08:26:42.000Z</time>
      </trkpt>
      <trkpt lat="51.558373" lon="-0.866972">
        <ele>33.146262</ele>
        <time>2023-09-30T08:26:43.000Z</time>
      </trkpt>
      <trkpt lat="51.558737" lon="-0.868026">
        <ele>33.356439</ele>
        <time>2023-09-30T08:26:51.000Z</time>
      </trkpt>
      <trkpt lat="51.558911" lon="-0.868732">
        <ele>33.485796</ele>
        <time>2023-09-30T08:26:56.000Z</time>
      </trkpt>
      <trkpt lat="51.558972" lon="-0.868934">
        <ele>33.526547</ele>
        <time>2023-09-30T08:26:58.000Z</time>
      </trkpt>
      <trkpt lat="51.559238" lon="-0.8696">
        <ele>33.646507</ele>
        <time>2023-09-30T08:27:03.000Z</time>
      </trkpt>
      <trkpt lat="51.560168" lon="-0.871249">
        <ele>33.509827</ele>
        <time>2023-09-30T08:27:18.000Z</time>
      </trkpt>
      <trkpt lat="51.560335" lon="-0.871558">
        <ele>33.484919</ele>
        <time>2023-09-30T08:27:21.000Z</time>
      </trkpt>
      <trkpt lat="51.560899" lon="-0.872626">
        <ele>33.174742</ele>
        <time>2023-09-30T08:27:31.000Z</time>
      </trkpt>
      <trkpt lat="51.561695" lon="-0.874291">
        <ele>32.796108</ele>
        <time>2023-09-30T08:27:46.000Z</time>
      </trkpt>
      <trkpt lat="51.562503" lon="-0.876358">
        <ele>32.973267</ele>
        <time>2023-09-30T08:28:03.000Z</time>
      </trkpt>
      <trkpt lat="51.562745" lon="-0.876912">
        <ele>33.334006</ele>
        <time>2023-09-30T08:28:08.000Z</time>
      </trkpt>
      <trkpt lat="51.562793" lon="-0.877111">
        <ele>33.462086</ele>
        <time>2023-09-30T08:28:09.000Z</time>
      </trkpt>
      <trkpt lat="51.562824" lon="-0.877297">
        <ele>33.56614</ele>
        <time>2023-09-30T08:28:10.000Z</time>
      </trkpt>
      <trkpt lat="51.562869" lon="-0.878017">
        <ele>33.971222</ele>
        <time>2023-09-30T08:28:15.000Z</time>
      </trkpt>
      <trkpt lat="51.562939" lon="-0.878351">
        <ele>34.165414</ele>
        <time>2023-09-30T08:28:17.000Z</time>
      </trkpt>
      <trkpt lat="51.563163" lon="-0.879202">
        <ele>34.757838</ele>
        <time>2023-09-30T08:28:23.000Z</time>
      </trkpt>
      <trkpt lat="51.563699" lon="-0.881057">
        <ele>36.854189</ele>
        <time>2023-09-30T08:28:37.000Z</time>
      </trkpt>
      <trkpt lat="51.563731" lon="-0.881125">
        <ele>36.928432</ele>
        <time>2023-09-30T08:28:38.000Z</time>
      </trkpt>
      <trkpt lat="51.563876" lon="-0.881777">
        <ele>37.566085</ele>
        <time>2023-09-30T08:28:43.000Z</time>
      </trkpt>
      <trkpt lat="51.563887" lon="-0.882019">
        <ele>37.612276</ele>
        <time>2023-09-30T08:28:45.000Z</time>
      </trkpt>
      <trkpt lat="51.563893" lon="-0.882335">
        <ele>37.667256</ele>
        <time>2023-09-30T08:28:47.000Z</time>
      </trkpt>
      <trkpt lat="51.563873" lon="-0.882862">
        <ele>37.759549</ele>
        <time>2023-09-30T08:28:51.000Z</time>
      </trkpt>
      <trkpt lat="51.563796" lon="-0.883578">
        <ele>37.888168</ele>
        <time>2023-09-30T08:28:56.000Z</time>
      </trkpt>
      <trkpt lat="51.563699" lon="-0.884277">
        <ele>38.016025</ele>
        <time>2023-09-30T08:29:01.000Z</time>
      </trkpt>
      <trkpt lat="51.563249" lon="-0.887269">
        <ele>36.323931</ele>
        <time>2023-09-30T08:29:22.000Z</time>
      </trkpt>
      <trkpt lat="51.56315" lon="-0.887914">
        <ele>36.303151</ele>
        <time>2023-09-30T08:29:27.000Z</time>
      </trkpt>
      <trkpt lat="51.562936" lon="-0.888873">
        <ele>36.369119</ele>
        <time>2023-09-30T08:29:34.000Z</time>
      </trkpt>
      <trkpt lat="51.562736" lon="-0.889483">
        <ele>36.413758</ele>
        <time>2023-09-30T08:29:39.000Z</time>
      </trkpt>
      <trkpt lat="51.562489" lon="-0.890302">
        <ele>36.534468</ele>
        <time>2023-09-30T08:29:45.000Z</time>
      </trkpt>
      <trkpt lat="51.562341" lon="-0.890977">
        <ele>36.721572</ele>
        <time>2023-09-30T08:29:50.000Z</time>
      </trkpt>
      <trkpt lat="51.562328" lon="-0.891254">
        <ele>36.799099</ele>
        <time>2023-09-30T08:29:52.000Z</time>
      </trkpt>
      <trkpt lat="51.562321" lon="-0.891502">
        <ele>36.862506</ele>
        <time>2023-09-30T08:29:54.000Z</time>
      </trkpt>
      <trkpt lat="51.56238" lon="-0.892098">
        <ele>37.026497</ele>
        <time>2023-09-30T08:29:58.000Z</time>
      </trkpt>
      <trkpt lat="51.562363" lon="-0.892414">
        <ele>37.112274</ele>
        <time>2023-09-30T08:30:00.000Z</time>
      </trkpt>
      <trkpt lat="51.562343" lon="-0.892604">
        <ele>37.16511</ele>
        <time>2023-09-30T08:30:01.000Z</time>
      </trkpt>
      <trkpt lat="51.561991" lon="-0.894195">
        <ele>36.473191</ele>
        <time>2023-09-30T08:30:13.000Z</time>
      </trkpt>
      <trkpt lat="51.561566" lon="-0.896235">
        <ele>35.363576</ele>
        <time>2023-09-30T08:30:28.000Z</time>
      </trkpt>
      <trkpt lat="51.561515" lon="-0.896461">
        <ele>35.229149</ele>
        <time>2023-09-30T08:30:30.000Z</time>
      </trkpt>
      <trkpt lat="51.561053" lon="-0.897608">
        <ele>34.514299</ele>
        <time>2023-09-30T08:30:39.000Z</time>
      </trkpt>
      <trkpt lat="51.56096" lon="-0.897797">
        <ele>34.39404</ele>
        <time>2023-09-30T08:30:41.000Z</time>
      </trkpt>
      <trkpt lat="51.560699" lon="-0.898102">
        <ele>34.262051</ele>
        <time>2023-09-30T08:30:45.000Z</time>
      </trkpt>
      <trkpt lat="51.560444" lon="-0.898339">
        <ele>34.387866</ele>
        <time>2023-09-30T08:30:48.000Z</time>
      </trkpt>
      <trkpt lat="51.560136" lon="-0.898607">
        <ele>34.543871</ele>
        <time>2023-09-30T08:30:52.000Z</time>
      </trkpt>
      <trkpt lat="51.559632" lon="-0.898835">
        <ele>34.769526</ele>
        <time>2023-09-30T08:30:58.000Z</time>
      </trkpt>
      <trkpt lat="51.559522" lon="-0.89891">
        <ele>34.818691</ele>
        <time>2023-09-30T08:30:59.000Z</time>
      </trkpt>
      <trkpt lat="51.559383" lon="-0.899093">
        <ele>34.90198</ele>
        <time>2023-09-30T08:31:01.000Z</time>
      </trkpt>
      <trkpt lat="51.559237" lon="-0.899356">
        <ele>34.995023</ele>
        <time>2023-09-30T08:31:03.000Z</time>
      </trkpt>
      <trkpt lat="51.559113" lon="-0.899669">
        <ele>35.220982</ele>
        <time>2023-09-30T08:31:06.000Z</time>
      </trkpt>
      <trkpt lat="51.558862" lon="-0.90013">
        <ele>35.619726</ele>
        <time>2023-09-30T08:31:10.000Z</time>
      </trkpt>
      <trkpt lat="51.558692" lon="-0.900324">
        <ele>35.834128</ele>
        <time>2023-09-30T08:31:12.000Z</time>
      </trkpt>
      <trkpt lat="51.558282" lon="-0.900637">
        <ele>36.298619</ele>
        <time>2023-09-30T08:31:17.000Z</time>
      </trkpt>
      <trkpt lat="51.557602" lon="-0.901076">
        <ele>36.920415</ele>
        <time>2023-09-30T08:31:25.000Z</time>
      </trkpt>
      <trkpt lat="51.557192" lon="-0.901312">
        <ele>37.084245</ele>
        <time>2023-09-30T08:31:30.000Z</time>
      </trkpt>
      <trkpt lat="51.556268" lon="-0.901754">
        <ele>37.443976</ele>
        <time>2023-09-30T08:31:41.000Z</time>
      </trkpt>
      <trkpt lat="51.55623" lon="-0.901767">
        <ele>37.46284</ele>
        <time>2023-09-30T08:31:41.000Z</time>
      </trkpt>
      <trkpt lat="51.554069" lon="-0.902566">
        <ele>36.323485</ele>
        <time>2023-09-30T08:32:06.000Z</time>
      </trkpt>
      <trkpt lat="51.553322" lon="-0.902796">
        <ele>36.280105</ele>
        <time>2023-09-30T08:32:14.000Z</time>
      </trkpt>
      <trkpt lat="51.552969" lon="-0.902886">
        <ele>36.259323</ele>
        <time>2023-09-30T08:32:18.000Z</time>
      </trkpt>
      <trkpt lat="51.552535" lon="-0.902865">
        <ele>36.238709</ele>
        <time>2023-09-30T08:32:23.000Z</time>
      </trkpt>
      <trkpt lat="51.551168" lon="-0.90265">
        <ele>37.379573</ele>
        <time>2023-09-30T08:32:38.000Z</time>
      </trkpt>
      <trkpt lat="51.550698" lon="-0.902573">
        <ele>37.724843</ele>
        <time>2023-09-30T08:32:43.000Z</time>
      </trkpt>
      <trkpt lat="51.550055" lon="-0.902395">
        <ele>37.682872</ele>
        <time>2023-09-30T08:32:50.000Z</time>
      </trkpt>
      <trkpt lat="51.548825" lon="-0.90221">
        <ele>37.535955</ele>
        <time>2023-09-30T08:33:04.000Z</time>
      </trkpt>
      <trkpt lat="51.548697" lon="-0.902202">
        <ele>37.477654</ele>
        <time>2023-09-30T08:33:05.000Z</time>
      </trkpt>
      <trkpt lat="51.54754" lon="-0.902668">
        <ele>36.874962</ele>
        <time>2023-09-30T08:33:18.000Z</time>
      </trkpt>
      <trkpt lat="51.54587" lon="-0.903443">
        <ele>36.652716</ele>
        <time>2023-09-30T08:33:37.000Z</time>
      </trkpt>
      <trkpt lat="51.545479" lon="-0.903625">
        <ele>36.638248</ele>
        <time>2023-09-30T08:33:42.000Z</time>
      </trkpt>
      <trkpt lat="51.54545" lon="-0.903642">
        <ele>36.646299</ele>
        <time>2023-09-30T08:33:42.000Z</time>
      </trkpt>
      <trkpt lat="51.543961" lon="-0.904138">
        <ele>36.998734</ele>
        <time>2023-09-30T08:33:59.000Z</time>
      </trkpt>
      <trkpt lat="51.543284" lon="-0.904502">
        <ele>36.978934</ele>
        <time>2023-09-30T08:34:07.000Z</time>
      </trkpt>
      <trkpt lat="51.543128" lon="-0.904574">
        <ele>36.954147</ele>
        <time>2023-09-30T08:34:09.000Z</time>
      </trkpt>
      <trkpt lat="51.542544" lon="-0.904688">
        <ele>36.863664</ele>
        <time>2023-09-30T08:34:16.000Z</time>
      </trkpt>
      <trkpt lat="51.542367" lon="-0.904724">
        <ele>36.835469</ele>
        <time>2023-09-30T08:34:18.000Z</time>
      </trkpt>
      <trkpt lat="51.542039" lon="-0.904822">
        <ele>36.783821</ele>
        <time>2023-09-30T08:34:22.000Z</time>
      </trkpt>
      <trkpt lat="51.541884" lon="-0.904872">
        <ele>36.79219</ele>
        <time>2023-09-30T08:34:24.000Z</time>
      </trkpt>
      <trkpt lat="51.541683" lon="-0.904926">
        <ele>36.819284</ele>
        <time>2023-09-30T08:34:26.000Z</time>
      </trkpt>
      <trkpt lat="51.541882" lon="-0.904864">
        <ele>36.84639</ele>
        <time>2023-09-30T08:34:28.000Z</time>
      </trkpt>
      <trkpt lat="51.542031" lon="-0.904826">
        <ele>36.868484</ele>
        <time>2023-09-30T08:34:30.000Z</time>
      </trkpt>
      <trkpt lat="51.542365" lon="-0.904723">
        <ele>36.914413</ele>
        <time>2023-09-30T08:34:34.000Z</time>
      </trkpt>
      <trkpt lat="51.542553" lon="-0.904684">
        <ele>36.939504</ele>
        <time>2023-09-30T08:34:36.000Z</time>
      </trkpt>
      <trkpt lat="51.543129" lon="-0.904566">
        <ele>37.019971</ele>
        <time>2023-09-30T08:34:42.000Z</time>
      </trkpt>
      <trkpt lat="51.543284" lon="-0.904504">
        <ele>37.005244</ele>
        <time>2023-09-30T08:34:44.000Z</time>
      </trkpt>
      <trkpt lat="51.543972" lon="-0.904139">
        <ele>36.91367</ele>
        <time>2023-09-30T08:34:52.000Z</time>
      </trkpt>
      <trkpt lat="51.545461" lon="-0.903635">
        <ele>36.729231</ele>
        <time>2023-09-30T08:35:09.000Z</time>
      </trkpt>
      <trkpt lat="51.545486" lon="-0.903625">
        <ele>36.725322</ele>
        <time>2023-09-30T08:35:09.000Z</time>
      </trkpt>
      <trkpt lat="51.545879" lon="-0.903437">
        <ele>36.67899</ele>
        <time>2023-09-30T08:35:14.000Z</time>
      </trkpt>
      <trkpt lat="51.547533" lon="-0.902664">
        <ele>36.9429</ele>
        <time>2023-09-30T08:35:33.000Z</time>
      </trkpt>
      <trkpt lat="51.5487" lon="-0.902188">
        <ele>37.389701</ele>
        <time>2023-09-30T08:35:46.000Z</time>
      </trkpt>
      <trkpt lat="51.548815" lon="-0.902219">
        <ele>37.433003</ele>
        <time>2023-09-30T08:35:47.000Z</time>
      </trkpt>
      <trkpt lat="51.550061" lon="-0.902401">
        <ele>37.894399</ele>
        <time>2023-09-30T08:36:01.000Z</time>
      </trkpt>
      <trkpt lat="51.550699" lon="-0.902573">
        <ele>37.554264</ele>
        <time>2023-09-30T08:36:08.000Z</time>
      </trkpt>
      <trkpt lat="51.55117" lon="-0.902649">
        <ele>37.239163</ele>
        <time>2023-09-30T08:36:13.000Z</time>
      </trkpt>
      <trkpt lat="51.552539" lon="-0.902878">
        <ele>36.497513</ele>
        <time>2023-09-30T08:36:28.000Z</time>
      </trkpt>
      <trkpt lat="51.552961" lon="-0.902886">
        <ele>36.328837</ele>
        <time>2023-09-30T08:36:33.000Z</time>
      </trkpt>
      <trkpt lat="51.553331" lon="-0.902792">
        <ele>36.184932</ele>
        <time>2023-09-30T08:36:37.000Z</time>
      </trkpt>
      <trkpt lat="51.554082" lon="-0.902559">
        <ele>36.273341</ele>
        <time>2023-09-30T08:36:46.000Z</time>
      </trkpt>
      <trkpt lat="51.556217" lon="-0.90177">
        <ele>37.261098</ele>
        <time>2023-09-30T08:37:10.000Z</time>
      </trkpt>
      <trkpt lat="51.556276" lon="-0.901743">
        <ele>37.26526</ele>
        <time>2023-09-30T08:37:11.000Z</time>
      </trkpt>
      <trkpt lat="51.557184" lon="-0.901306">
        <ele>37.344796</ele>
        <time>2023-09-30T08:37:22.000Z</time>
      </trkpt>
      <trkpt lat="51.557603" lon="-0.901082">
        <ele>36.935699</ele>
        <time>2023-09-30T08:37:27.000Z</time>
      </trkpt>
      <trkpt lat="51.55829" lon="-0.900644">
        <ele>36.229485</ele>
        <time>2023-09-30T08:37:35.000Z</time>
      </trkpt>
      <trkpt lat="51.558691" lon="-0.900315">
        <ele>35.793237</ele>
        <time>2023-09-30T08:37:40.000Z</time>
      </trkpt>
      <trkpt lat="51.55886" lon="-0.900118">
        <ele>35.595425</ele>
        <time>2023-09-30T08:37:42.000Z</time>
      </trkpt>
      <trkpt lat="51.559119" lon="-0.899663">
        <ele>35.299013</ele>
        <time>2023-09-30T08:37:46.000Z</time>
      </trkpt>
      <trkpt lat="51.559235" lon="-0.899369">
        <ele>35.129511</ele>
        <time>2023-09-30T08:37:48.000Z</time>
      </trkpt>
      <trkpt lat="51.559378" lon="-0.899096">
        <ele>34.965725</ele>
        <time>2023-09-30T08:37:50.000Z</time>
      </trkpt>
      <trkpt lat="51.559537" lon="-0.898921">
        <ele>34.819095</ele>
        <time>2023-09-30T08:37:52.000Z</time>
      </trkpt>
      <trkpt lat="51.559628" lon="-0.898832">
        <ele>34.73257</ele>
        <time>2023-09-30T08:37:53.000Z</time>
      </trkpt>
      <trkpt lat="51.560136" lon="-0.898606">
        <ele>34.335316</ele>
        <time>2023-09-30T08:37:59.000Z</time>
      </trkpt>
      <trkpt lat="51.560448" lon="-0.898334">
        <ele>34.334558</ele>
        <time>2023-09-30T08:38:03.000Z</time>
      </trkpt>
      <trkpt lat="51.560711" lon="-0.898106">
        <ele>34.462482</ele>
        <time>2023-09-30T08:38:06.000Z</time>
      </trkpt>
      <trkpt lat="51.560948" lon="-0.8978">
        <ele>34.603537</ele>
        <time>2023-09-30T08:38:09.000Z</time>
      </trkpt>
      <trkpt lat="51.561043" lon="-0.89761">
        <ele>34.666761</ele>
        <time>2023-09-30T08:38:11.000Z</time>
      </trkpt>
      <trkpt lat="51.561517" lon="-0.896466">
        <ele>35.062902</ele>
        <time>2023-09-30T08:38:21.000Z</time>
      </trkpt>
      <trkpt lat="51.561578" lon="-0.896232">
        <ele>35.231866</ele>
        <time>2023-09-30T08:38:23.000Z</time>
      </trkpt>
      <trkpt lat="51.561986" lon="-0.894198">
        <ele>36.631561</ele>
        <time>2023-09-30T08:38:38.000Z</time>
      </trkpt>
      <trkpt lat="51.562327" lon="-0.892614">
        <ele>36.900279</ele>
        <time>2023-09-30T08:38:50.000Z</time>
      </trkpt>
      <trkpt lat="51.562353" lon="-0.892416">
        <ele>36.896192</ele>
        <time>2023-09-30T08:38:51.000Z</time>
      </trkpt>
      <trkpt lat="51.562386" lon="-0.892103">
        <ele>36.889563</ele>
        <time>2023-09-30T08:38:53.000Z</time>
      </trkpt>
      <trkpt lat="51.562334" lon="-0.891498">
        <ele>36.876881</ele>
        <time>2023-09-30T08:38:57.000Z</time>
      </trkpt>
      <trkpt lat="51.562315" lon="-0.891251">
        <ele>36.871973</ele>
        <time>2023-09-30T08:38:59.000Z</time>
      </trkpt>
      <trkpt lat="51.562341" lon="-0.890968">
        <ele>36.865978</ele>
        <time>2023-09-30T08:39:01.000Z</time>
      </trkpt>
      <trkpt lat="51.562474" lon="-0.890303">
        <ele>36.668253</ele>
        <time>2023-09-30T08:39:06.000Z</time>
      </trkpt>
      <trkpt lat="51.562727" lon="-0.889489">
        <ele>36.409845</ele>
        <time>2023-09-30T08:39:12.000Z</time>
      </trkpt>
      <trkpt lat="51.562945" lon="-0.888876">
        <ele>36.213602</ele>
        <time>2023-09-30T08:39:17.000Z</time>
      </trkpt>
      <trkpt lat="51.563141" lon="-0.887903">
        <ele>36.258114</ele>
        <time>2023-09-30T08:39:24.000Z</time>
      </trkpt>
      <trkpt lat="51.563252" lon="-0.887268">
        <ele>36.575732</ele>
        <time>2023-09-30T08:39:29.000Z</time>
      </trkpt>
      <trkpt lat="51.563687" lon="-0.884285">
        <ele>37.771783</ele>
        <time>2023-09-30T08:39:50.000Z</time>
      </trkpt>
      <trkpt lat="51.563789" lon="-0.883579">
        <ele>37.958331</ele>
        <time>2023-09-30T08:39:55.000Z</time>
      </trkpt>
      <trkpt lat="51.563864" lon="-0.882855">
        <ele>38.146021</ele>
        <time>2023-09-30T08:40:00.000Z</time>
      </trkpt>
      <trkpt lat="51.563884" lon="-0.882347">
        <ele>37.872109</ele>
        <time>2023-09-30T08:40:04.000Z</time>
      </trkpt>
      <trkpt lat="51.563885" lon="-0.882023">
        <ele>37.595701</ele>
        <time>2023-09-30T08:40:06.000Z</time>
      </trkpt>
      <trkpt lat="51.563876" lon="-0.881764">
        <ele>37.363405</ele>
        <time>2023-09-30T08:40:08.000Z</time>
      </trkpt>
      <trkpt lat="51.563722" lon="-0.881117">
        <ele>36.753302</ele>
        <time>2023-09-30T08:40:13.000Z</time>
      </trkpt>
      <trkpt lat="51.563704" lon="-0.881057">
        <ele>36.688687</ele>
        <time>2023-09-30T08:40:13.000Z</time>
      </trkpt>
      <trkpt lat="51.563154" lon="-0.879201">
        <ele>34.941775</ele>
        <time>2023-09-30T08:40:27.000Z</time>
      </trkpt>
      <trkpt lat="51.562928" lon="-0.878354">
        <ele>34.202148</ele>
        <time>2023-09-30T08:40:33.000Z</time>
      </trkpt>
      <trkpt lat="51.562868" lon="-0.878019">
        <ele>33.926667</ele>
        <time>2023-09-30T08:40:35.000Z</time>
      </trkpt>
      <trkpt lat="51.562838" lon="-0.877288">
        <ele>33.351961</ele>
        <time>2023-09-30T08:40:40.000Z</time>
      </trkpt>
      <trkpt lat="51.562792" lon="-0.877123">
        <ele>33.285381</ele>
        <time>2023-09-30T08:40:41.000Z</time>
      </trkpt>
      <trkpt lat="51.562735" lon="-0.876914">
        <ele>33.238445</ele>
        <time>2023-09-30T08:40:43.000Z</time>
      </trkpt>
      <trkpt lat="51.562512" lon="-0.876357">
        <ele>33.100076</ele>
        <time>2023-09-30T08:40:48.000Z</time>
      </trkpt>
      <trkpt lat="51.561687" lon="-0.874278">
        <ele>32.81752</ele>
        <time>2023-09-30T08:41:05.000Z</time>
      </trkpt>
      <trkpt lat="51.560915" lon="-0.872618">
        <ele>33.169028</ele>
        <time>2023-09-30T08:41:19.000Z</time>
      </trkpt>
      <trkpt lat="51.560346" lon="-0.871545">
        <ele>33.407112</ele>
        <time>2023-09-30T08:41:29.000Z</time>
      </trkpt>
      <trkpt lat="51.560182" lon="-0.871247">
        <ele>33.475696</ele>
        <time>2023-09-30T08:41:32.000Z</time>
      </trkpt>
      <trkpt lat="51.559238" lon="-0.869591">
        <ele>33.590611</ele>
        <time>2023-09-30T08:41:48.000Z</time>
      </trkpt>
      <trkpt lat="51.558979" lon="-0.868942">
        <ele>33.505859</ele>
        <time>2023-09-30T08:41:53.000Z</time>
      </trkpt>
      <trkpt lat="51.558913" lon="-0.868717">
        <ele>33.480107</ele>
        <time>2023-09-30T08:41:55.000Z</time>
      </trkpt>
      <trkpt lat="51.558733" lon="-0.868025">
        <ele>33.398328</ele>
        <time>2023-09-30T08:42:00.000Z</time>
      </trkpt>
      <trkpt lat="51.558365" lon="-0.866966">
        <ele>33.120847</ele>
        <time>2023-09-30T08:42:08.000Z</time>
      </trkpt>
      <trkpt lat="51.558303" lon="-0.866814">
        <ele>33.073409</ele>
        <time>2023-09-30T08:42:09.000Z</time>
      </trkpt>
      <trkpt lat="51.557918" lon="-0.865767">
        <ele>32.76483</ele>
        <time>2023-09-30T08:42:17.000Z</time>
      </trkpt>
      <trkpt lat="51.557598" lon="-0.864933">
        <ele>32.472078</ele>
        <time>2023-09-30T08:42:24.000Z</time>
      </trkpt>
      <trkpt lat="51.55736" lon="-0.864376">
        <ele>32.238671</ele>
        <time>2023-09-30T08:42:29.000Z</time>
      </trkpt>
      <trkpt lat="51.557018" lon="-0.863877">
        <ele>31.987158</ele>
        <time>2023-09-30T08:42:34.000Z</time>
      </trkpt>
      <trkpt lat="51.556915" lon="-0.863673">
        <ele>31.894582</ele>
        <time>2023-09-30T08:42:36.000Z</time>
      </trkpt>
      <trkpt lat="51.556788" lon="-0.863153">
        <ele>31.702617</ele>
        <time>2023-09-30T08:42:40.000Z</time>
      </trkpt>
      <trkpt lat="51.556686" lon="-0.86232">
        <ele>31.474476</ele>
        <time>2023-09-30T08:42:46.000Z</time>
      </trkpt>
      <trkpt lat="51.556567" lon="-0.861789">
        <ele>31.332958</ele>
        <time>2023-09-30T08:42:50.000Z</time>
      </trkpt>
      <trkpt lat="51.555932" lon="-0.860017">
        <ele>30.960098</ele>
        <time>2023-09-30T08:43:04.000Z</time>
      </trkpt>
      <trkpt lat="51.555768" lon="-0.859311">
        <ele>31.031378</ele>
        <time>2023-09-30T08:43:09.000Z</time>
      </trkpt>
      <trkpt lat="51.555637" lon="-0.858506">
        <ele>31.109888</ele>
        <time>2023-09-30T08:43:15.000Z</time>
      </trkpt>
      <trkpt lat="51.555484" lon="-0.857158">
        <ele>31.50252</ele>
        <time>2023-09-30T08:43:24.000Z</time>
      </trkpt>
      <trkpt lat="51.555427" lon="-0.856286">
        <ele>32.06848</ele>
        <time>2023-09-30T08:43:30.000Z</time>
      </trkpt>
      <trkpt lat="51.555404" lon="-0.85521">
        <ele>32.762908</ele>
        <time>2023-09-30T08:43:37.000Z</time>
      </trkpt>
      <trkpt lat="51.5555" lon="-0.853683">
        <ele>33.548471</ele>
        <time>2023-09-30T08:43:48.000Z</time>
      </trkpt>
      <trkpt lat="51.555516" lon="-0.852528">
        <ele>34.078647</ele>
        <time>2023-09-30T08:43:56.000Z</time>
      </trkpt>
      <trkpt lat="51.555458" lon="-0.849623">
        <ele>34.54622</ele>
        <time>2023-09-30T08:44:16.000Z</time>
      </trkpt>
      <trkpt lat="51.555445" lon="-0.84883">
        <ele>34.669204</ele>
        <time>2023-09-30T08:44:21.000Z</time>
      </trkpt>
      <trkpt lat="51.555448" lon="-0.847927">
        <ele>35.073258</ele>
        <time>2023-09-30T08:44:27.000Z</time>
      </trkpt>
      <trkpt lat="51.555447" lon="-0.847499">
        <ele>35.266852</ele>
        <time>2023-09-30T08:44:30.000Z</time>
      </trkpt>
      <trkpt lat="51.555369" lon="-0.846788">
        <ele>35.585728</ele>
        <time>2023-09-30T08:44:35.000Z</time>
      </trkpt>
      <trkpt lat="51.554951" lon="-0.845215">
        <ele>36.533105</ele>
        <time>2023-09-30T08:44:47.000Z</time>
      </trkpt>
      <trkpt lat="51.554564" lon="-0.843987">
        <ele>37.391904</ele>
        <time>2023-09-30T08:44:57.000Z</time>
      </trkpt>
      <trkpt lat="51.553914" lon="-0.841729">
        <ele>38.228792</ele>
        <time>2023-09-30T08:45:14.000Z</time>
      </trkpt>
      <trkpt lat="51.55385" lon="-0.841494">
        <ele>38.295371</ele>
        <time>2023-09-30T08:45:16.000Z</time>
      </trkpt>
      <trkpt lat="51.553707" lon="-0.840954">
        <ele>38.457034</ele>
        <time>2023-09-30T08:45:20.000Z</time>
      </trkpt>
      <trkpt lat="51.553596" lon="-0.840248">
        <ele>38.494189</ele>
        <time>2023-09-30T08:45:25.000Z</time>
      </trkpt>
      <trkpt lat="51.553521" lon="-0.839952">
        <ele>38.50728</ele>
        <time>2023-09-30T08:45:27.000Z</time>
      </trkpt>
      <trkpt lat="51.553148" lon="-0.838445">
        <ele>38.571611</ele>
        <time>2023-09-30T08:45:38.000Z</time>
      </trkpt>
      <trkpt lat="51.552465" lon="-0.834149">
        <ele>37.931884</ele>
        <time>2023-09-30T08:46:09.000Z</time>
      </trkpt>
      <trkpt lat="51.552383" lon="-0.833637">
        <ele>37.878166</ele>
        <time>2023-09-30T08:46:13.000Z</time>
      </trkpt>
      <trkpt lat="51.552199" lon="-0.832933">
        <ele>37.804748</ele>
        <time>2023-09-30T08:46:18.000Z</time>
      </trkpt>
      <trkpt lat="51.552094" lon="-0.832375">
        <ele>38.238111</ele>
        <time>2023-09-30T08:46:22.000Z</time>
      </trkpt>
      <trkpt lat="51.552069" lon="-0.831968">
        <ele>39.000531</ele>
        <time>2023-09-30T08:46:25.000Z</time>
      </trkpt>
      <trkpt lat="51.552082" lon="-0.831659">
        <ele>39.585648</ele>
        <time>2023-09-30T08:46:27.000Z</time>
      </trkpt>
      <trkpt lat="51.552152" lon="-0.830986">
        <ele>40.887864</ele>
        <time>2023-09-30T08:46:32.000Z</time>
      </trkpt>
      <trkpt lat="51.552239" lon="-0.830647">
        <ele>41.564326</ele>
        <time>2023-09-30T08:46:35.000Z</time>
      </trkpt>
      <trkpt lat="51.552954" lon="-0.828602">
        <ele>48.840662</ele>
        <time>2023-09-30T08:46:51.000Z</time>
      </trkpt>
      <trkpt lat="51.553632" lon="-0.827604">
        <ele>54.479852</ele>
        <time>2023-09-30T08:47:01.000Z</time>
      </trkpt>
      <trkpt lat="51.554669" lon="-0.826525">
        <ele>61.413738</ele>
        <time>2023-09-30T08:47:15.000Z</time>
      </trkpt>
      <trkpt lat="51.555909" lon="-0.825158">
        <ele>68.118448</ele>
        <time>2023-09-30T08:47:32.000Z</time>
      </trkpt>
      <trkpt lat="51.556398" lon="-0.824582">
        <ele>70.412594</ele>
        <time>2023-09-30T08:47:39.000Z</time>
      </trkpt>
      <trkpt lat="51.556719" lon="-0.824225">
        <ele>71.461827</ele>
        <time>2023-09-30T08:47:43.000Z</time>
      </trkpt>
      <trkpt lat="51.556799" lon="-0.82411">
        <ele>71.596631</ele>
        <time>2023-09-30T08:47:44.000Z</time>
      </trkpt>
      <trkpt lat="51.557025" lon="-0.823714">
        <ele>72.038544</ele>
        <time>2023-09-30T08:47:48.000Z</time>
      </trkpt>
      <trkpt lat="51.557155" lon="-0.823291">
        <ele>72.420726</ele>
        <time>2023-09-30T08:47:51.000Z</time>
      </trkpt>
      <trkpt lat="51.557177" lon="-0.823115">
        <ele>72.56843</ele>
        <time>2023-09-30T08:47:52.000Z</time>
      </trkpt>
      <trkpt lat="51.557205" lon="-0.822776">
        <ele>72.846724</ele>
        <time>2023-09-30T08:47:54.000Z</time>
      </trkpt>
      <trkpt lat="51.557176" lon="-0.821729">
        <ele>73.500991</ele>
        <time>2023-09-30T08:48:01.000Z</time>
      </trkpt>
      <trkpt lat="51.557193" lon="-0.821571">
        <ele>73.415935</ele>
        <time>2023-09-30T08:48:02.000Z</time>
      </trkpt>
      <trkpt lat="51.557185" lon="-0.821739">
        <ele>73.330901</ele>
        <time>2023-09-30T08:48:03.000Z</time>
      </trkpt>
      <trkpt lat="51.557207" lon="-0.822781">
        <ele>72.810947</ele>
        <time>2023-09-30T08:48:10.000Z</time>
      </trkpt>
      <trkpt lat="51.557177" lon="-0.823125">
        <ele>72.638373</ele>
        <time>2023-09-30T08:48:12.000Z</time>
      </trkpt>
      <trkpt lat="51.557157" lon="-0.823301">
        <ele>72.54678</ele>
        <time>2023-09-30T08:48:13.000Z</time>
      </trkpt>
      <trkpt lat="51.557035" lon="-0.823726">
        <ele>72.309786</ele>
        <time>2023-09-30T08:48:16.000Z</time>
      </trkpt>
      <trkpt lat="51.556799" lon="-0.824108">
        <ele>71.75026</ele>
        <time>2023-09-30T08:48:20.000Z</time>
      </trkpt>
      <trkpt lat="51.556716" lon="-0.824224">
        <ele>71.403723</ele>
        <time>2023-09-30T08:48:21.000Z</time>
      </trkpt>
      <trkpt lat="51.556389" lon="-0.824586">
        <ele>70.117036</ele>
        <time>2023-09-30T08:48:25.000Z</time>
      </trkpt>
      <trkpt lat="51.555924" lon="-0.825148">
        <ele>68.124734</ele>
        <time>2023-09-30T08:48:31.000Z</time>
      </trkpt>
      <trkpt lat="51.554675" lon="-0.826518">
        <ele>61.356002</ele>
        <time>2023-09-30T08:48:48.000Z</time>
      </trkpt>
      <trkpt lat="51.55363" lon="-0.827619">
        <ele>54.493012</ele>
        <time>2023-09-30T08:49:02.000Z</time>
      </trkpt>
      <trkpt lat="51.552957" lon="-0.828599">
        <ele>48.728989</ele>
        <time>2023-09-30T08:49:12.000Z</time>
      </trkpt>
      <trkpt lat="51.552238" lon="-0.830647">
        <ele>41.669867</ele>
        <time>2023-09-30T08:49:28.000Z</time>
      </trkpt>
      <trkpt lat="51.552144" lon="-0.830974">
        <ele>40.764169</ele>
        <time>2023-09-30T08:49:30.000Z</time>
      </trkpt>
      <trkpt lat="51.552071" lon="-0.831656">
        <ele>39.020715</ele>
        <time>2023-09-30T08:49:35.000Z</time>
      </trkpt>
      <trkpt lat="51.552076" lon="-0.831983">
        <ele>38.237342</ele>
        <time>2023-09-30T08:49:37.000Z</time>
      </trkpt>
      <trkpt lat="51.552093" lon="-0.83238">
        <ele>38.122073</ele>
        <time>2023-09-30T08:49:40.000Z</time>
      </trkpt>
      <trkpt lat="51.552208" lon="-0.832942">
        <ele>38.073806</ele>
        <time>2023-09-30T08:49:44.000Z</time>
      </trkpt>
      <trkpt lat="51.552373" lon="-0.833629">
        <ele>38.012359</ele>
        <time>2023-09-30T08:49:49.000Z</time>
      </trkpt>
      <trkpt lat="51.552471" lon="-0.834161">
        <ele>37.96741</ele>
        <time>2023-09-30T08:49:53.000Z</time>
      </trkpt>
      <trkpt lat="51.553152" lon="-0.838446">
        <ele>38.515106</ele>
        <time>2023-09-30T08:50:24.000Z</time>
      </trkpt>
      <trkpt lat="51.553524" lon="-0.839936">
        <ele>38.533227</ele>
        <time>2023-09-30T08:50:35.000Z</time>
      </trkpt>
      <trkpt lat="51.553587" lon="-0.840249">
        <ele>38.536919</ele>
        <time>2023-09-30T08:50:37.000Z</time>
      </trkpt>
      <trkpt lat="51.553694" lon="-0.840955">
        <ele>38.402654</ele>
        <time>2023-09-30T08:50:42.000Z</time>
      </trkpt>
      <trkpt lat="51.553843" lon="-0.841501">
        <ele>38.279738</ele>
        <time>2023-09-30T08:50:46.000Z</time>
      </trkpt>
      <trkpt lat="51.553919" lon="-0.84173">
        <ele>38.229103</ele>
        <time>2023-09-30T08:50:48.000Z</time>
      </trkpt>
      <trkpt lat="51.554562" lon="-0.843986">
        <ele>37.326798</ele>
        <time>2023-09-30T08:51:05.000Z</time>
      </trkpt>
      <trkpt lat="51.554954" lon="-0.845217">
        <ele>36.5491</ele>
        <time>2023-09-30T08:51:15.000Z</time>
      </trkpt>
      <trkpt lat="51.555371" lon="-0.846799">
        <ele>35.603417</ele>
        <time>2023-09-30T08:51:27.000Z</time>
      </trkpt>
      <trkpt lat="51.55545" lon="-0.847493">
        <ele>35.215211</ele>
        <time>2023-09-30T08:51:32.000Z</time>
      </trkpt>
      <trkpt lat="51.555434" lon="-0.847917">
        <ele>34.979517</ele>
        <time>2023-09-30T08:51:35.000Z</time>
      </trkpt>
      <trkpt lat="51.555444" lon="-0.848825">
        <ele>34.690576</ele>
        <time>2023-09-30T08:51:41.000Z</time>
      </trkpt>
      <trkpt lat="51.555463" lon="-0.849636">
        <ele>34.608149</ele>
        <time>2023-09-30T08:51:47.000Z</time>
      </trkpt>
      <trkpt lat="51.555516" lon="-0.852535">
        <ele>34.016707</ele>
        <time>2023-09-30T08:52:07.000Z</time>
      </trkpt>
      <trkpt lat="51.555501" lon="-0.853674">
        <ele>33.632814</ele>
        <time>2023-09-30T08:52:15.000Z</time>
      </trkpt>
      <trkpt lat="51.555417" lon="-0.855207">
        <ele>32.746143</ele>
        <time>2023-09-30T08:52:26.000Z</time>
      </trkpt>
      <trkpt lat="51.55544" lon="-0.856285">
        <ele>32.002041</ele>
        <time>2023-09-30T08:52:33.000Z</time>
      </trkpt>
      <trkpt lat="51.555489" lon="-0.857171">
        <ele>31.459543</ele>
        <time>2023-09-30T08:52:39.000Z</time>
      </trkpt>
      <trkpt lat="51.555633" lon="-0.858492">
        <ele>31.162587</ele>
        <time>2023-09-30T08:52:48.000Z</time>
      </trkpt>
      <trkpt lat="51.555773" lon="-0.8593">
        <ele>30.978828</ele>
        <time>2023-09-30T08:52:54.000Z</time>
      </trkpt>
      <trkpt lat="51.555927" lon="-0.860018">
        <ele>30.892456</ele>
        <time>2023-09-30T08:52:59.000Z</time>
      </trkpt>
      <trkpt lat="51.556568" lon="-0.861783">
        <ele>31.316355</ele>
        <time>2023-09-30T08:53:13.000Z</time>
      </trkpt>
      <trkpt lat="51.556688" lon="-0.862313">
        <ele>31.430627</ele>
        <time>2023-09-30T08:53:17.000Z</time>
      </trkpt>
      <trkpt lat="51.556786" lon="-0.863151">
        <ele>31.711699</ele>
        <time>2023-09-30T08:53:23.000Z</time>
      </trkpt>
      <trkpt lat="51.55692" lon="-0.863663">
        <ele>31.906778</ele>
        <time>2023-09-30T08:53:27.000Z</time>
      </trkpt>
      <trkpt lat="51.557015" lon="-0.863879">
        <ele>32.000877</ele>
        <time>2023-09-30T08:53:29.000Z</time>
      </trkpt>
      <trkpt lat="51.557357" lon="-0.864383">
        <ele>32.256491</ele>
        <time>2023-09-30T08:53:34.000Z</time>
      </trkpt>
      <trkpt lat="51.557608" lon="-0.864931">
        <ele>32.485777</ele>
        <time>2023-09-30T08:53:39.000Z</time>
      </trkpt>
      <trkpt lat="51.557914" lon="-0.865753">
        <ele>32.749738</ele>
        <time>2023-09-30T08:53:46.000Z</time>
      </trkpt>
      <trkpt lat="51.558303" lon="-0.866812">
        <ele>33.081492</ele>
        <time>2023-09-30T08:53:55.000Z</time>
      </trkpt>
      <trkpt lat="51.558371" lon="-0.866979">
        <ele>33.132489</ele>
        <time>2023-09-30T08:53:56.000Z</time>
      </trkpt>
      <trkpt lat="51.558733" lon="-0.868028">
        <ele>33.361606</ele>
        <time>2023-09-30T08:54:04.000Z</time>
      </trkpt>
      <trkpt lat="51.558901" lon="-0.868722">
        <ele>33.474044</ele>
        <time>2023-09-30T08:54:09.000Z</time>
      </trkpt>
      <trkpt lat="51.558976" lon="-0.86893">
        <ele>33.509468</ele>
        <time>2023-09-30T08:54:11.000Z</time>
      </trkpt>
      <trkpt lat="51.559236" lon="-0.869583">
        <ele>33.625978</ele>
        <time>2023-09-30T08:54:16.000Z</time>
      </trkpt>
      <trkpt lat="51.560178" lon="-0.871242">
        <ele>33.480238</ele>
        <time>2023-09-30T08:54:32.000Z</time>
      </trkpt>
      <trkpt lat="51.56033" lon="-0.871547">
        <ele>33.439069</ele>
        <time>2023-09-30T08:54:35.000Z</time>
      </trkpt>
      <trkpt lat="51.5609" lon="-0.87262">
        <ele>33.192905</ele>
        <time>2023-09-30T08:54:45.000Z</time>
      </trkpt>
      <trkpt lat="51.561692" lon="-0.874284">
        <ele>32.737176</ele>
        <time>2023-09-30T08:54:59.000Z</time>
      </trkpt>
      <trkpt lat="51.5625" lon="-0.87636">
        <ele>33.028347</ele>
        <time>2023-09-30T08:55:16.000Z</time>
      </trkpt>
      <trkpt lat="51.562733" lon="-0.876905">
        <ele>33.24617</ele>
        <time>2023-09-30T08:55:21.000Z</time>
      </trkpt>
      <trkpt lat="51.562797" lon="-0.877119">
        <ele>33.395314</ele>
        <time>2023-09-30T08:55:23.000Z</time>
      </trkpt>
      <trkpt lat="51.562837" lon="-0.877294">
        <ele>33.516482</ele>
        <time>2023-09-30T08:55:24.000Z</time>
      </trkpt>
      <trkpt lat="51.562884" lon="-0.878009">
        <ele>33.988194</ele>
        <time>2023-09-30T08:55:29.000Z</time>
      </trkpt>
      <trkpt lat="51.562933" lon="-0.878353">
        <ele>34.214324</ele>
        <time>2023-09-30T08:55:31.000Z</time>
      </trkpt>
      <trkpt lat="51.563151" lon="-0.879195">
        <ele>34.821408</ele>
        <time>2023-09-30T08:55:37.000Z</time>
      </trkpt>
      <trkpt lat="51.563703" lon="-0.881059">
        <ele>36.78422</ele>
        <time>2023-09-30T08:55:51.000Z</time>
      </trkpt>
      <trkpt lat="51.563721" lon="-0.881122">
        <ele>36.856439</ele>
        <time>2023-09-30T08:55:51.000Z</time>
      </trkpt>
      <trkpt lat="51.563863" lon="-0.881768">
        <ele>37.538148</ele>
        <time>2023-09-30T08:55:56.000Z</time>
      </trkpt>
      <trkpt lat="51.56389" lon="-0.882035">
        <ele>37.797698</ele>
        <time>2023-09-30T08:55:58.000Z</time>
      </trkpt>
      <trkpt lat="51.563884" lon="-0.882342">
        <ele>37.843442</ele>
        <time>2023-09-30T08:56:00.000Z</time>
      </trkpt>
      <trkpt lat="51.563873" lon="-0.882856">
        <ele>37.846607</ele>
        <time>2023-09-30T08:56:04.000Z</time>
      </trkpt>
      <trkpt lat="51.563806" lon="-0.883572">
        <ele>37.851013</ele>
        <time>2023-09-30T08:56:09.000Z</time>
      </trkpt>
      <trkpt lat="51.5637" lon="-0.884278">
        <ele>37.85539</ele>
        <time>2023-09-30T08:56:14.000Z</time>
      </trkpt>
      <trkpt lat="51.563257" lon="-0.887275">
        <ele>36.42207</ele>
        <time>2023-09-30T08:56:35.000Z</time>
      </trkpt>
      <trkpt lat="51.563152" lon="-0.887907">
        <ele>36.170945</ele>
        <time>2023-09-30T08:56:40.000Z</time>
      </trkpt>
      <trkpt lat="51.562937" lon="-0.88888">
        <ele>36.334182</ele>
        <time>2023-09-30T08:56:47.000Z</time>
      </trkpt>
      <trkpt lat="51.562734" lon="-0.889475">
        <ele>36.444629</ele>
        <time>2023-09-30T08:56:52.000Z</time>
      </trkpt>
      <trkpt lat="51.562481" lon="-0.890314">
        <ele>36.590039</ele>
        <time>2023-09-30T08:56:58.000Z</time>
      </trkpt>
      <trkpt lat="51.562352" lon="-0.890973">
        <ele>36.722854</ele>
        <time>2023-09-30T08:57:03.000Z</time>
      </trkpt>
      <trkpt lat="51.562328" lon="-0.891256">
        <ele>36.778988</ele>
        <time>2023-09-30T08:57:05.000Z</time>
      </trkpt>
      <trkpt lat="51.562318" lon="-0.891497">
        <ele>36.824889</ele>
        <time>2023-09-30T08:57:07.000Z</time>
      </trkpt>
      <trkpt lat="51.562384" lon="-0.892105">
        <ele>36.943573</ele>
        <time>2023-09-30T08:57:11.000Z</time>
      </trkpt>
      <trkpt lat="51.562356" lon="-0.892415">
        <ele>37.005673</ele>
        <time>2023-09-30T08:57:13.000Z</time>
      </trkpt>
      <trkpt lat="51.562343" lon="-0.892621">
        <ele>37.043911</ele>
        <time>2023-09-30T08:57:14.000Z</time>
      </trkpt>
      <trkpt lat="51.561992" lon="-0.894193">
        <ele>36.529607</ele>
        <time>2023-09-30T08:57:26.000Z</time>
      </trkpt>
      <trkpt lat="51.561579" lon="-0.896222">
        <ele>35.316647</ele>
        <time>2023-09-30T08:57:41.000Z</time>
      </trkpt>
      <trkpt lat="51.561507" lon="-0.896455">
        <ele>35.203484</ele>
        <time>2023-09-30T08:57:43.000Z</time>
      </trkpt>
      <trkpt lat="51.56104" lon="-0.897612">
        <ele>34.601608</ele>
        <time>2023-09-30T08:57:53.000Z</time>
      </trkpt>
      <trkpt lat="51.560958" lon="-0.897795">
        <ele>34.500373</ele>
        <time>2023-09-30T08:57:55.000Z</time>
      </trkpt>
      <trkpt lat="51.560697" lon="-0.898115">
        <ele>34.274575</ele>
        <time>2023-09-30T08:57:59.000Z</time>
      </trkpt>
      <trkpt lat="51.560459" lon="-0.898345">
        <ele>34.274981</ele>
        <time>2023-09-30T08:58:02.000Z</time>
      </trkpt>
      <trkpt lat="51.560129" lon="-0.898597">
        <ele>34.481509</ele>
        <time>2023-09-30T08:58:06.000Z</time>
      </trkpt>
      <trkpt lat="51.559641" lon="-0.898838">
        <ele>34.780217</ele>
        <time>2023-09-30T08:58:12.000Z</time>
      </trkpt>
      <trkpt lat="51.559538" lon="-0.89891">
        <ele>34.845279</ele>
        <time>2023-09-30T08:58:13.000Z</time>
      </trkpt>
      <trkpt lat="51.559369" lon="-0.899098">
        <ele>34.955544</ele>
        <time>2023-09-30T08:58:15.000Z</time>
      </trkpt>
      <trkpt lat="51.559241" lon="-0.899355">
        <ele>35.078702</ele>
        <time>2023-09-30T08:58:17.000Z</time>
      </trkpt>
      <trkpt lat="51.559126" lon="-0.899671">
        <ele>35.20617</ele>
        <time>2023-09-30T08:58:20.000Z</time>
      </trkpt>
      <trkpt lat="51.558861" lon="-0.90012">
        <ele>35.594499</ele>
        <time>2023-09-30T08:58:24.000Z</time>
      </trkpt>
      <trkpt lat="51.558693" lon="-0.900314">
        <ele>35.807703</ele>
        <time>2023-09-30T08:58:26.000Z</time>
      </trkpt>
      <trkpt lat="51.558278" lon="-0.900639">
        <ele>36.269579</ele>
        <time>2023-09-30T08:58:31.000Z</time>
      </trkpt>
      <trkpt lat="51.557611" lon="-0.901082">
        <ele>37.01726</ele>
        <time>2023-09-30T08:58:39.000Z</time>
      </trkpt>
      <trkpt lat="51.557193" lon="-0.901311">
        <ele>37.137603</ele>
        <time>2023-09-30T08:58:44.000Z</time>
      </trkpt>
      <trkpt lat="51.556269" lon="-0.901738">
        <ele>37.334729</ele>
        <time>2023-09-30T08:58:55.000Z</time>
      </trkpt>
      <trkpt lat="51.556224" lon="-0.90177">
        <ele>37.345078</ele>
        <time>2023-09-30T08:58:56.000Z</time>
      </trkpt>
      <trkpt lat="51.554074" lon="-0.90257">
        <ele>36.197807</ele>
        <time>2023-09-30T08:59:21.000Z</time>
      </trkpt>
      <trkpt lat="51.553338" lon="-0.902802">
        <ele>36.287387</ele>
        <time>2023-09-30T08:59:29.000Z</time>
      </trkpt>
      <trkpt lat="51.552972" lon="-0.902885">
        <ele>36.330278</ele>
        <time>2023-09-30T08:59:33.000Z</time>
      </trkpt>
      <trkpt lat="51.552538" lon="-0.902867">
        <ele>36.38057</ele>
        <time>2023-09-30T08:59:38.000Z</time>
      </trkpt>
      <trkpt lat="51.551169" lon="-0.902652">
        <ele>37.316696</ele>
        <time>2023-09-30T08:59:53.000Z</time>
      </trkpt>
      <trkpt lat="51.550698" lon="-0.902567">
        <ele>37.697491</ele>
        <time>2023-09-30T08:59:58.000Z</time>
      </trkpt>
      <trkpt lat="51.550049" lon="-0.902399">
        <ele>37.746008</ele>
        <time>2023-09-30T09:00:05.000Z</time>
      </trkpt>
      <trkpt lat="51.548811" lon="-0.902205">
        <ele>37.501322</ele>
        <time>2023-09-30T09:00:19.000Z</time>
      </trkpt>
      <trkpt lat="51.548697" lon="-0.902187">
        <ele>37.469352</ele>
        <time>2023-09-30T09:00:20.000Z</time>
      </trkpt>
      <trkpt lat="51.547534" lon="-0.902678">
        <ele>36.911898</ele>
        <time>2023-09-30T09:00:33.000Z</time>
      </trkpt>
      <trkpt lat="51.545881" lon="-0.90344">
        <ele>36.673498</ele>
        <time>2023-09-30T09:00:52.000Z</time>
      </trkpt>
      <trkpt lat="51.545488" lon="-0.903629">
        <ele>36.680925</ele>
        <time>2023-09-30T09:00:57.000Z</time>
      </trkpt>
      <trkpt lat="51.545445" lon="-0.90364">
        <ele>36.681552</ele>
        <time>2023-09-30T09:00:57.000Z</time>
      </trkpt>
      <trkpt lat="51.543972" lon="-0.90414">
        <ele>36.961872</ele>
        <time>2023-09-30T09:01:14.000Z</time>
      </trkpt>
      <trkpt lat="51.543287" lon="-0.904499">
        <ele>37.018453</ele>
        <time>2023-09-30T09:01:22.000Z</time>
      </trkpt>
      <trkpt lat="51.543122" lon="-0.904568">
        <ele>36.991167</ele>
        <time>2023-09-30T09:01:24.000Z</time>
      </trkpt>
      <trkpt lat="51.542548" lon="-0.904682">
        <ele>36.891472</ele>
        <time>2023-09-30T09:01:30.000Z</time>
      </trkpt>
      <trkpt lat="51.542363" lon="-0.904715">
        <ele>36.860399</ele>
        <time>2023-09-30T09:01:32.000Z</time>
      </trkpt>
      <trkpt lat="51.542042" lon="-0.904821">
        <ele>36.803503</ele>
        <time>2023-09-30T09:01:36.000Z</time>
      </trkpt>
      <trkpt lat="51.541876" lon="-0.904877">
        <ele>36.77616</ele>
        <time>2023-09-30T09:01:38.000Z</time>
      </trkpt>
      <trkpt lat="51.541675" lon="-0.904932">
        <ele>36.767861</ele>
        <time>2023-09-30T09:01:40.000Z</time>
      </trkpt>
      <trkpt lat="51.541874" lon="-0.904864">
        <ele>36.800718</ele>
        <time>2023-09-30T09:01:42.000Z</time>
      </trkpt>
      <trkpt lat="51.542042" lon="-0.904826">
        <ele>36.827488</ele>
        <time>2023-09-30T09:01:44.000Z</time>
      </trkpt>
      <trkpt lat="51.542365" lon="-0.904722">
        <ele>36.883141</ele>
        <time>2023-09-30T09:01:48.000Z</time>
      </trkpt>
      <trkpt lat="51.542546" lon="-0.904692">
        <ele>36.913553</ele>
        <time>2023-09-30T09:01:50.000Z</time>
      </trkpt>
      <trkpt lat="51.543136" lon="-0.904583">
        <ele>37.011087</ele>
        <time>2023-09-30T09:01:57.000Z</time>
      </trkpt>
      <trkpt lat="51.543276" lon="-0.904498">
        <ele>37.037796</ele>
        <time>2023-09-30T09:01:59.000Z</time>
      </trkpt>
      <trkpt lat="51.543977" lon="-0.904142">
        <ele>36.939527</ele>
        <time>2023-09-30T09:02:07.000Z</time>
      </trkpt>
      <trkpt lat="51.545447" lon="-0.903636">
        <ele>36.704613</ele>
        <time>2023-09-30T09:02:24.000Z</time>
      </trkpt>
      <trkpt lat="51.545495" lon="-0.903621">
        <ele>36.702658</ele>
        <time>2023-09-30T09:02:25.000Z</time>
      </trkpt>
      <trkpt lat="51.545882" lon="-0.903438">
        <ele>36.679612</ele>
        <time>2023-09-30T09:02:29.000Z</time>
      </trkpt>
      <trkpt lat="51.547542" lon="-0.902668">
        <ele>36.929848</ele>
        <time>2023-09-30T09:02:48.000Z</time>
      </trkpt>
      <trkpt lat="51.548711" lon="-0.90219">
        <ele>37.430973</ele>
        <time>2023-09-30T09:03:01.000Z</time>
      </trkpt>
      <trkpt lat="51.548814" lon="-0.902219">
        <ele>37.462571</ele>
        <time>2023-09-30T09:03:02.000Z</time>
      </trkpt>
      <trkpt lat="51.550064" lon="-0.902391">
        <ele>37.799312</ele>
        <time>2023-09-30T09:03:16.000Z</time>
      </trkpt>
      <trkpt lat="51.550692" lon="-0.902572">
        <ele>37.639103</ele>
        <time>2023-09-30T09:03:23.000Z</time>
      </trkpt>
      <trkpt lat="51.55118" lon="-0.902654">
        <ele>37.278511</ele>
        <time>2023-09-30T09:03:28.000Z</time>
      </trkpt>
      <trkpt lat="51.552537" lon="-0.902882">
        <ele>36.444165</ele>
        <time>2023-09-30T09:03:43.000Z</time>
      </trkpt>
      <trkpt lat="51.552968" lon="-0.902871">
        <ele>36.346794</ele>
        <time>2023-09-30T09:03:48.000Z</time>
      </trkpt>
      <trkpt lat="51.553323" lon="-0.9028">
        <ele>36.263721</ele>
        <time>2023-09-30T09:03:52.000Z</time>
      </trkpt>
      <trkpt lat="51.554073" lon="-0.90257">
        <ele>36.21426</ele>
        <time>2023-09-30T09:04:00.000Z</time>
      </trkpt>
      <trkpt lat="51.556232" lon="-0.90176">
        <ele>37.295694</ele>
        <time>2023-09-30T09:04:25.000Z</time>
      </trkpt>
      <trkpt lat="51.556274" lon="-0.901748">
        <ele>37.290934</ele>
        <time>2023-09-30T09:04:25.000Z</time>
      </trkpt>
      <trkpt lat="51.557189" lon="-0.901301">
        <ele>37.199842</ele>
        <time>2023-09-30T09:04:36.000Z</time>
      </trkpt>
      <trkpt lat="51.55761" lon="-0.901075">
        <ele>36.986868</ele>
        <time>2023-09-30T09:04:41.000Z</time>
      </trkpt>
      <trkpt lat="51.558291" lon="-0.900633">
        <ele>36.250602</ele>
        <time>2023-09-30T09:04:49.000Z</time>
      </trkpt>
      <trkpt lat="51.558683" lon="-0.900319">
        <ele>35.795762</ele>
        <time>2023-09-30T09:04:54.000Z</time>
      </trkpt>
      <trkpt lat="51.558865" lon="-0.900118">
        <ele>35.585826</ele>
        <time>2023-09-30T09:04:56.000Z</time>
      </trkpt>
      <trkpt lat="51.559131" lon="-0.899673">
        <ele>35.254733</ele>
        <time>2023-09-30T09:05:00.000Z</time>
      </trkpt>
      <trkpt lat="51.559235" lon="-0.89936">
        <ele>35.109396</ele>
        <time>2023-09-30T09:05:02.000Z</time>
      </trkpt>
      <trkpt lat="51.559368" lon="-0.899107">
        <ele>34.968951</ele>
        <time>2023-09-30T09:05:04.000Z</time>
      </trkpt>
      <trkpt lat="51.559533" lon="-0.898912">
        <ele>34.843246</ele>
        <time>2023-09-30T09:05:06.000Z</time>
      </trkpt>
      <trkpt lat="51.559624" lon="-0.898828">
        <ele>34.769056</ele>
        <time>2023-09-30T09:05:07.000Z</time>
      </trkpt>
      <trkpt lat="51.560128" lon="-0.89861">
        <ele>34.428424</ele>
        <time>2023-09-30T09:05:13.000Z</time>
      </trkpt>
      <trkpt lat="51.560451" lon="-0.898342">
        <ele>34.192943</ele>
        <time>2023-09-30T09:05:17.000Z</time>
      </trkpt>
      <trkpt lat="51.560712" lon="-0.898113">
        <ele>34.358002</ele>
        <time>2023-09-30T09:05:20.000Z</time>
      </trkpt>
      <trkpt lat="51.56096" lon="-0.897793">
        <ele>34.553208</ele>
        <time>2023-09-30T09:05:24.000Z</time>
      </trkpt>
      <trkpt lat="51.561045" lon="-0.897605">
        <ele>34.640728</ele>
        <time>2023-09-30T09:05:26.000Z</time>
      </trkpt>
      <trkpt lat="51.561501" lon="-0.896466">
        <ele>35.161035</ele>
        <time>2023-09-30T09:05:35.000Z</time>
      </trkpt>
      <trkpt lat="51.561584" lon="-0.896235">
        <ele>35.258868</ele>
        <time>2023-09-30T09:05:37.000Z</time>
      </trkpt>
      <trkpt lat="51.56199" lon="-0.894192">
        <ele>36.57209</ele>
        <time>2023-09-30T09:05:52.000Z</time>
      </trkpt>
      <trkpt lat="51.562329" lon="-0.892616">
        <ele>36.974949</ele>
        <time>2023-09-30T09:06:04.000Z</time>
      </trkpt>
      <trkpt lat="51.562359" lon="-0.892421">
        <ele>36.948586</ele>
        <time>2023-09-30T09:06:05.000Z</time>
      </trkpt>
      <trkpt lat="51.562386" lon="-0.892098">
        <ele>36.905798</ele>
        <time>2023-09-30T09:06:07.000Z</time>
      </trkpt>
      <trkpt lat="51.562327" lon="-0.891491">
        <ele>36.82396</ele>
        <time>2023-09-30T09:06:11.000Z</time>
      </trkpt>
      <trkpt lat="51.562325" lon="-0.89125">
        <ele>36.79233</ele>
        <time>2023-09-30T09:06:13.000Z</time>
      </trkpt>
      <trkpt lat="51.562352" lon="-0.890975">
        <ele>36.753636</ele>
        <time>2023-09-30T09:06:15.000Z</time>
      </trkpt>
      <trkpt lat="51.562483" lon="-0.890315">
        <ele>36.635169</ele>
        <time>2023-09-30T09:06:20.000Z</time>
      </trkpt>
      <trkpt lat="51.56272" lon="-0.889484">
        <ele>36.441198</ele>
        <time>2023-09-30T09:06:26.000Z</time>
      </trkpt>
      <trkpt lat="51.562948" lon="-0.888877">
        <ele>36.293864</ele>
        <time>2023-09-30T09:06:31.000Z</time>
      </trkpt>
      <trkpt lat="51.56315" lon="-0.887906">
        <ele>36.119767</ele>
        <time>2023-09-30T09:06:38.000Z</time>
      </trkpt>
      <trkpt lat="51.563251" lon="-0.887272">
        <ele>36.487809</ele>
        <time>2023-09-30T09:06:43.000Z</time>
      </trkpt>
      <trkpt lat="51.563686" lon="-0.884275">
        <ele>37.796253</ele>
        <time>2023-09-30T09:07:04.000Z</time>
      </trkpt>
      <trkpt lat="51.563798" lon="-0.883578">
        <ele>37.869927</ele>
        <time>2023-09-30T09:07:09.000Z</time>
      </trkpt>
      <trkpt lat="51.563876" lon="-0.882859">
        <ele>37.944043</ele>
        <time>2023-09-30T09:07:14.000Z</time>
      </trkpt>
      <trkpt lat="51.563895" lon="-0.882333">
        <ele>37.997224</ele>
        <time>2023-09-30T09:07:18.000Z</time>
      </trkpt>
      <trkpt lat="51.563887" lon="-0.882029">
        <ele>37.723708</ele>
        <time>2023-09-30T09:07:20.000Z</time>
      </trkpt>
      <trkpt lat="51.563868" lon="-0.881777">
        <ele>37.472175</ele>
        <time>2023-09-30T09:07:22.000Z</time>
      </trkpt>
      <trkpt lat="51.563715" lon="-0.881131">
        <ele>36.811531</ele>
        <time>2023-09-30T09:07:27.000Z</time>
      </trkpt>
      <trkpt lat="51.563698" lon="-0.881054">
        <ele>36.741543</ele>
        <time>2023-09-30T09:07:28.000Z</time>
      </trkpt>
      <trkpt lat="51.563162" lon="-0.879198">
        <ele>34.882751</ele>
        <time>2023-09-30T09:07:42.000Z</time>
      </trkpt>
      <trkpt lat="51.562932" lon="-0.878342">
        <ele>34.222412</ele>
        <time>2023-09-30T09:07:48.000Z</time>
      </trkpt>
      <trkpt lat="51.562873" lon="-0.878021">
        <ele>33.976455</ele>
        <time>2023-09-30T09:07:50.000Z</time>
      </trkpt>
      <trkpt lat="51.562834" lon="-0.877304">
        <ele>33.463365</ele>
        <time>2023-09-30T09:07:55.000Z</time>
      </trkpt>
      <trkpt lat="51.562797" lon="-0.877114">
        <ele>33.331567</ele>
        <time>2023-09-30T09:07:56.000Z</time>
      </trkpt>
      <trkpt lat="51.56274" lon="-0.876912">
        <ele>33.169317</ele>
        <time>2023-09-30T09:07:58.000Z</time>
      </trkpt>
      <trkpt lat="51.5625" lon="-0.876362">
        <ele>33.059244</ele>
        <time>2023-09-30T09:08:03.000Z</time>
      </trkpt>
      <trkpt lat="51.561689" lon="-0.874278">
        <ele>32.764389</ele>
        <time>2023-09-30T09:08:20.000Z</time>
      </trkpt>
      <trkpt lat="51.560899" lon="-0.872631">
        <ele>33.193363</ele>
        <time>2023-09-30T09:08:34.000Z</time>
      </trkpt>
      <trkpt lat="51.560348" lon="-0.871548">
        <ele>33.419508</ele>
        <time>2023-09-30T09:08:44.000Z</time>
      </trkpt>
      <trkpt lat="51.560171" lon="-0.871251">
        <ele>33.471066</ele>
        <time>2023-09-30T09:08:47.000Z</time>
      </trkpt>
      <trkpt lat="51.559234" lon="-0.869591">
        <ele>33.607871</ele>
        <time>2023-09-30T09:09:02.000Z</time>
      </trkpt>
      <trkpt lat="51.55898" lon="-0.868942">
        <ele>33.504117</ele>
        <time>2023-09-30T09:09:07.000Z</time>
      </trkpt>
      <trkpt lat="51.558902" lon="-0.868735">
        <ele>33.472574</ele>
        <time>2023-09-30T09:09:09.000Z</time>
      </trkpt>
      <trkpt lat="51.558732" lon="-0.868032">
        <ele>33.372457</ele>
        <time>2023-09-30T09:09:14.000Z</time>
      </trkpt>
      <trkpt lat="51.558378" lon="-0.866978">
        <ele>33.127977</ele>
        <time>2023-09-30T09:09:22.000Z</time>
      </trkpt>
      <trkpt lat="51.558308" lon="-0.866815">
        <ele>33.078344</ele>
        <time>2023-09-30T09:09:23.000Z</time>
      </trkpt>
      <trkpt lat="51.55791" lon="-0.865757">
        <ele>32.755451</ele>
        <time>2023-09-30T09:09:32.000Z</time>
      </trkpt>
      <trkpt lat="51.557592" lon="-0.864934">
        <ele>32.486723</ele>
        <time>2023-09-30T09:09:39.000Z</time>
      </trkpt>
      <trkpt lat="51.557355" lon="-0.864376">
        <ele>32.249591</ele>
        <time>2023-09-30T09:09:44.000Z</time>
      </trkpt>
      <trkpt lat="51.55702" lon="-0.863876">
        <ele>31.994087</ele>
        <time>2023-09-30T09:09:49.000Z</time>
      </trkpt>
      <trkpt lat="51.556908" lon="-0.863658">
        <ele>31.900046</ele>
        <time>2023-09-30T09:09:51.000Z</time>
      </trkpt>
      <trkpt lat="51.556779" lon="-0.863149">
        <ele>31.705025</ele>
        <time>2023-09-30T09:09:55.000Z</time>
      </trkpt>
      <trkpt lat="51.556687" lon="-0.862308">
        <ele>31.451684</ele>
        <time>2023-09-30T09:10:01.000Z</time>
      </trkpt>
      <trkpt lat="51.556572" lon="-0.861783">
        <ele>31.326825</ele>
        <time>2023-09-30T09:10:05.000Z</time>
      </trkpt>
      <trkpt lat="51.555932" lon="-0.860024">
        <ele>30.884922</ele>
        <time>2023-09-30T09:10:19.000Z</time>
      </trkpt>
      <trkpt lat="51.555764" lon="-0.859297">
        <ele>31.012349</ele>
        <time>2023-09-30T09:10:24.000Z</time>
      </trkpt>
      <trkpt lat="51.555626" lon="-0.858494">
        <ele>31.152694</ele>
        <time>2023-09-30T09:10:30.000Z</time>
      </trkpt>
      <trkpt lat="51.555493" lon="-0.857162">
        <ele>31.432877</ele>
        <time>2023-09-30T09:10:39.000Z</time>
      </trkpt>
      <trkpt lat="51.555437" lon="-0.856291">
        <ele>32.028629</ele>
        <time>2023-09-30T09:10:45.000Z</time>
      </trkpt>
      <trkpt lat="51.555417" lon="-0.855213">
        <ele>32.759593</ele>
        <time>2023-09-30T09:10:52.000Z</time>
      </trkpt>
      <trkpt lat="51.555507" lon="-0.853681">
        <ele>33.586381</ele>
        <time>2023-09-30T09:11:03.000Z</time>
      </trkpt>
      <trkpt lat="51.555516" lon="-0.852539">
        <ele>34.027797</ele>
        <time>2023-09-30T09:11:11.000Z</time>
      </trkpt>
      <trkpt lat="51.55546" lon="-0.849633">
        <ele>34.584947</ele>
        <time>2023-09-30T09:11:31.000Z</time>
      </trkpt>
      <trkpt lat="51.555435" lon="-0.848829">
        <ele>34.654548</ele>
        <time>2023-09-30T09:11:37.000Z</time>
      </trkpt>
      <trkpt lat="51.555444" lon="-0.847933">
        <ele>35.023443</ele>
        <time>2023-09-30T09:11:43.000Z</time>
      </trkpt>
      <trkpt lat="51.555459" lon="-0.847494">
        <ele>35.243625</ele>
        <time>2023-09-30T09:11:46.000Z</time>
      </trkpt>
      <trkpt lat="51.555382" lon="-0.846795">
        <ele>35.606303</ele>
        <time>2023-09-30T09:11:51.000Z</time>
      </trkpt>
      <trkpt lat="51.554956" lon="-0.84522">
        <ele>36.533686</ele>
        <time>2023-09-30T09:12:03.000Z</time>
      </trkpt>
      <trkpt lat="51.554558" lon="-0.843976">
        <ele>37.347277</ele>
        <time>2023-09-30T09:12:13.000Z</time>
      </trkpt>
      <trkpt lat="51.553918" lon="-0.841732">
        <ele>38.224555</ele>
        <time>2023-09-30T09:12:30.000Z</time>
      </trkpt>
      <trkpt lat="51.553857" lon="-0.841501">
        <ele>38.281173</ele>
        <time>2023-09-30T09:12:32.000Z</time>
      </trkpt>
      <trkpt lat="51.553696" lon="-0.84095">
        <ele>38.418652</ele>
        <time>2023-09-30T09:12:36.000Z</time>
      </trkpt>
      <trkpt lat="51.5536" lon="-0.840257">
        <ele>38.516774</ele>
        <time>2023-09-30T09:12:41.000Z</time>
      </trkpt>
      <trkpt lat="51.553521" lon="-0.839952">
        <ele>38.519652</ele>
        <time>2023-09-30T09:12:43.000Z</time>
      </trkpt>
      <trkpt lat="51.553146" lon="-0.838445">
        <ele>38.533723</ele>
        <time>2023-09-30T09:12:54.000Z</time>
      </trkpt>
      <trkpt lat="51.552468" lon="-0.834154">
        <ele>37.970939</ele>
        <time>2023-09-30T09:13:25.000Z</time>
      </trkpt>
      <trkpt lat="51.552374" lon="-0.833622">
        <ele>37.970502</ele>
        <time>2023-09-30T09:13:29.000Z</time>
      </trkpt>
      <trkpt lat="51.552201" lon="-0.832944">
        <ele>37.969905</ele>
        <time>2023-09-30T09:13:34.000Z</time>
      </trkpt>
      <trkpt lat="51.552087" lon="-0.832388">
        <ele>37.969443</ele>
        <time>2023-09-30T09:13:38.000Z</time>
      </trkpt>
      <trkpt lat="51.552069" lon="-0.831984">
        <ele>38.592779</ele>
        <time>2023-09-30T09:13:41.000Z</time>
      </trkpt>
      <trkpt lat="51.552075" lon="-0.831659">
        <ele>39.298843</ele>
        <time>2023-09-30T09:13:43.000Z</time>
      </trkpt>
      <trkpt lat="51.552158" lon="-0.830986">
        <ele>40.870245</ele>
        <time>2023-09-30T09:13:48.000Z</time>
      </trkpt>
      <trkpt lat="51.552247" lon="-0.830648">
        <ele>41.686553</ele>
        <time>2023-09-30T09:13:51.000Z</time>
      </trkpt>
      <trkpt lat="51.552959" lon="-0.828597">
        <ele>48.763192</ele>
        <time>2023-09-30T09:14:07.000Z</time>
      </trkpt>
      <trkpt lat="51.553641" lon="-0.827613">
        <ele>54.509892</ele>
        <time>2023-09-30T09:14:17.000Z</time>
      </trkpt>
      <trkpt lat="51.554664" lon="-0.826522">
        <ele>61.364</ele>
        <time>2023-09-30T09:14:31.000Z</time>
      </trkpt>
      <trkpt lat="51.555915" lon="-0.825158">
        <ele>68.100498</ele>
        <time>2023-09-30T09:14:48.000Z</time>
      </trkpt>
      <trkpt lat="51.556404" lon="-0.824589">
        <ele>70.210545</ele>
        <time>2023-09-30T09:14:55.000Z</time>
      </trkpt>
      <trkpt lat="51.556702" lon="-0.824229">
        <ele>71.573264</ele>
        <time>2023-09-30T09:14:59.000Z</time>
      </trkpt>
      <trkpt lat="51.556785" lon="-0.824115">
        <ele>71.84463</ele>
        <time>2023-09-30T09:15:00.000Z</time>
      </trkpt>
      <trkpt lat="51.557031" lon="-0.823722">
        <ele>72.182591</ele>
        <time>2023-09-30T09:15:04.000Z</time>
      </trkpt>
      <trkpt lat="51.557146" lon="-0.823291">
        <ele>72.474862</ele>
        <time>2023-09-30T09:15:07.000Z</time>
      </trkpt>
      <trkpt lat="51.557179" lon="-0.823122">
        <ele>72.587822</ele>
        <time>2023-09-30T09:15:08.000Z</time>
      </trkpt>
      <trkpt lat="51.557213" lon="-0.822782">
        <ele>72.800665</ele>
        <time>2023-09-30T09:15:10.000Z</time>
      </trkpt>
      <trkpt lat="51.557185" lon="-0.82173">
        <ele>73.441906</ele>
        <time>2023-09-30T09:15:17.000Z</time>
      </trkpt>
      <trkpt lat="51.557176" lon="-0.821555">
        <ele>73.546801</ele>
        <time>2023-09-30T09:15:18.000Z</time>
      </trkpt>
      <trkpt lat="51.557178" lon="-0.821736">
        <ele>73.520206</ele>
        <time>2023-09-30T09:15:19.000Z</time>
      </trkpt>
      <trkpt lat="51.557208" lon="-0.822765">
        <ele>72.808457</ele>
        <time>2023-09-30T09:15:26.000Z</time>
      </trkpt>
      <trkpt lat="51.557192" lon="-0.823121">
        <ele>72.572214</ele>
        <time>2023-09-30T09:15:28.000Z</time>
      </trkpt>
      <trkpt lat="51.557162" lon="-0.823297">
        <ele>72.446842</ele>
        <time>2023-09-30T09:15:29.000Z</time>
      </trkpt>
      <trkpt lat="51.557026" lon="-0.823713">
        <ele>72.122445</ele>
        <time>2023-09-30T09:15:32.000Z</time>
      </trkpt>
      <trkpt lat="51.556795" lon="-0.824121">
        <ele>71.747328</ele>
        <time>2023-09-30T09:15:36.000Z</time>
      </trkpt>
      <trkpt lat="51.556715" lon="-0.824214">
        <ele>71.632897</ele>
        <time>2023-09-30T09:15:37.000Z</time>
      </trkpt>
      <trkpt lat="51.556399" lon="-0.824583">
        <ele>70.27646</ele>
        <time>2023-09-30T09:15:41.000Z</time>
      </trkpt>
      <trkpt lat="51.555916" lon="-0.82515">
        <ele>68.099095</ele>
        <time>2023-09-30T09:15:48.000Z</time>
      </trkpt>
      <trkpt lat="51.554672" lon="-0.826516">
        <ele>61.37721</ele>
        <time>2023-09-30T09:16:05.000Z</time>
      </trkpt>
      <trkpt lat="51.553634" lon="-0.827615">
        <ele>54.513671</ele>
        <time>2023-09-30T09:16:19.000Z</time>
      </trkpt>
      <trkpt lat="51.552959" lon="-0.828612">
        <ele>48.789704</ele>
        <time>2023-09-30T09:16:29.000Z</time>
      </trkpt>
      <trkpt lat="51.552238" lon="-0.830648">
        <ele>41.662784</ele>
        <time>2023-09-30T09:16:45.000Z</time>
      </trkpt>
      <trkpt lat="51.552158" lon="-0.830971">
        <ele>40.89751</ele>
        <time>2023-09-30T09:16:47.000Z</time>
      </trkpt>
      <trkpt lat="51.55208" lon="-0.831669">
        <ele>39.424321</ele>
        <time>2023-09-30T09:16:52.000Z</time>
      </trkpt>
      <trkpt lat="51.552062" lon="-0.83197">
        <ele>38.762389</ele>
        <time>2023-09-30T09:16:54.000Z</time>
      </trkpt>
      <trkpt lat="51.552086" lon="-0.832383">
        <ele>37.89985</ele>
        <time>2023-09-30T09:16:57.000Z</time>
      </trkpt>
      <trkpt lat="51.552194" lon="-0.832938">
        <ele>37.908917</ele>
        <time>2023-09-30T09:17:01.000Z</time>
      </trkpt>
      <trkpt lat="51.552365" lon="-0.833639">
        <ele>37.939351</ele>
        <time>2023-09-30T09:17:06.000Z</time>
      </trkpt>
      <trkpt lat="51.552471" lon="-0.834151">
        <ele>37.961626</ele>
        <time>2023-09-30T09:17:10.000Z</time>
      </trkpt>
      <trkpt lat="51.553163" lon="-0.838444">
        <ele>38.546279</ele>
        <time>2023-09-30T09:17:41.000Z</time>
      </trkpt>
      <trkpt lat="51.553521" lon="-0.839941">
        <ele>38.513937</ele>
        <time>2023-09-30T09:17:52.000Z</time>
      </trkpt>
      <trkpt lat="51.553582" lon="-0.840255">
        <ele>38.50735</ele>
        <time>2023-09-30T09:17:54.000Z</time>
      </trkpt>
      <trkpt lat="51.553693" lon="-0.840943">
        <ele>38.43064</ele>
        <time>2023-09-30T09:17:59.000Z</time>
      </trkpt>
      <trkpt lat="51.553853" lon="-0.841496">
        <ele>38.284545</ele>
        <time>2023-09-30T09:18:03.000Z</time>
      </trkpt>
      <trkpt lat="51.553918" lon="-0.841722">
        <ele>38.224377</ele>
        <time>2023-09-30T09:18:05.000Z</time>
      </trkpt>
      <trkpt lat="51.554571" lon="-0.843988">
        <ele>37.362127</ele>
        <time>2023-09-30T09:18:22.000Z</time>
      </trkpt>
      <trkpt lat="51.55496" lon="-0.84522">
        <ele>36.530562</ele>
        <time>2023-09-30T09:18:32.000Z</time>
      </trkpt>
      <trkpt lat="51.555373" lon="-0.846794">
        <ele>35.602654</ele>
        <time>2023-09-30T09:18:44.000Z</time>
      </trkpt>
      <trkpt lat="51.555462" lon="-0.847485">
        <ele>35.255353</ele>
        <time>2023-09-30T09:18:49.000Z</time>
      </trkpt>
      <trkpt lat="51.555441" lon="-0.847918">
        <ele>35.044511</ele>
        <time>2023-09-30T09:18:52.000Z</time>
      </trkpt>
      <trkpt lat="51.555431" lon="-0.848826">
        <ele>34.635148</ele>
        <time>2023-09-30T09:18:58.000Z</time>
      </trkpt>
      <trkpt lat="51.555456" lon="-0.849625">
        <ele>34.570505</ele>
        <time>2023-09-30T09:19:04.000Z</time>
      </trkpt>
      <trkpt lat="51.555505" lon="-0.852535">
        <ele>34.041631</ele>
        <time>2023-09-30T09:19:24.000Z</time>
      </trkpt>
      <trkpt lat="51.555495" lon="-0.853685">
        <ele>33.567741</ele>
        <time>2023-09-30T09:19:32.000Z</time>
      </trkpt>
      <trkpt lat="51.555406" lon="-0.855197">
        <ele>32.764108</ele>
        <time>2023-09-30T09:19:43.000Z</time>
      </trkpt>
      <trkpt lat="51.555431" lon="-0.856283">
        <ele>32.044146</ele>
        <time>2023-09-30T09:19:51.000Z</time>
      </trkpt>
      <trkpt lat="51.555487" lon="-0.857169">
        <ele>31.457379</ele>
        <time>2023-09-30T09:19:57.000Z</time>
      </trkpt>
      <trkpt lat="51.555641" lon="-0.858494">
        <ele>31.140602</ele>
        <time>2023-09-30T09:20:06.000Z</time>
      </trkpt>
      <trkpt lat="51.555767" lon="-0.85931">
        <ele>31.023605</ele>
        <time>2023-09-30T09:20:12.000Z</time>
      </trkpt>
      <trkpt lat="51.555935" lon="-0.860018">
        <ele>30.917405</ele>
        <time>2023-09-30T09:20:17.000Z</time>
      </trkpt>
      <trkpt lat="51.556571" lon="-0.861797">
        <ele>31.330508</ele>
        <time>2023-09-30T09:20:31.000Z</time>
      </trkpt>
      <trkpt lat="51.556684" lon="-0.862315">
        <ele>31.461394</ele>
        <time>2023-09-30T09:20:35.000Z</time>
      </trkpt>
      <trkpt lat="51.556781" lon="-0.863143">
        <ele>31.70272</ele>
        <time>2023-09-30T09:20:41.000Z</time>
      </trkpt>
      <trkpt lat="51.556914" lon="-0.863671">
        <ele>31.89705</ele>
        <time>2023-09-30T09:20:45.000Z</time>
      </trkpt>
      <trkpt lat="51.557018" lon="-0.863878">
        <ele>31.990766</ele>
        <time>2023-09-30T09:20:47.000Z</time>
      </trkpt>
      <trkpt lat="51.557343" lon="-0.864384">
        <ele>32.245381</ele>
        <time>2023-09-30T09:20:52.000Z</time>
      </trkpt>
      <trkpt lat="51.557597" lon="-0.864935">
        <ele>32.48167</ele>
        <time>2023-09-30T09:20:57.000Z</time>
      </trkpt>
      <trkpt lat="51.557923" lon="-0.865754">
        <ele>32.758759</ele>
        <time>2023-09-30T09:21:04.000Z</time>
      </trkpt>
      <trkpt lat="51.558313" lon="-0.866812">
        <ele>33.076401</ele>
        <time>2023-09-30T09:21:13.000Z</time>
      </trkpt>
      <trkpt lat="51.558376" lon="-0.866963">
        <ele>33.125234</ele>
        <time>2023-09-30T09:21:14.000Z</time>
      </trkpt>
      <trkpt lat="51.558728" lon="-0.868042">
        <ele>33.38055</ele>
        <time>2023-09-30T09:21:22.000Z</time>
      </trkpt>
      <trkpt lat="51.55891" lon="-0.868729">
        <ele>33.474043</ele>
        <time>2023-09-30T09:21:27.000Z</time>
      </trkpt>
      <trkpt lat="51.558977" lon="-0.868933">
        <ele>33.503497</ele>
        <time>2023-09-30T09:21:29.000Z</time>
      </trkpt>
      <trkpt lat="51.559235" lon="-0.869587">
        <ele>33.600384</ele>
        <time>2023-09-30T09:21:34.000Z</time>
      </trkpt>
      <trkpt lat="51.560164" lon="-0.871248">
        <ele>33.470051</ele>
        <time>2023-09-30T09:21:49.000Z</time>
      </trkpt>
      <trkpt lat="51.560346" lon="-0.871552">
        <ele>33.412323</ele>
        <time>2023-09-30T09:21:52.000Z</time>
      </trkpt>
      <trkpt lat="51.560902" lon="-0.872626">
        <ele>33.188313</ele>
        <time>2023-09-30T09:22:02.000Z</time>
      </trkpt>
      <trkpt lat="51.561686" lon="-0.874292">
        <ele>32.785237</ele>
        <time>2023-09-30T09:22:16.000Z</time>
      </trkpt>
      <trkpt lat="51.562494" lon="-0.87635">
        <ele>33.075646</ele>
        <time>2023-09-30T09:22:33.000Z</time>
      </trkpt>
      <trkpt lat="51.562739" lon="-0.876918">
        <ele>33.190189</ele>
        <time>2023-09-30T09:22:38.000Z</time>
      </trkpt>
      <trkpt lat="51.562798" lon="-0.877127">
        <ele>33.289227</ele>
        <time>2023-09-30T09:22:40.000Z</time>
      </trkpt>
      <trkpt lat="51.562841" lon="-0.877304">
        <ele>33.426853</ele>
        <time>2023-09-30T09:22:41.000Z</time>
      </trkpt>
      <trkpt lat="51.562872" lon="-0.878021">
        <ele>33.962614</ele>
        <time>2023-09-30T09:22:46.000Z</time>
      </trkpt>
      <trkpt lat="51.562942" lon="-0.878343">
        <ele>34.219449</ele>
        <time>2023-09-30T09:22:48.000Z</time>
      </trkpt>
      <trkpt lat="51.563156" lon="-0.879207">
        <ele>34.908965</ele>
        <time>2023-09-30T09:22:54.000Z</time>
      </trkpt>
      <trkpt lat="51.563706" lon="-0.881057">
        <ele>36.718854</ele>
        <time>2023-09-30T09:23:08.000Z</time>
      </trkpt>
      <trkpt lat="51.563722" lon="-0.88113">
        <ele>36.787183</ele>
        <time>2023-09-30T09:23:09.000Z</time>
      </trkpt>
      <trkpt lat="51.563879" lon="-0.881773">
        <ele>37.432076</ele>
        <time>2023-09-30T09:23:14.000Z</time>
      </trkpt>
      <trkpt lat="51.563896" lon="-0.882026">
        <ele>37.677612</ele>
        <time>2023-09-30T09:23:16.000Z</time>
      </trkpt>
      <trkpt lat="51.563892" lon="-0.882341">
        <ele>37.96978</ele>
        <time>2023-09-30T09:23:18.000Z</time>
      </trkpt>
      <trkpt lat="51.563871" lon="-0.882857">
        <ele>38.021088</ele>
        <time>2023-09-30T09:23:22.000Z</time>
      </trkpt>
      <trkpt lat="51.563799" lon="-0.883579">
        <ele>37.921698</ele>
        <time>2023-09-30T09:23:27.000Z</time>
      </trkpt>
      <trkpt lat="51.563687" lon="-0.884276">
        <ele>37.822888</ele>
        <time>2023-09-30T09:23:32.000Z</time>
      </trkpt>
      <trkpt lat="51.563243" lon="-0.887273">
        <ele>37.6282956869</ele>
        <time>2023-09-30T09:23:53.000Z</time>
      </trkpt>
      <trkpt lat="51.563239" lon="-0.8873">
        <ele>37.6265425949</ele>
        <time>2023-09-30T09:23:53.000Z</time>
      </trkpt>
    </trkseg>
  </trk>
</gpx>

<!--
Performance optimized by W3 Total Cache. Learn more: https://www.boldgrid.com/w3-total-cache/?utm_source=w3tc&utm_medium=footer_comment&utm_campaign=free_plugin

Page Caching using Disk: Enhanced{w3tc_pagecache_reject_reason} 

Served from: www.aquabike.world @ 2026-05-10 22:15:56 by W3 Total Cache
-->